<?xml version="1.0" encoding="UTF-8" standalone="no" ?>
<gpx xmlns="http://www.topografix.com/GPX/1/1" xmlns:xsi="http://www.w3.org/2001/XMLSchema-instance" xsi:schemaLocation="http://www.topografix.com/GPX/1/1 http://www.topografix.com/GPX/1/1/gpx.xsd" version="1.1" creator="VisuGPX - https://www.visugpx.com">
  <metadata>
    <name>SC2006G1enclus80km</name>
  </metadata>
  <trk>
    <name><![CDATA[Flines Mont de l'Enclus]]></name>
    <trkseg>
      <trkpt lat="50.50461" lon="3.45417">
        <ele>17.026508</ele>
        <time>2021-06-17T19:34:05.294Z</time>
      </trkpt>
      <trkpt lat="50.50468" lon="3.45372">
        <ele>17.026508</ele>
        <time>2021-06-17T19:34:09.092Z</time>
      </trkpt>
      <trkpt lat="50.50471" lon="3.45343">
        <ele>17.026508</ele>
        <time>2021-06-17T19:34:11.524Z</time>
      </trkpt>
      <trkpt lat="50.50473" lon="3.45332">
        <ele>17.026508</ele>
        <time>2021-06-17T19:34:12.331Z</time>
      </trkpt>
      <trkpt lat="50.50477" lon="3.45312">
        <ele>17.026508</ele>
        <time>2021-06-17T19:34:14.191Z</time>
      </trkpt>
      <trkpt lat="50.50513" lon="3.45201">
        <ele>16.691669</ele>
        <time>2021-06-17T19:34:24.289Z</time>
      </trkpt>
      <trkpt lat="50.50531" lon="3.45152">
        <ele>16.483907</ele>
        <time>2021-06-17T19:34:28.862Z</time>
      </trkpt>
      <trkpt lat="50.50539" lon="3.45133">
        <ele>16.398966</ele>
        <time>2021-06-17T19:34:30.673Z</time>
      </trkpt>
      <trkpt lat="50.50551" lon="3.45111">
        <ele>16.294202</ele>
        <time>2021-06-17T19:34:33.111Z</time>
      </trkpt>
      <trkpt lat="50.50599" lon="3.45026">
        <ele>15.959905</ele>
        <time>2021-06-17T19:34:43.084Z</time>
      </trkpt>
      <trkpt lat="50.50652" lon="3.44916">
        <ele>15.834171</ele>
        <time>2021-06-17T19:34:55.910Z</time>
      </trkpt>
      <trkpt lat="50.50661" lon="3.44894">
        <ele>15.810684</ele>
        <time>2021-06-17T19:34:58.173Z</time>
      </trkpt>
      <trkpt lat="50.50673" lon="3.44871">
        <ele>15.783162</ele>
        <time>2021-06-17T19:35:01.069Z</time>
      </trkpt>
      <trkpt lat="50.50707" lon="3.44823">
        <ele>15.724313</ele>
        <time>2021-06-17T19:35:07.538Z</time>
      </trkpt>
      <trkpt lat="50.51095" lon="3.44486">
        <ele>15.524327</ele>
        <time>2021-06-17T19:36:11.982Z</time>
      </trkpt>
      <trkpt lat="50.51116" lon="3.44468">
        <ele>15.540745</ele>
        <time>2021-06-17T19:36:15.795Z</time>
      </trkpt>
      <trkpt lat="50.51187" lon="3.44406">
        <ele>15.650077</ele>
        <time>2021-06-17T19:36:28.432Z</time>
      </trkpt>
      <trkpt lat="50.5119" lon="3.44403">
        <ele>15.666933</ele>
        <time>2021-06-17T19:36:29.225Z</time>
      </trkpt>
      <trkpt lat="50.51322" lon="3.4435">
        <ele>16.192441</ele>
        <time>2021-06-17T19:36:51.620Z</time>
      </trkpt>
      <trkpt lat="50.5134" lon="3.44349">
        <ele>16.264682</ele>
        <time>2021-06-17T19:36:54.816Z</time>
      </trkpt>
      <trkpt lat="50.51346" lon="3.4435">
        <ele>16.284431</ele>
        <time>2021-06-17T19:36:55.762Z</time>
      </trkpt>
      <trkpt lat="50.5139" lon="3.44363">
        <ele>16.369863</ele>
        <time>2021-06-17T19:37:03.049Z</time>
      </trkpt>
      <trkpt lat="50.51573" lon="3.44428">
        <ele>16.47445</ele>
        <time>2021-06-17T19:37:31.896Z</time>
      </trkpt>
      <trkpt lat="50.51599" lon="3.44445">
        <ele>16.396149</ele>
        <time>2021-06-17T19:37:35.679Z</time>
      </trkpt>
      <trkpt lat="50.51714" lon="3.44519">
        <ele>16.054589</ele>
        <time>2021-06-17T19:37:52.155Z</time>
      </trkpt>
      <trkpt lat="50.51727" lon="3.44527">
        <ele>16.019762</ele>
        <time>2021-06-17T19:37:53.896Z</time>
      </trkpt>
      <trkpt lat="50.51818" lon="3.44585">
        <ele>15.766188</ele>
        <time>2021-06-17T19:38:07.316Z</time>
      </trkpt>
      <trkpt lat="50.51845" lon="3.44602">
        <ele>15.692453</ele>
        <time>2021-06-17T19:38:11.640Z</time>
      </trkpt>
      <trkpt lat="50.5192" lon="3.44671">
        <ele>15.948241</ele>
        <time>2021-06-17T19:38:25.419Z</time>
      </trkpt>
      <trkpt lat="50.51925" lon="3.44675">
        <ele>15.970678</ele>
        <time>2021-06-17T19:38:26.431Z</time>
      </trkpt>
      <trkpt lat="50.51933" lon="3.44684">
        <ele>16.01022</ele>
        <time>2021-06-17T19:38:28.425Z</time>
      </trkpt>
      <trkpt lat="50.51953" lon="3.44702">
        <ele>16.097385</ele>
        <time>2021-06-17T19:38:31.970Z</time>
      </trkpt>
      <trkpt lat="50.51991" lon="3.44724">
        <ele>16.255856</ele>
        <time>2021-06-17T19:38:38.912Z</time>
      </trkpt>
      <trkpt lat="50.52029" lon="3.44725">
        <ele>16.385707</ele>
        <time>2021-06-17T19:38:45.331Z</time>
      </trkpt>
      <trkpt lat="50.52034" lon="3.44722">
        <ele>16.397526</ele>
        <time>2021-06-17T19:38:46.374Z</time>
      </trkpt>
      <trkpt lat="50.52072" lon="3.44707">
        <ele>16.4914</ele>
        <time>2021-06-17T19:38:52.978Z</time>
      </trkpt>
      <trkpt lat="50.52089" lon="3.44693">
        <ele>16.538621</ele>
        <time>2021-06-17T19:38:56.027Z</time>
      </trkpt>
      <trkpt lat="50.52092" lon="3.44691">
        <ele>16.545007</ele>
        <time>2021-06-17T19:38:56.446Z</time>
      </trkpt>
      <trkpt lat="50.52105" lon="3.44679">
        <ele>16.581123</ele>
        <time>2021-06-17T19:38:58.922Z</time>
      </trkpt>
      <trkpt lat="50.52116" lon="3.44669">
        <ele>16.612975</ele>
        <time>2021-06-17T19:39:00.953Z</time>
      </trkpt>
      <trkpt lat="50.52143" lon="3.44666">
        <ele>16.676703</ele>
        <time>2021-06-17T19:39:05.126Z</time>
      </trkpt>
      <trkpt lat="50.52154" lon="3.44675">
        <ele>16.707195</ele>
        <time>2021-06-17T19:39:06.990Z</time>
      </trkpt>
      <trkpt lat="50.52189" lon="3.44712">
        <ele>16.781206</ele>
        <time>2021-06-17T19:39:13.162Z</time>
      </trkpt>
      <trkpt lat="50.52222" lon="3.44745">
        <ele>16.743241</ele>
        <time>2021-06-17T19:39:18.748Z</time>
      </trkpt>
      <trkpt lat="50.52251" lon="3.448">
        <ele>16.699495</ele>
        <time>2021-06-17T19:39:25.260Z</time>
      </trkpt>
      <trkpt lat="50.52281" lon="3.44844">
        <ele>16.659728</ele>
        <time>2021-06-17T19:39:31.168Z</time>
      </trkpt>
      <trkpt lat="50.52311" lon="3.44887">
        <ele>16.621094</ele>
        <time>2021-06-17T19:39:37.009Z</time>
      </trkpt>
      <trkpt lat="50.52348" lon="3.44962">
        <ele>16.69086</ele>
        <time>2021-06-17T19:39:46.064Z</time>
      </trkpt>
      <trkpt lat="50.52354" lon="3.44967">
        <ele>16.700868</ele>
        <time>2021-06-17T19:39:47.146Z</time>
      </trkpt>
      <trkpt lat="50.52364" lon="3.44971">
        <ele>16.714721</ele>
        <time>2021-06-17T19:39:48.717Z</time>
      </trkpt>
      <trkpt lat="50.52397" lon="3.4497">
        <ele>16.760161</ele>
        <time>2021-06-17T19:39:53.957Z</time>
      </trkpt>
      <trkpt lat="50.52465" lon="3.44966">
        <ele>16.853285</ele>
        <time>2021-06-17T19:40:04.569Z</time>
      </trkpt>
      <trkpt lat="50.52496" lon="3.44968">
        <ele>16.90011</ele>
        <time>2021-06-17T19:40:09.478Z</time>
      </trkpt>
      <trkpt lat="50.52556" lon="3.44992">
        <ele>16.994025</ele>
        <time>2021-06-17T19:40:19.077Z</time>
      </trkpt>
      <trkpt lat="50.52569" lon="3.45007">
        <ele>17.019435</ele>
        <time>2021-06-17T19:40:21.469Z</time>
      </trkpt>
      <trkpt lat="50.52594" lon="3.45088">
        <ele>17.10638</ele>
        <time>2021-06-17T19:40:30.168Z</time>
      </trkpt>
      <trkpt lat="50.52608" lon="3.45115">
        <ele>17.144358</ele>
        <time>2021-06-17T19:40:33.401Z</time>
      </trkpt>
      <trkpt lat="50.52695" lon="3.45217">
        <ele>17.692608</ele>
        <time>2021-06-17T19:40:50.911Z</time>
      </trkpt>
      <trkpt lat="50.52698" lon="3.45225">
        <ele>17.72493</ele>
        <time>2021-06-17T19:40:52.079Z</time>
      </trkpt>
      <trkpt lat="50.52707" lon="3.45261">
        <ele>17.848124</ele>
        <time>2021-06-17T19:40:56.333Z</time>
      </trkpt>
      <trkpt lat="50.52719" lon="3.45338">
        <ele>18.141759</ele>
        <time>2021-06-17T19:41:05.518Z</time>
      </trkpt>
      <trkpt lat="50.52726" lon="3.45386">
        <ele>18.415645</ele>
        <time>2021-06-17T19:41:11.366Z</time>
      </trkpt>
      <trkpt lat="50.52741" lon="3.45438">
        <ele>18.732924</ele>
        <time>2021-06-17T19:41:18.286Z</time>
      </trkpt>
      <trkpt lat="50.52758" lon="3.45546">
        <ele>19.349075</ele>
        <time>2021-06-17T19:41:31.466Z</time>
      </trkpt>
      <trkpt lat="50.52769" lon="3.45601">
        <ele>19.655804</ele>
        <time>2021-06-17T19:41:37.994Z</time>
      </trkpt>
      <trkpt lat="50.52802" lon="3.4571">
        <ele>20.191446</ele>
        <time>2021-06-17T19:41:51.540Z</time>
      </trkpt>
      <trkpt lat="50.52899" lon="3.46191">
        <ele>22.658796</ele>
        <time>2021-06-17T19:42:47.747Z</time>
      </trkpt>
      <trkpt lat="50.52939" lon="3.46351">
        <ele>23.960027</ele>
        <time>2021-06-17T19:43:10.093Z</time>
      </trkpt>
      <trkpt lat="50.52951" lon="3.46484">
        <ele>25.071867</ele>
        <time>2021-06-17T19:43:27.730Z</time>
      </trkpt>
      <trkpt lat="50.53003" lon="3.46805">
        <ele>27.608027</ele>
        <time>2021-06-17T19:44:10.222Z</time>
      </trkpt>
      <trkpt lat="50.53008" lon="3.46817">
        <ele>27.697512</ele>
        <time>2021-06-17T19:44:11.929Z</time>
      </trkpt>
      <trkpt lat="50.53012" lon="3.46822">
        <ele>27.744898</ele>
        <time>2021-06-17T19:44:12.887Z</time>
      </trkpt>
      <trkpt lat="50.53018" lon="3.46828">
        <ele>27.82214</ele>
        <time>2021-06-17T19:44:14.373Z</time>
      </trkpt>
      <trkpt lat="50.53025" lon="3.46829">
        <ele>27.890895</ele>
        <time>2021-06-17T19:44:16.137Z</time>
      </trkpt>
      <trkpt lat="50.53175" lon="3.46773">
        <ele>27.954957</ele>
        <time>2021-06-17T19:44:41.125Z</time>
      </trkpt>
      <trkpt lat="50.53195" lon="3.46763">
        <ele>27.82965</ele>
        <time>2021-06-17T19:44:44.025Z</time>
      </trkpt>
      <trkpt lat="50.532" lon="3.46759">
        <ele>27.796831</ele>
        <time>2021-06-17T19:44:44.531Z</time>
      </trkpt>
      <trkpt lat="50.53267" lon="3.46704">
        <ele>27.227774</ele>
        <time>2021-06-17T19:44:53.022Z</time>
      </trkpt>
      <trkpt lat="50.53356" lon="3.46634">
        <ele>25.832765</ele>
        <time>2021-06-17T19:45:04.099Z</time>
      </trkpt>
      <trkpt lat="50.5341" lon="3.46593">
        <ele>24.995849</ele>
        <time>2021-06-17T19:45:11.414Z</time>
      </trkpt>
      <trkpt lat="50.53601" lon="3.4645">
        <ele>24.325283</ele>
        <time>2021-06-17T19:45:42.850Z</time>
      </trkpt>
      <trkpt lat="50.53712" lon="3.46368">
        <ele>23.113423</ele>
        <time>2021-06-17T19:45:57.777Z</time>
      </trkpt>
      <trkpt lat="50.53812" lon="3.46292">
        <ele>21.719544</ele>
        <time>2021-06-17T19:46:10.299Z</time>
      </trkpt>
      <trkpt lat="50.53844" lon="3.46263">
        <ele>21.227495</ele>
        <time>2021-06-17T19:46:14.502Z</time>
      </trkpt>
      <trkpt lat="50.53856" lon="3.46244">
        <ele>20.992441</ele>
        <time>2021-06-17T19:46:16.585Z</time>
      </trkpt>
      <trkpt lat="50.53878" lon="3.46181">
        <ele>20.383494</ele>
        <time>2021-06-17T19:46:22.053Z</time>
      </trkpt>
      <trkpt lat="50.5388" lon="3.46164">
        <ele>20.332083</ele>
        <time>2021-06-17T19:46:23.392Z</time>
      </trkpt>
      <trkpt lat="50.53949" lon="3.45679">
        <ele>19.381574</ele>
        <time>2021-06-17T19:47:07.974Z</time>
      </trkpt>
      <trkpt lat="50.54021" lon="3.45177">
        <ele>18.504416</ele>
        <time>2021-06-17T19:47:53.427Z</time>
      </trkpt>
      <trkpt lat="50.5404" lon="3.45071">
        <ele>18.311231</ele>
        <time>2021-06-17T19:48:03.088Z</time>
      </trkpt>
      <trkpt lat="50.54079" lon="3.44862">
        <ele>17.809567</ele>
        <time>2021-06-17T19:48:22.735Z</time>
      </trkpt>
      <trkpt lat="50.54083" lon="3.44841">
        <ele>17.759024</ele>
        <time>2021-06-17T19:48:24.570Z</time>
      </trkpt>
      <trkpt lat="50.54084" lon="3.44834">
        <ele>17.741671</ele>
        <time>2021-06-17T19:48:25.147Z</time>
      </trkpt>
      <trkpt lat="50.54089" lon="3.44817">
        <ele>17.697872</ele>
        <time>2021-06-17T19:48:26.613Z</time>
      </trkpt>
      <trkpt lat="50.54112" lon="3.44694">
        <ele>17.252633</ele>
        <time>2021-06-17T19:48:36.702Z</time>
      </trkpt>
      <trkpt lat="50.54114" lon="3.44687">
        <ele>17.226683</ele>
        <time>2021-06-17T19:48:37.379Z</time>
      </trkpt>
      <trkpt lat="50.54118" lon="3.44689">
        <ele>17.199156</ele>
        <time>2021-06-17T19:48:37.984Z</time>
      </trkpt>
      <trkpt lat="50.54123" lon="3.44691">
        <ele>17.170988</ele>
        <time>2021-06-17T19:48:38.618Z</time>
      </trkpt>
      <trkpt lat="50.54138" lon="3.44698">
        <ele>17.084512</ele>
        <time>2021-06-17T19:48:40.528Z</time>
      </trkpt>
      <trkpt lat="50.54141" lon="3.447">
        <ele>17.065765</ele>
        <time>2021-06-17T19:48:40.959Z</time>
      </trkpt>
      <trkpt lat="50.5416" lon="3.44707">
        <ele>16.954284</ele>
        <time>2021-06-17T19:48:43.736Z</time>
      </trkpt>
      <trkpt lat="50.5417" lon="3.44711">
        <ele>16.89813</ele>
        <time>2021-06-17T19:48:45.014Z</time>
      </trkpt>
      <trkpt lat="50.54179" lon="3.44715">
        <ele>16.844264</ele>
        <time>2021-06-17T19:48:46.350Z</time>
      </trkpt>
      <trkpt lat="50.54192" lon="3.4472">
        <ele>16.767993</ele>
        <time>2021-06-17T19:48:48.439Z</time>
      </trkpt>
      <trkpt lat="50.54222" lon="3.44731">
        <ele>16.697925</ele>
        <time>2021-06-17T19:48:52.723Z</time>
      </trkpt>
      <trkpt lat="50.54249" lon="3.44741">
        <ele>16.818916</ele>
        <time>2021-06-17T19:48:56.478Z</time>
      </trkpt>
      <trkpt lat="50.54262" lon="3.44741">
        <ele>16.875914</ele>
        <time>2021-06-17T19:48:58.528Z</time>
      </trkpt>
      <trkpt lat="50.5428" lon="3.44728">
        <ele>16.964136</ele>
        <time>2021-06-17T19:49:01.201Z</time>
      </trkpt>
      <trkpt lat="50.54288" lon="3.44721">
        <ele>17.004191</ele>
        <time>2021-06-17T19:49:02.766Z</time>
      </trkpt>
      <trkpt lat="50.54333" lon="3.44658">
        <ele>17.266488</ele>
        <time>2021-06-17T19:49:13.461Z</time>
      </trkpt>
      <trkpt lat="50.54389" lon="3.44586">
        <ele>17.635353</ele>
        <time>2021-06-17T19:49:27.495Z</time>
      </trkpt>
      <trkpt lat="50.54403" lon="3.4458">
        <ele>17.717771</ele>
        <time>2021-06-17T19:49:30.326Z</time>
      </trkpt>
      <trkpt lat="50.54414" lon="3.4458">
        <ele>17.781306</ele>
        <time>2021-06-17T19:49:32.248Z</time>
      </trkpt>
      <trkpt lat="50.54423" lon="3.4458">
        <ele>17.833119</ele>
        <time>2021-06-17T19:49:33.775Z</time>
      </trkpt>
      <trkpt lat="50.54433" lon="3.44583">
        <ele>17.892516</ele>
        <time>2021-06-17T19:49:35.576Z</time>
      </trkpt>
      <trkpt lat="50.54444" lon="3.44586">
        <ele>17.964019</ele>
        <time>2021-06-17T19:49:37.719Z</time>
      </trkpt>
      <trkpt lat="50.54443" lon="3.44602">
        <ele>18.024244</ele>
        <time>2021-06-17T19:49:39.991Z</time>
      </trkpt>
      <trkpt lat="50.54438" lon="3.44687">
        <ele>18.340633</ele>
        <time>2021-06-17T19:49:51.746Z</time>
      </trkpt>
      <trkpt lat="50.54433" lon="3.44779">
        <ele>18.540337</ele>
        <time>2021-06-17T19:50:04.063Z</time>
      </trkpt>
      <trkpt lat="50.54443" lon="3.44924">
        <ele>18.663867</ele>
        <time>2021-06-17T19:50:22.497Z</time>
      </trkpt>
      <trkpt lat="50.54452" lon="3.44978">
        <ele>18.710355</ele>
        <time>2021-06-17T19:50:29.649Z</time>
      </trkpt>
      <trkpt lat="50.54568" lon="3.45465">
        <ele>20.825912</ele>
        <time>2021-06-17T19:51:45.882Z</time>
      </trkpt>
      <trkpt lat="50.54574" lon="3.45481">
        <ele>20.907787</ele>
        <time>2021-06-17T19:51:48.761Z</time>
      </trkpt>
      <trkpt lat="50.5458" lon="3.45499">
        <ele>21.002994</ele>
        <time>2021-06-17T19:51:52.037Z</time>
      </trkpt>
      <trkpt lat="50.54755" lon="3.46215">
        <ele>23.160984</ele>
        <time>2021-06-17T19:53:41.263Z</time>
      </trkpt>
      <trkpt lat="50.54762" lon="3.4624">
        <ele>23.163119</ele>
        <time>2021-06-17T19:53:44.377Z</time>
      </trkpt>
      <trkpt lat="50.54767" lon="3.46264">
        <ele>23.165147</ele>
        <time>2021-06-17T19:53:47.631Z</time>
      </trkpt>
      <trkpt lat="50.54814" lon="3.46462">
        <ele>22.751915</ele>
        <time>2021-06-17T19:54:11.238Z</time>
      </trkpt>
      <trkpt lat="50.5482" lon="3.46483">
        <ele>22.685221</ele>
        <time>2021-06-17T19:54:13.910Z</time>
      </trkpt>
      <trkpt lat="50.54832" lon="3.46526">
        <ele>22.546854</ele>
        <time>2021-06-17T19:54:19.582Z</time>
      </trkpt>
      <trkpt lat="50.54994" lon="3.47188">
        <ele>23.51651</ele>
        <time>2021-06-17T19:55:55.674Z</time>
      </trkpt>
      <trkpt lat="50.54994" lon="3.47188">
        <ele>23.518089</ele>
        <time>2021-06-17T19:55:56.015Z</time>
      </trkpt>
      <trkpt lat="50.55009" lon="3.47249">
        <ele>23.757596</ele>
        <time>2021-06-17T19:56:05.300Z</time>
      </trkpt>
      <trkpt lat="50.55022" lon="3.47297">
        <ele>23.947594</ele>
        <time>2021-06-17T19:56:12.894Z</time>
      </trkpt>
      <trkpt lat="50.55199" lon="3.4802">
        <ele>26.61019</ele>
        <time>2021-06-17T19:58:02.857Z</time>
      </trkpt>
      <trkpt lat="50.55201" lon="3.48028">
        <ele>26.644567</ele>
        <time>2021-06-17T19:58:04.156Z</time>
      </trkpt>
      <trkpt lat="50.55205" lon="3.4802">
        <ele>26.684707</ele>
        <time>2021-06-17T19:58:05.205Z</time>
      </trkpt>
      <trkpt lat="50.5521" lon="3.48008">
        <ele>26.74332</ele>
        <time>2021-06-17T19:58:06.735Z</time>
      </trkpt>
      <trkpt lat="50.55261" lon="3.47984">
        <ele>27.09375</ele>
        <time>2021-06-17T19:58:16.005Z</time>
      </trkpt>
      <trkpt lat="50.55426" lon="3.47881">
        <ele>28.776475</ele>
        <time>2021-06-17T19:58:48.762Z</time>
      </trkpt>
      <trkpt lat="50.55546" lon="3.47808">
        <ele>30.492286</ele>
        <time>2021-06-17T19:59:15.258Z</time>
      </trkpt>
      <trkpt lat="50.55556" lon="3.47802">
        <ele>30.646056</ele>
        <time>2021-06-17T19:59:17.648Z</time>
      </trkpt>
      <trkpt lat="50.55568" lon="3.47794">
        <ele>30.836859</ele>
        <time>2021-06-17T19:59:20.423Z</time>
      </trkpt>
      <trkpt lat="50.55636" lon="3.47763">
        <ele>31.786732</ele>
        <time>2021-06-17T19:59:35.643Z</time>
      </trkpt>
      <trkpt lat="50.55658" lon="3.47761">
        <ele>31.907142</ele>
        <time>2021-06-17T19:59:40.165Z</time>
      </trkpt>
      <trkpt lat="50.55681" lon="3.4776">
        <ele>32.033964</ele>
        <time>2021-06-17T19:59:44.379Z</time>
      </trkpt>
      <trkpt lat="50.55701" lon="3.47748">
        <ele>32.154534</ele>
        <time>2021-06-17T19:59:48.338Z</time>
      </trkpt>
      <trkpt lat="50.55728" lon="3.47699">
        <ele>32.382408</ele>
        <time>2021-06-17T19:59:54.781Z</time>
      </trkpt>
      <trkpt lat="50.55744" lon="3.47681">
        <ele>32.490565</ele>
        <time>2021-06-17T19:59:57.481Z</time>
      </trkpt>
      <trkpt lat="50.55747" lon="3.47679">
        <ele>32.506744</ele>
        <time>2021-06-17T19:59:58.107Z</time>
      </trkpt>
      <trkpt lat="50.55752" lon="3.47676">
        <ele>32.540436</ele>
        <time>2021-06-17T19:59:58.940Z</time>
      </trkpt>
      <trkpt lat="50.55759" lon="3.47674">
        <ele>32.57752</ele>
        <time>2021-06-17T19:59:59.883Z</time>
      </trkpt>
      <trkpt lat="50.55776" lon="3.47674">
        <ele>32.669977</ele>
        <time>2021-06-17T20:00:02.190Z</time>
      </trkpt>
      <trkpt lat="50.55831" lon="3.47675">
        <ele>32.80151</ele>
        <time>2021-06-17T20:00:10.444Z</time>
      </trkpt>
      <trkpt lat="50.55848" lon="3.47676">
        <ele>32.830429</ele>
        <time>2021-06-17T20:00:12.935Z</time>
      </trkpt>
      <trkpt lat="50.55867" lon="3.47685">
        <ele>32.86314</ele>
        <time>2021-06-17T20:00:15.889Z</time>
      </trkpt>
      <trkpt lat="50.55879" lon="3.47699">
        <ele>32.888348</ele>
        <time>2021-06-17T20:00:18.064Z</time>
      </trkpt>
      <trkpt lat="50.55894" lon="3.4773">
        <ele>32.929011</ele>
        <time>2021-06-17T20:00:21.828Z</time>
      </trkpt>
      <trkpt lat="50.55907" lon="3.47755">
        <ele>32.962486</ele>
        <time>2021-06-17T20:00:24.610Z</time>
      </trkpt>
      <trkpt lat="50.55911" lon="3.47761">
        <ele>32.971112</ele>
        <time>2021-06-17T20:00:25.308Z</time>
      </trkpt>
      <trkpt lat="50.55915" lon="3.47765">
        <ele>32.978802</ele>
        <time>2021-06-17T20:00:26.075Z</time>
      </trkpt>
      <trkpt lat="50.5592" lon="3.47766">
        <ele>32.988061</ele>
        <time>2021-06-17T20:00:27.090Z</time>
      </trkpt>
      <trkpt lat="50.56024" lon="3.47769">
        <ele>33.813784</ele>
        <time>2021-06-17T20:00:46.457Z</time>
      </trkpt>
      <trkpt lat="50.56079" lon="3.47789">
        <ele>34.358766</ele>
        <time>2021-06-17T20:00:57.709Z</time>
      </trkpt>
      <trkpt lat="50.56092" lon="3.47804">
        <ele>34.507468</ele>
        <time>2021-06-17T20:01:00.869Z</time>
      </trkpt>
      <trkpt lat="50.56104" lon="3.47783">
        <ele>34.680703</ele>
        <time>2021-06-17T20:01:04.024Z</time>
      </trkpt>
      <trkpt lat="50.56138" lon="3.47691">
        <ele>35.197038</ele>
        <time>2021-06-17T20:01:16.500Z</time>
      </trkpt>
      <trkpt lat="50.56142" lon="3.47684">
        <ele>35.240869</ele>
        <time>2021-06-17T20:01:17.515Z</time>
      </trkpt>
      <trkpt lat="50.5615" lon="3.4768">
        <ele>35.303816</ele>
        <time>2021-06-17T20:01:19.227Z</time>
      </trkpt>
      <trkpt lat="50.56158" lon="3.47679">
        <ele>35.356885</ele>
        <time>2021-06-17T20:01:20.614Z</time>
      </trkpt>
      <trkpt lat="50.56187" lon="3.47692">
        <ele>35.579364</ele>
        <time>2021-06-17T20:01:25.956Z</time>
      </trkpt>
      <trkpt lat="50.56193" lon="3.47696">
        <ele>35.632262</ele>
        <time>2021-06-17T20:01:27.299Z</time>
      </trkpt>
      <trkpt lat="50.5623" lon="3.47745">
        <ele>35.982928</ele>
        <time>2021-06-17T20:01:35.127Z</time>
      </trkpt>
      <trkpt lat="50.56236" lon="3.47754">
        <ele>36.049774</ele>
        <time>2021-06-17T20:01:36.629Z</time>
      </trkpt>
      <trkpt lat="50.5624" lon="3.47748">
        <ele>36.086471</ele>
        <time>2021-06-17T20:01:37.509Z</time>
      </trkpt>
      <trkpt lat="50.56298" lon="3.47689">
        <ele>36.525226</ele>
        <time>2021-06-17T20:01:49.234Z</time>
      </trkpt>
      <trkpt lat="50.56326" lon="3.47642">
        <ele>36.781731</ele>
        <time>2021-06-17T20:01:56.343Z</time>
      </trkpt>
      <trkpt lat="50.5639" lon="3.47615">
        <ele>37.198505</ele>
        <time>2021-06-17T20:02:08.028Z</time>
      </trkpt>
      <trkpt lat="50.56432" lon="3.47581">
        <ele>37.717691</ele>
        <time>2021-06-17T20:02:16.450Z</time>
      </trkpt>
      <trkpt lat="50.56483" lon="3.4754">
        <ele>38.369292</ele>
        <time>2021-06-17T20:02:27.400Z</time>
      </trkpt>
      <trkpt lat="50.56562" lon="3.47477">
        <ele>39.402079</ele>
        <time>2021-06-17T20:02:45.248Z</time>
      </trkpt>
      <trkpt lat="50.56576" lon="3.47466">
        <ele>39.652556</ele>
        <time>2021-06-17T20:02:49.106Z</time>
      </trkpt>
      <trkpt lat="50.56619" lon="3.47432">
        <ele>40.378746</ele>
        <time>2021-06-17T20:02:59.034Z</time>
      </trkpt>
      <trkpt lat="50.56634" lon="3.47422">
        <ele>40.639108</ele>
        <time>2021-06-17T20:03:02.527Z</time>
      </trkpt>
      <trkpt lat="50.56641" lon="3.47421">
        <ele>40.733822</ele>
        <time>2021-06-17T20:03:03.950Z</time>
      </trkpt>
      <trkpt lat="50.56648" lon="3.47418">
        <ele>40.844457</ele>
        <time>2021-06-17T20:03:05.526Z</time>
      </trkpt>
      <trkpt lat="50.56697" lon="3.47412">
        <ele>41.59444</ele>
        <time>2021-06-17T20:03:15.297Z</time>
      </trkpt>
      <trkpt lat="50.56701" lon="3.47411">
        <ele>41.661994</ele>
        <time>2021-06-17T20:03:16.396Z</time>
      </trkpt>
      <trkpt lat="50.56705" lon="3.47409">
        <ele>41.732528</ele>
        <time>2021-06-17T20:03:17.370Z</time>
      </trkpt>
      <trkpt lat="50.56717" lon="3.47403">
        <ele>41.916931</ele>
        <time>2021-06-17T20:03:20.076Z</time>
      </trkpt>
      <trkpt lat="50.56774" lon="3.47365">
        <ele>42.775524</ele>
        <time>2021-06-17T20:03:32.976Z</time>
      </trkpt>
      <trkpt lat="50.56807" lon="3.47489">
        <ele>43.941791</ele>
        <time>2021-06-17T20:03:50.509Z</time>
      </trkpt>
      <trkpt lat="50.56812" lon="3.47507">
        <ele>44.110815</ele>
        <time>2021-06-17T20:03:52.809Z</time>
      </trkpt>
      <trkpt lat="50.56815" lon="3.47518">
        <ele>44.22122</ele>
        <time>2021-06-17T20:03:54.218Z</time>
      </trkpt>
      <trkpt lat="50.5682" lon="3.47528">
        <ele>44.332427</ele>
        <time>2021-06-17T20:03:56.055Z</time>
      </trkpt>
      <trkpt lat="50.56838" lon="3.47544">
        <ele>44.565262</ele>
        <time>2021-06-17T20:03:59.898Z</time>
      </trkpt>
      <trkpt lat="50.56882" lon="3.47565">
        <ele>44.980833</ele>
        <time>2021-06-17T20:04:08.586Z</time>
      </trkpt>
      <trkpt lat="50.569" lon="3.47571">
        <ele>45.148727</ele>
        <time>2021-06-17T20:04:12.274Z</time>
      </trkpt>
      <trkpt lat="50.56943" lon="3.476">
        <ele>45.570295</ele>
        <time>2021-06-17T20:04:20.901Z</time>
      </trkpt>
      <trkpt lat="50.56963" lon="3.47614">
        <ele>45.768012</ele>
        <time>2021-06-17T20:04:25.155Z</time>
      </trkpt>
      <trkpt lat="50.57008" lon="3.47669">
        <ele>46.14985</ele>
        <time>2021-06-17T20:04:34.845Z</time>
      </trkpt>
      <trkpt lat="50.57079" lon="3.47757">
        <ele>46.378827</ele>
        <time>2021-06-17T20:04:49.053Z</time>
      </trkpt>
      <trkpt lat="50.57106" lon="3.47799">
        <ele>46.47641</ele>
        <time>2021-06-17T20:04:54.765Z</time>
      </trkpt>
      <trkpt lat="50.57133" lon="3.47873">
        <ele>46.673254</ele>
        <time>2021-06-17T20:05:02.720Z</time>
      </trkpt>
      <trkpt lat="50.57171" lon="3.48065">
        <ele>47.308934</ele>
        <time>2021-06-17T20:05:24.202Z</time>
      </trkpt>
      <trkpt lat="50.57175" lon="3.4809">
        <ele>47.389188</ele>
        <time>2021-06-17T20:05:26.900Z</time>
      </trkpt>
      <trkpt lat="50.57179" lon="3.48099">
        <ele>47.42602</ele>
        <time>2021-06-17T20:05:28.566Z</time>
      </trkpt>
      <trkpt lat="50.57191" lon="3.48156">
        <ele>47.823394</ele>
        <time>2021-06-17T20:05:35.816Z</time>
      </trkpt>
      <trkpt lat="50.57235" lon="3.48362">
        <ele>49.357497</ele>
        <time>2021-06-17T20:06:03.572Z</time>
      </trkpt>
      <trkpt lat="50.5724" lon="3.48391">
        <ele>49.488512</ele>
        <time>2021-06-17T20:06:07.101Z</time>
      </trkpt>
      <trkpt lat="50.57246" lon="3.48417">
        <ele>49.547355</ele>
        <time>2021-06-17T20:06:10.073Z</time>
      </trkpt>
      <trkpt lat="50.57252" lon="3.48448">
        <ele>49.617482</ele>
        <time>2021-06-17T20:06:13.702Z</time>
      </trkpt>
      <trkpt lat="50.57263" lon="3.48501">
        <ele>49.738141</ele>
        <time>2021-06-17T20:06:19.517Z</time>
      </trkpt>
      <trkpt lat="50.57284" lon="3.48598">
        <ele>49.956803</ele>
        <time>2021-06-17T20:06:29.276Z</time>
      </trkpt>
      <trkpt lat="50.57308" lon="3.48672">
        <ele>50.186957</ele>
        <time>2021-06-17T20:06:36.861Z</time>
      </trkpt>
      <trkpt lat="50.57351" lon="3.48791">
        <ele>50.681057</ele>
        <time>2021-06-17T20:06:50.155Z</time>
      </trkpt>
      <trkpt lat="50.57355" lon="3.4881">
        <ele>50.752988</ele>
        <time>2021-06-17T20:06:52.295Z</time>
      </trkpt>
      <trkpt lat="50.57338" lon="3.48512">
        <ele>53.297738</ele>
        <time>2021-06-17T20:07:32.022Z</time>
      </trkpt>
      <trkpt lat="50.57343" lon="3.48486">
        <ele>53.593532</ele>
        <time>2021-06-17T20:07:36.145Z</time>
      </trkpt>
      <trkpt lat="50.57368" lon="3.48467">
        <ele>54.066608</ele>
        <time>2021-06-17T20:07:42.763Z</time>
      </trkpt>
      <trkpt lat="50.57614" lon="3.48354">
        <ele>59.622818</ele>
        <time>2021-06-17T20:08:43.862Z</time>
      </trkpt>
      <trkpt lat="50.57828" lon="3.48274">
        <ele>63.264066</ele>
        <time>2021-06-17T20:09:32.875Z</time>
      </trkpt>
      <trkpt lat="50.57835" lon="3.48271">
        <ele>63.357535</ele>
        <time>2021-06-17T20:09:34.551Z</time>
      </trkpt>
      <trkpt lat="50.57854" lon="3.48264">
        <ele>63.602676</ele>
        <time>2021-06-17T20:09:37.732Z</time>
      </trkpt>
      <trkpt lat="50.57903" lon="3.48269">
        <ele>64.023714</ele>
        <time>2021-06-17T20:09:46.001Z</time>
      </trkpt>
      <trkpt lat="50.57955" lon="3.48264">
        <ele>63.544872</ele>
        <time>2021-06-17T20:09:53.361Z</time>
      </trkpt>
      <trkpt lat="50.58057" lon="3.48288">
        <ele>62.592113</ele>
        <time>2021-06-17T20:10:05.515Z</time>
      </trkpt>
      <trkpt lat="50.58217" lon="3.48384">
        <ele>59.112688</ele>
        <time>2021-06-17T20:10:24.050Z</time>
      </trkpt>
      <trkpt lat="50.5826" lon="3.484">
        <ele>58.14797</ele>
        <time>2021-06-17T20:10:28.731Z</time>
      </trkpt>
      <trkpt lat="50.5853" lon="3.48404">
        <ele>52.620438</ele>
        <time>2021-06-17T20:10:57.942Z</time>
      </trkpt>
      <trkpt lat="50.58543" lon="3.4841">
        <ele>52.393436</ele>
        <time>2021-06-17T20:10:59.456Z</time>
      </trkpt>
      <trkpt lat="50.5859" lon="3.48481">
        <ele>51.379495</ele>
        <time>2021-06-17T20:11:07.391Z</time>
      </trkpt>
      <trkpt lat="50.58625" lon="3.48547">
        <ele>51.116691</ele>
        <time>2021-06-17T20:11:14.519Z</time>
      </trkpt>
      <trkpt lat="50.58634" lon="3.48585">
        <ele>50.991058</ele>
        <time>2021-06-17T20:11:18.105Z</time>
      </trkpt>
      <trkpt lat="50.58649" lon="3.48728">
        <ele>50.541321</ele>
        <time>2021-06-17T20:11:31.075Z</time>
      </trkpt>
      <trkpt lat="50.58665" lon="3.48769">
        <ele>50.309945</ele>
        <time>2021-06-17T20:11:35.324Z</time>
      </trkpt>
      <trkpt lat="50.58682" lon="3.48786">
        <ele>50.160308</ele>
        <time>2021-06-17T20:11:38.020Z</time>
      </trkpt>
      <trkpt lat="50.5871" lon="3.48796">
        <ele>49.947292</ele>
        <time>2021-06-17T20:11:41.683Z</time>
      </trkpt>
      <trkpt lat="50.5871" lon="3.48796">
        <ele>49.946544</ele>
        <time>2021-06-17T20:11:41.694Z</time>
      </trkpt>
      <trkpt lat="50.58803" lon="3.48807">
        <ele>49.250972</ele>
        <time>2021-06-17T20:11:53.174Z</time>
      </trkpt>
      <trkpt lat="50.58813" lon="3.48812">
        <ele>49.134279</ele>
        <time>2021-06-17T20:11:54.456Z</time>
      </trkpt>
      <trkpt lat="50.58835" lon="3.48839">
        <ele>48.764936</ele>
        <time>2021-06-17T20:11:57.737Z</time>
      </trkpt>
      <trkpt lat="50.58847" lon="3.48855">
        <ele>48.55561</ele>
        <time>2021-06-17T20:11:59.501Z</time>
      </trkpt>
      <trkpt lat="50.58859" lon="3.48834">
        <ele>48.316057</ele>
        <time>2021-06-17T20:12:02.542Z</time>
      </trkpt>
      <trkpt lat="50.58869" lon="3.48814">
        <ele>48.110484</ele>
        <time>2021-06-17T20:12:05.058Z</time>
      </trkpt>
      <trkpt lat="50.58876" lon="3.488">
        <ele>47.951579</ele>
        <time>2021-06-17T20:12:07.066Z</time>
      </trkpt>
      <trkpt lat="50.58898" lon="3.48765">
        <ele>47.538181</ele>
        <time>2021-06-17T20:12:12.264Z</time>
      </trkpt>
      <trkpt lat="50.58911" lon="3.48742">
        <ele>47.267947</ele>
        <time>2021-06-17T20:12:15.669Z</time>
      </trkpt>
      <trkpt lat="50.5893" lon="3.4871">
        <ele>46.907454</ele>
        <time>2021-06-17T20:12:20.124Z</time>
      </trkpt>
      <trkpt lat="50.58945" lon="3.48719">
        <ele>46.710265</ele>
        <time>2021-06-17T20:12:22.764Z</time>
      </trkpt>
      <trkpt lat="50.58963" lon="3.48724">
        <ele>46.499784</ele>
        <time>2021-06-17T20:12:25.871Z</time>
      </trkpt>
      <trkpt lat="50.5898" lon="3.48729">
        <ele>46.304888</ele>
        <time>2021-06-17T20:12:28.803Z</time>
      </trkpt>
      <trkpt lat="50.59022" lon="3.48704">
        <ele>45.809471</ele>
        <time>2021-06-17T20:12:36.185Z</time>
      </trkpt>
      <trkpt lat="50.59026" lon="3.48698">
        <ele>45.746227</ele>
        <time>2021-06-17T20:12:37.150Z</time>
      </trkpt>
      <trkpt lat="50.59035" lon="3.48686">
        <ele>45.614008</ele>
        <time>2021-06-17T20:12:39.136Z</time>
      </trkpt>
      <trkpt lat="50.59039" lon="3.48677">
        <ele>45.528764</ele>
        <time>2021-06-17T20:12:40.501Z</time>
      </trkpt>
      <trkpt lat="50.59042" lon="3.48656">
        <ele>45.379129</ele>
        <time>2021-06-17T20:12:42.760Z</time>
      </trkpt>
      <trkpt lat="50.59042" lon="3.48628">
        <ele>45.176504</ele>
        <time>2021-06-17T20:12:45.921Z</time>
      </trkpt>
      <trkpt lat="50.59039" lon="3.48507">
        <ele>44.428708</ele>
        <time>2021-06-17T20:12:59.929Z</time>
      </trkpt>
      <trkpt lat="50.59042" lon="3.48498">
        <ele>44.371004</ele>
        <time>2021-06-17T20:13:01.043Z</time>
      </trkpt>
      <trkpt lat="50.59071" lon="3.48457">
        <ele>44.035157</ele>
        <time>2021-06-17T20:13:08.102Z</time>
      </trkpt>
      <trkpt lat="50.59089" lon="3.4842">
        <ele>43.776705</ele>
        <time>2021-06-17T20:13:13.468Z</time>
      </trkpt>
      <trkpt lat="50.59102" lon="3.48367">
        <ele>43.468548</ele>
        <time>2021-06-17T20:13:19.875Z</time>
      </trkpt>
      <trkpt lat="50.5911" lon="3.48351">
        <ele>43.36056</ele>
        <time>2021-06-17T20:13:22.051Z</time>
      </trkpt>
      <trkpt lat="50.59122" lon="3.48337">
        <ele>43.214747</ele>
        <time>2021-06-17T20:13:24.857Z</time>
      </trkpt>
      <trkpt lat="50.5914" lon="3.48328">
        <ele>42.921618</ele>
        <time>2021-06-17T20:13:27.957Z</time>
      </trkpt>
      <trkpt lat="50.59243" lon="3.48273">
        <ele>41.229923</ele>
        <time>2021-06-17T20:13:45.629Z</time>
      </trkpt>
      <trkpt lat="50.59332" lon="3.48142">
        <ele>39.772049</ele>
        <time>2021-06-17T20:14:05.033Z</time>
      </trkpt>
      <trkpt lat="50.59369" lon="3.48082">
        <ele>39.273046</ele>
        <time>2021-06-17T20:14:14.474Z</time>
      </trkpt>
      <trkpt lat="50.59314" lon="3.48023">
        <ele>38.808843</ele>
        <time>2021-06-17T20:14:27.518Z</time>
      </trkpt>
      <trkpt lat="50.59304" lon="3.48014">
        <ele>38.875363</ele>
        <time>2021-06-17T20:14:30.451Z</time>
      </trkpt>
      <trkpt lat="50.59293" lon="3.48005">
        <ele>38.94567</ele>
        <time>2021-06-17T20:14:33.076Z</time>
      </trkpt>
      <trkpt lat="50.59219" lon="3.47937">
        <ele>39.419957</ele>
        <time>2021-06-17T20:14:53.227Z</time>
      </trkpt>
      <trkpt lat="50.59216" lon="3.4792">
        <ele>39.482788</ele>
        <time>2021-06-17T20:14:56.306Z</time>
      </trkpt>
      <trkpt lat="50.59222" lon="3.47886">
        <ele>39.607396</ele>
        <time>2021-06-17T20:15:01.325Z</time>
      </trkpt>
      <trkpt lat="50.59244" lon="3.47797">
        <ele>39.839189</ele>
        <time>2021-06-17T20:15:14.718Z</time>
      </trkpt>
      <trkpt lat="50.59268" lon="3.47728">
        <ele>39.963178</ele>
        <time>2021-06-17T20:15:24.833Z</time>
      </trkpt>
      <trkpt lat="50.59314" lon="3.47621">
        <ele>40.167891</ele>
        <time>2021-06-17T20:15:42.050Z</time>
      </trkpt>
      <trkpt lat="50.59327" lon="3.47572">
        <ele>40.246414</ele>
        <time>2021-06-17T20:15:49.273Z</time>
      </trkpt>
      <trkpt lat="50.59329" lon="3.47563">
        <ele>40.260341</ele>
        <time>2021-06-17T20:15:50.485Z</time>
      </trkpt>
      <trkpt lat="50.59341" lon="3.47519">
        <ele>40.327674</ele>
        <time>2021-06-17T20:15:57.034Z</time>
      </trkpt>
      <trkpt lat="50.59349" lon="3.47485">
        <ele>40.379166</ele>
        <time>2021-06-17T20:16:01.735Z</time>
      </trkpt>
      <trkpt lat="50.59356" lon="3.47475">
        <ele>40.400769</ele>
        <time>2021-06-17T20:16:04.061Z</time>
      </trkpt>
      <trkpt lat="50.59381" lon="3.47432">
        <ele>40.482638</ele>
        <time>2021-06-17T20:16:11.898Z</time>
      </trkpt>
      <trkpt lat="50.59381" lon="3.47432">
        <ele>40.482779</ele>
        <time>2021-06-17T20:16:11.905Z</time>
      </trkpt>
      <trkpt lat="50.59515" lon="3.47314">
        <ele>40.408892</ele>
        <time>2021-06-17T20:16:43.866Z</time>
      </trkpt>
      <trkpt lat="50.59576" lon="3.47279">
        <ele>40.285289</ele>
        <time>2021-06-17T20:16:55.871Z</time>
      </trkpt>
      <trkpt lat="50.59582" lon="3.47276">
        <ele>40.272233</ele>
        <time>2021-06-17T20:16:57.088Z</time>
      </trkpt>
      <trkpt lat="50.59587" lon="3.47275">
        <ele>40.263225</ele>
        <time>2021-06-17T20:16:57.910Z</time>
      </trkpt>
      <trkpt lat="50.59595" lon="3.47275">
        <ele>40.208643</ele>
        <time>2021-06-17T20:16:59.382Z</time>
      </trkpt>
      <trkpt lat="50.59637" lon="3.47245">
        <ele>39.723189</ele>
        <time>2021-06-17T20:17:07.503Z</time>
      </trkpt>
      <trkpt lat="50.59656" lon="3.47237">
        <ele>39.509709</ele>
        <time>2021-06-17T20:17:10.926Z</time>
      </trkpt>
      <trkpt lat="50.59662" lon="3.47236">
        <ele>39.441572</ele>
        <time>2021-06-17T20:17:12.081Z</time>
      </trkpt>
      <trkpt lat="50.59674" lon="3.47241">
        <ele>39.312561</ele>
        <time>2021-06-17T20:17:14.192Z</time>
      </trkpt>
      <trkpt lat="50.59694" lon="3.47157">
        <ele>38.708209</ele>
        <time>2021-06-17T20:17:23.936Z</time>
      </trkpt>
      <trkpt lat="50.59691" lon="3.47138">
        <ele>38.571776</ele>
        <time>2021-06-17T20:17:26.162Z</time>
      </trkpt>
      <trkpt lat="50.59693" lon="3.47125">
        <ele>38.485327</ele>
        <time>2021-06-17T20:17:27.521Z</time>
      </trkpt>
      <trkpt lat="50.5971" lon="3.47089">
        <ele>38.058309</ele>
        <time>2021-06-17T20:17:32.431Z</time>
      </trkpt>
      <trkpt lat="50.59713" lon="3.4708">
        <ele>37.950906</ele>
        <time>2021-06-17T20:17:33.426Z</time>
      </trkpt>
      <trkpt lat="50.59734" lon="3.46984">
        <ele>36.807388</ele>
        <time>2021-06-17T20:17:43.973Z</time>
      </trkpt>
      <trkpt lat="50.59748" lon="3.46916">
        <ele>35.990815</ele>
        <time>2021-06-17T20:17:51.285Z</time>
      </trkpt>
      <trkpt lat="50.59802" lon="3.4695">
        <ele>34.912993</ele>
        <time>2021-06-17T20:17:57.549Z</time>
      </trkpt>
      <trkpt lat="50.59859" lon="3.46986">
        <ele>33.548732</ele>
        <time>2021-06-17T20:18:04.063Z</time>
      </trkpt>
      <trkpt lat="50.59862" lon="3.46989">
        <ele>33.460068</ele>
        <time>2021-06-17T20:18:04.494Z</time>
      </trkpt>
      <trkpt lat="50.59938" lon="3.47033">
        <ele>31.659873</ele>
        <time>2021-06-17T20:18:13.168Z</time>
      </trkpt>
      <trkpt lat="50.59959" lon="3.47034">
        <ele>31.202542</ele>
        <time>2021-06-17T20:18:15.378Z</time>
      </trkpt>
      <trkpt lat="50.60084" lon="3.46996">
        <ele>28.742581</ele>
        <time>2021-06-17T20:18:29.579Z</time>
      </trkpt>
      <trkpt lat="50.60107" lon="3.47009">
        <ele>28.28424</ele>
        <time>2021-06-17T20:18:32.296Z</time>
      </trkpt>
      <trkpt lat="50.60118" lon="3.47021">
        <ele>28.030848</ele>
        <time>2021-06-17T20:18:33.816Z</time>
      </trkpt>
      <trkpt lat="50.60172" lon="3.47099">
        <ele>25.809206</ele>
        <time>2021-06-17T20:18:42.059Z</time>
      </trkpt>
      <trkpt lat="50.60256" lon="3.47185">
        <ele>22.408977</ele>
        <time>2021-06-17T20:18:51.815Z</time>
      </trkpt>
      <trkpt lat="50.60298" lon="3.47212">
        <ele>20.637992</ele>
        <time>2021-06-17T20:18:56.313Z</time>
      </trkpt>
      <trkpt lat="50.60304" lon="3.47216">
        <ele>20.33388</ele>
        <time>2021-06-17T20:18:56.938Z</time>
      </trkpt>
      <trkpt lat="50.6031" lon="3.47219">
        <ele>20.050361</ele>
        <time>2021-06-17T20:18:57.498Z</time>
      </trkpt>
      <trkpt lat="50.60354" lon="3.47232">
        <ele>18.077809</ele>
        <time>2021-06-17T20:19:01.901Z</time>
      </trkpt>
      <trkpt lat="50.60385" lon="3.47232">
        <ele>16.686059</ele>
        <time>2021-06-17T20:19:04.872Z</time>
      </trkpt>
      <trkpt lat="50.60496" lon="3.47205">
        <ele>11.941699</ele>
        <time>2021-06-17T20:19:15.554Z</time>
      </trkpt>
      <trkpt lat="50.60516" lon="3.47202">
        <ele>11.171788</ele>
        <time>2021-06-17T20:19:17.658Z</time>
      </trkpt>
      <trkpt lat="50.60535" lon="3.47205">
        <ele>10.448391</ele>
        <time>2021-06-17T20:19:19.419Z</time>
      </trkpt>
      <trkpt lat="50.60613" lon="3.47237">
        <ele>7.352512</ele>
        <time>2021-06-17T20:19:27.335Z</time>
      </trkpt>
      <trkpt lat="50.60758" lon="3.47353">
        <ele>4.782781</ele>
        <time>2021-06-17T20:19:44.708Z</time>
      </trkpt>
      <trkpt lat="50.60973" lon="3.47511">
        <ele>11.184806</ele>
        <time>2021-06-17T20:20:46.810Z</time>
      </trkpt>
      <trkpt lat="50.6098" lon="3.47517">
        <ele>11.74047</ele>
        <time>2021-06-17T20:20:50.421Z</time>
      </trkpt>
      <trkpt lat="50.61076" lon="3.47588">
        <ele>18.970868</ele>
        <time>2021-06-17T20:21:39.073Z</time>
      </trkpt>
      <trkpt lat="50.61119" lon="3.47603">
        <ele>21.917644</ele>
        <time>2021-06-17T20:22:00.245Z</time>
      </trkpt>
      <trkpt lat="50.61163" lon="3.47606">
        <ele>24.215741</ele>
        <time>2021-06-17T20:22:20.285Z</time>
      </trkpt>
      <trkpt lat="50.61212" lon="3.47601">
        <ele>26.739714</ele>
        <time>2021-06-17T20:22:39.292Z</time>
      </trkpt>
      <trkpt lat="50.6125" lon="3.47598">
        <ele>28.717342</ele>
        <time>2021-06-17T20:22:51.469Z</time>
      </trkpt>
      <trkpt lat="50.61314" lon="3.47606">
        <ele>31.339437</ele>
        <time>2021-06-17T20:23:08.468Z</time>
      </trkpt>
      <trkpt lat="50.61372" lon="3.47635">
        <ele>31.855365</ele>
        <time>2021-06-17T20:23:20.602Z</time>
      </trkpt>
      <trkpt lat="50.61462" lon="3.47684">
        <ele>32.666565</ele>
        <time>2021-06-17T20:23:35.013Z</time>
      </trkpt>
      <trkpt lat="50.61466" lon="3.47636">
        <ele>32.613579</ele>
        <time>2021-06-17T20:23:39.439Z</time>
      </trkpt>
      <trkpt lat="50.6152" lon="3.47351">
        <ele>31.510615</ele>
        <time>2021-06-17T20:24:04.174Z</time>
      </trkpt>
      <trkpt lat="50.6152" lon="3.4732">
        <ele>31.309714</ele>
        <time>2021-06-17T20:24:06.628Z</time>
      </trkpt>
      <trkpt lat="50.6153" lon="3.47319">
        <ele>31.208607</ele>
        <time>2021-06-17T20:24:07.762Z</time>
      </trkpt>
      <trkpt lat="50.61572" lon="3.47335">
        <ele>30.765879</ele>
        <time>2021-06-17T20:24:13.016Z</time>
      </trkpt>
      <trkpt lat="50.61588" lon="3.47334">
        <ele>30.600942</ele>
        <time>2021-06-17T20:24:14.972Z</time>
      </trkpt>
      <trkpt lat="50.61605" lon="3.47324">
        <ele>30.414895</ele>
        <time>2021-06-17T20:24:17.086Z</time>
      </trkpt>
      <trkpt lat="50.61623" lon="3.47297">
        <ele>30.159959</ele>
        <time>2021-06-17T20:24:20.058Z</time>
      </trkpt>
      <trkpt lat="50.61641" lon="3.47254">
        <ele>29.77566</ele>
        <time>2021-06-17T20:24:23.987Z</time>
      </trkpt>
      <trkpt lat="50.61646" lon="3.47231">
        <ele>29.578436</ele>
        <time>2021-06-17T20:24:25.738Z</time>
      </trkpt>
      <trkpt lat="50.61678" lon="3.47025">
        <ele>27.850345</ele>
        <time>2021-06-17T20:24:41.577Z</time>
      </trkpt>
      <trkpt lat="50.61682" lon="3.47002">
        <ele>27.661922</ele>
        <time>2021-06-17T20:24:43.470Z</time>
      </trkpt>
      <trkpt lat="50.61683" lon="3.46986">
        <ele>27.586294</ele>
        <time>2021-06-17T20:24:44.579Z</time>
      </trkpt>
      <trkpt lat="50.61698" lon="3.46879">
        <ele>27.042171</ele>
        <time>2021-06-17T20:24:52.984Z</time>
      </trkpt>
      <trkpt lat="50.61695" lon="3.46819">
        <ele>26.740099</ele>
        <time>2021-06-17T20:24:57.747Z</time>
      </trkpt>
      <trkpt lat="50.61704" lon="3.4682">
        <ele>26.674037</ele>
        <time>2021-06-17T20:24:58.763Z</time>
      </trkpt>
      <trkpt lat="50.61788" lon="3.46864">
        <ele>26.54709</ele>
        <time>2021-06-17T20:25:11.491Z</time>
      </trkpt>
      <trkpt lat="50.61843" lon="3.46944">
        <ele>27.097252</ele>
        <time>2021-06-17T20:25:24.089Z</time>
      </trkpt>
      <trkpt lat="50.61859" lon="3.46943">
        <ele>27.210464</ele>
        <time>2021-06-17T20:25:26.948Z</time>
      </trkpt>
      <trkpt lat="50.61859" lon="3.46946">
        <ele>27.223607</ele>
        <time>2021-06-17T20:25:27.457Z</time>
      </trkpt>
      <trkpt lat="50.6187" lon="3.46956">
        <ele>27.317429</ele>
        <time>2021-06-17T20:25:29.940Z</time>
      </trkpt>
      <trkpt lat="50.61872" lon="3.46955">
        <ele>27.337833</ele>
        <time>2021-06-17T20:25:30.556Z</time>
      </trkpt>
      <trkpt lat="50.61875" lon="3.46951">
        <ele>27.360698</ele>
        <time>2021-06-17T20:25:31.043Z</time>
      </trkpt>
      <trkpt lat="50.61874" lon="3.46933">
        <ele>27.444812</ele>
        <time>2021-06-17T20:25:33.277Z</time>
      </trkpt>
      <trkpt lat="50.61872" lon="3.4693">
        <ele>27.467044</ele>
        <time>2021-06-17T20:25:33.814Z</time>
      </trkpt>
      <trkpt lat="50.61874" lon="3.46919">
        <ele>27.524842</ele>
        <time>2021-06-17T20:25:35.747Z</time>
      </trkpt>
      <trkpt lat="50.61882" lon="3.46906">
        <ele>27.637036</ele>
        <time>2021-06-17T20:25:37.897Z</time>
      </trkpt>
      <trkpt lat="50.6192" lon="3.46906">
        <ele>28.655017</ele>
        <time>2021-06-17T20:25:46.654Z</time>
      </trkpt>
      <trkpt lat="50.61939" lon="3.46886">
        <ele>29.263455</ele>
        <time>2021-06-17T20:25:52.551Z</time>
      </trkpt>
      <trkpt lat="50.61966" lon="3.46753">
        <ele>31.641941</ele>
        <time>2021-06-17T20:26:16.102Z</time>
      </trkpt>
      <trkpt lat="50.62004" lon="3.46748">
        <ele>32.76737</ele>
        <time>2021-06-17T20:26:26.804Z</time>
      </trkpt>
      <trkpt lat="50.62098" lon="3.46721">
        <ele>36.237667</ele>
        <time>2021-06-17T20:26:55.094Z</time>
      </trkpt>
      <trkpt lat="50.62169" lon="3.46724">
        <ele>38.785915</ele>
        <time>2021-06-17T20:27:16.418Z</time>
      </trkpt>
      <trkpt lat="50.62205" lon="3.46737">
        <ele>40.091002</ele>
        <time>2021-06-17T20:27:27.310Z</time>
      </trkpt>
      <trkpt lat="50.62296" lon="3.468">
        <ele>43.497681</ele>
        <time>2021-06-17T20:27:55.798Z</time>
      </trkpt>
      <trkpt lat="50.62367" lon="3.46963">
        <ele>47.472662</ele>
        <time>2021-06-17T20:28:30.931Z</time>
      </trkpt>
      <trkpt lat="50.62395" lon="3.47004">
        <ele>48.59359</ele>
        <time>2021-06-17T20:28:41.133Z</time>
      </trkpt>
      <trkpt lat="50.6252" lon="3.47058">
        <ele>51.322651</ele>
        <time>2021-06-17T20:29:13.535Z</time>
      </trkpt>
      <trkpt lat="50.62553" lon="3.47075">
        <ele>51.765124</ele>
        <time>2021-06-17T20:29:20.782Z</time>
      </trkpt>
      <trkpt lat="50.62606" lon="3.47097">
        <ele>52.454356</ele>
        <time>2021-06-17T20:29:30.883Z</time>
      </trkpt>
      <trkpt lat="50.62837" lon="3.47257">
        <ele>50.438991</ele>
        <time>2021-06-17T20:30:02.242Z</time>
      </trkpt>
      <trkpt lat="50.62912" lon="3.47344">
        <ele>48.819742</ele>
        <time>2021-06-17T20:30:12.382Z</time>
      </trkpt>
      <trkpt lat="50.62937" lon="3.47366">
        <ele>48.325322</ele>
        <time>2021-06-17T20:30:15.440Z</time>
      </trkpt>
      <trkpt lat="50.62972" lon="3.47378">
        <ele>47.744437</ele>
        <time>2021-06-17T20:30:19.259Z</time>
      </trkpt>
      <trkpt lat="50.63104" lon="3.47372">
        <ele>45.632363</ele>
        <time>2021-06-17T20:30:34.197Z</time>
      </trkpt>
      <trkpt lat="50.63155" lon="3.47359">
        <ele>45.240096</ele>
        <time>2021-06-17T20:30:40.691Z</time>
      </trkpt>
      <trkpt lat="50.63333" lon="3.47252">
        <ele>45.375472</ele>
        <time>2021-06-17T20:31:09.633Z</time>
      </trkpt>
      <trkpt lat="50.63361" lon="3.47264">
        <ele>45.649936</ele>
        <time>2021-06-17T20:31:14.901Z</time>
      </trkpt>
      <trkpt lat="50.63544" lon="3.47492">
        <ele>48.796415</ele>
        <time>2021-06-17T20:32:01.650Z</time>
      </trkpt>
      <trkpt lat="50.63567" lon="3.47498">
        <ele>49.191695</ele>
        <time>2021-06-17T20:32:06.915Z</time>
      </trkpt>
      <trkpt lat="50.63834" lon="3.47456">
        <ele>56.607766</ele>
        <time>2021-06-17T20:33:17.636Z</time>
      </trkpt>
      <trkpt lat="50.63837" lon="3.47455">
        <ele>56.69807</ele>
        <time>2021-06-17T20:33:18.402Z</time>
      </trkpt>
      <trkpt lat="50.63873" lon="3.47451">
        <ele>57.854814</ele>
        <time>2021-06-17T20:33:28.434Z</time>
      </trkpt>
      <trkpt lat="50.63999" lon="3.47435">
        <ele>61.628234</ele>
        <time>2021-06-17T20:34:04.856Z</time>
      </trkpt>
      <trkpt lat="50.64087" lon="3.47424">
        <ele>63.806485</ele>
        <time>2021-06-17T20:34:26.851Z</time>
      </trkpt>
      <trkpt lat="50.64092" lon="3.47422">
        <ele>63.930373</ele>
        <time>2021-06-17T20:34:28.341Z</time>
      </trkpt>
      <trkpt lat="50.64102" lon="3.47418">
        <ele>64.196075</ele>
        <time>2021-06-17T20:34:30.643Z</time>
      </trkpt>
      <trkpt lat="50.64145" lon="3.47375">
        <ele>65.069981</ele>
        <time>2021-06-17T20:34:41.558Z</time>
      </trkpt>
      <trkpt lat="50.64203" lon="3.47276">
        <ele>65.111467</ele>
        <time>2021-06-17T20:34:56.148Z</time>
      </trkpt>
      <trkpt lat="50.64256" lon="3.47201">
        <ele>65.145974</ele>
        <time>2021-06-17T20:35:04.987Z</time>
      </trkpt>
      <trkpt lat="50.64257" lon="3.47199">
        <ele>65.147181</ele>
        <time>2021-06-17T20:35:05.228Z</time>
      </trkpt>
      <trkpt lat="50.64292" lon="3.47148">
        <ele>64.517842</ele>
        <time>2021-06-17T20:35:10.857Z</time>
      </trkpt>
      <trkpt lat="50.64375" lon="3.46964">
        <ele>62.402542</ele>
        <time>2021-06-17T20:35:27.037Z</time>
      </trkpt>
      <trkpt lat="50.64393" lon="3.46902">
        <ele>62.067522</ele>
        <time>2021-06-17T20:35:32.158Z</time>
      </trkpt>
      <trkpt lat="50.64394" lon="3.46898">
        <ele>62.0454</ele>
        <time>2021-06-17T20:35:32.644Z</time>
      </trkpt>
      <trkpt lat="50.64459" lon="3.4661">
        <ele>60.940442</ele>
        <time>2021-06-17T20:36:08.554Z</time>
      </trkpt>
      <trkpt lat="50.64537" lon="3.46302">
        <ele>60.705958</ele>
        <time>2021-06-17T20:36:51.824Z</time>
      </trkpt>
      <trkpt lat="50.64791" lon="3.45877">
        <ele>59.705047</ele>
        <time>2021-06-17T20:38:04.388Z</time>
      </trkpt>
      <trkpt lat="50.64868" lon="3.45742">
        <ele>58.474332</ele>
        <time>2021-06-17T20:38:23.888Z</time>
      </trkpt>
      <trkpt lat="50.64911" lon="3.45649">
        <ele>57.123301</ele>
        <time>2021-06-17T20:38:35.421Z</time>
      </trkpt>
      <trkpt lat="50.6492" lon="3.45606">
        <ele>56.593971</ele>
        <time>2021-06-17T20:38:39.902Z</time>
      </trkpt>
      <trkpt lat="50.64942" lon="3.455">
        <ele>55.160203</ele>
        <time>2021-06-17T20:38:51.011Z</time>
      </trkpt>
      <trkpt lat="50.64956" lon="3.45423">
        <ele>54.035269</ele>
        <time>2021-06-17T20:38:58.953Z</time>
      </trkpt>
      <trkpt lat="50.64968" lon="3.45377">
        <ele>53.341616</ele>
        <time>2021-06-17T20:39:03.774Z</time>
      </trkpt>
      <trkpt lat="50.65029" lon="3.45234">
        <ele>50.753362</ele>
        <time>2021-06-17T20:39:20.728Z</time>
      </trkpt>
      <trkpt lat="50.65049" lon="3.45189">
        <ele>49.867173</ele>
        <time>2021-06-17T20:39:26.023Z</time>
      </trkpt>
      <trkpt lat="50.65076" lon="3.45148">
        <ele>48.901136</ele>
        <time>2021-06-17T20:39:31.683Z</time>
      </trkpt>
      <trkpt lat="50.65093" lon="3.45133">
        <ele>48.398892</ele>
        <time>2021-06-17T20:39:34.697Z</time>
      </trkpt>
      <trkpt lat="50.65104" lon="3.45124">
        <ele>48.07848</ele>
        <time>2021-06-17T20:39:36.554Z</time>
      </trkpt>
      <trkpt lat="50.65111" lon="3.45119">
        <ele>47.898609</ele>
        <time>2021-06-17T20:39:37.531Z</time>
      </trkpt>
      <trkpt lat="50.65163" lon="3.45063">
        <ele>46.141812</ele>
        <time>2021-06-17T20:39:46.973Z</time>
      </trkpt>
      <trkpt lat="50.65194" lon="3.45042">
        <ele>45.152632</ele>
        <time>2021-06-17T20:39:52.061Z</time>
      </trkpt>
      <trkpt lat="50.65228" lon="3.4503">
        <ele>44.141166</ele>
        <time>2021-06-17T20:39:57.179Z</time>
      </trkpt>
      <trkpt lat="50.6529" lon="3.45037">
        <ele>42.304624</ele>
        <time>2021-06-17T20:40:06.360Z</time>
      </trkpt>
      <trkpt lat="50.65333" lon="3.45004">
        <ele>41.045461</ele>
        <time>2021-06-17T20:40:13.397Z</time>
      </trkpt>
      <trkpt lat="50.65375" lon="3.44965">
        <ele>39.794629</ele>
        <time>2021-06-17T20:40:20.616Z</time>
      </trkpt>
      <trkpt lat="50.65382" lon="3.44958">
        <ele>39.580652</ele>
        <time>2021-06-17T20:40:21.796Z</time>
      </trkpt>
      <trkpt lat="50.65387" lon="3.44944">
        <ele>39.330543</ele>
        <time>2021-06-17T20:40:23.332Z</time>
      </trkpt>
      <trkpt lat="50.65397" lon="3.44915">
        <ele>38.781752</ele>
        <time>2021-06-17T20:40:26.566Z</time>
      </trkpt>
      <trkpt lat="50.65404" lon="3.4488">
        <ele>38.175334</ele>
        <time>2021-06-17T20:40:30.251Z</time>
      </trkpt>
      <trkpt lat="50.65406" lon="3.44859">
        <ele>37.829892</ele>
        <time>2021-06-17T20:40:32.318Z</time>
      </trkpt>
      <trkpt lat="50.65403" lon="3.44837">
        <ele>37.463915</ele>
        <time>2021-06-17T20:40:34.616Z</time>
      </trkpt>
      <trkpt lat="50.65381" lon="3.44753">
        <ele>37.212631</ele>
        <time>2021-06-17T20:40:43.934Z</time>
      </trkpt>
      <trkpt lat="50.65375" lon="3.44729">
        <ele>37.149532</ele>
        <time>2021-06-17T20:40:46.794Z</time>
      </trkpt>
      <trkpt lat="50.65371" lon="3.44714">
        <ele>37.108735</ele>
        <time>2021-06-17T20:40:48.676Z</time>
      </trkpt>
      <trkpt lat="50.65341" lon="3.44598">
        <ele>36.805415</ele>
        <time>2021-06-17T20:41:05.541Z</time>
      </trkpt>
      <trkpt lat="50.65335" lon="3.44515">
        <ele>37.359202</ele>
        <time>2021-06-17T20:41:18.885Z</time>
      </trkpt>
      <trkpt lat="50.65318" lon="3.44453">
        <ele>38.124077</ele>
        <time>2021-06-17T20:41:30.673Z</time>
      </trkpt>
      <trkpt lat="50.65317" lon="3.44445">
        <ele>38.217805</ele>
        <time>2021-06-17T20:41:32.352Z</time>
      </trkpt>
      <trkpt lat="50.65318" lon="3.44433">
        <ele>38.355049</ele>
        <time>2021-06-17T20:41:34.514Z</time>
      </trkpt>
      <trkpt lat="50.65321" lon="3.44422">
        <ele>38.490751</ele>
        <time>2021-06-17T20:41:36.593Z</time>
      </trkpt>
      <trkpt lat="50.65411" lon="3.4435">
        <ele>40.366149</ele>
        <time>2021-06-17T20:42:05.273Z</time>
      </trkpt>
      <trkpt lat="50.655" lon="3.44193">
        <ele>43.399419</ele>
        <time>2021-06-17T20:42:44.745Z</time>
      </trkpt>
      <trkpt lat="50.65509" lon="3.44161">
        <ele>43.91161</ele>
        <time>2021-06-17T20:42:50.983Z</time>
      </trkpt>
      <trkpt lat="50.65513" lon="3.4415">
        <ele>44.119212</ele>
        <time>2021-06-17T20:42:53.571Z</time>
      </trkpt>
      <trkpt lat="50.65571" lon="3.43951">
        <ele>47.910295</ele>
        <time>2021-06-17T20:43:35.848Z</time>
      </trkpt>
      <trkpt lat="50.656" lon="3.4382">
        <ele>50.72037</ele>
        <time>2021-06-17T20:44:05.410Z</time>
      </trkpt>
      <trkpt lat="50.65616" lon="3.43725">
        <ele>52.954541</ele>
        <time>2021-06-17T20:44:28.375Z</time>
      </trkpt>
      <trkpt lat="50.6563" lon="3.43572">
        <ele>55.884388</ele>
        <time>2021-06-17T20:45:02.351Z</time>
      </trkpt>
      <trkpt lat="50.65633" lon="3.43469">
        <ele>56.995465</ele>
        <time>2021-06-17T20:45:21.297Z</time>
      </trkpt>
      <trkpt lat="50.65671" lon="3.43464">
        <ele>57.643258</ele>
        <time>2021-06-17T20:45:28.208Z</time>
      </trkpt>
      <trkpt lat="50.65701" lon="3.43459">
        <ele>58.168341</ele>
        <time>2021-06-17T20:45:33.467Z</time>
      </trkpt>
      <trkpt lat="50.65779" lon="3.43498">
        <ele>58.37835</ele>
        <time>2021-06-17T20:45:45.822Z</time>
      </trkpt>
      <trkpt lat="50.65801" lon="3.4351">
        <ele>58.358723</ele>
        <time>2021-06-17T20:45:48.679Z</time>
      </trkpt>
      <trkpt lat="50.65856" lon="3.43381">
        <ele>58.324023</ele>
        <time>2021-06-17T20:46:02.559Z</time>
      </trkpt>
      <trkpt lat="50.65884" lon="3.43243">
        <ele>58.797393</ele>
        <time>2021-06-17T20:46:17.843Z</time>
      </trkpt>
      <trkpt lat="50.65891" lon="3.43209">
        <ele>58.914913</ele>
        <time>2021-06-17T20:46:21.862Z</time>
      </trkpt>
      <trkpt lat="50.65893" lon="3.43186">
        <ele>58.990307</ele>
        <time>2021-06-17T20:46:24.464Z</time>
      </trkpt>
      <trkpt lat="50.65889" lon="3.43161">
        <ele>59.07567</ele>
        <time>2021-06-17T20:46:27.377Z</time>
      </trkpt>
      <trkpt lat="50.65858" lon="3.43129">
        <ele>59.374294</ele>
        <time>2021-06-17T20:46:33.997Z</time>
      </trkpt>
      <trkpt lat="50.65849" lon="3.43116">
        <ele>59.554005</ele>
        <time>2021-06-17T20:46:36.224Z</time>
      </trkpt>
      <trkpt lat="50.65845" lon="3.43095">
        <ele>59.76315</ele>
        <time>2021-06-17T20:46:38.785Z</time>
      </trkpt>
      <trkpt lat="50.65849" lon="3.42987">
        <ele>60.787936</ele>
        <time>2021-06-17T20:46:52.171Z</time>
      </trkpt>
      <trkpt lat="50.65837" lon="3.42872">
        <ele>61.901699</ele>
        <time>2021-06-17T20:47:08.335Z</time>
      </trkpt>
      <trkpt lat="50.65855" lon="3.42781">
        <ele>63.843897</ele>
        <time>2021-06-17T20:47:24.788Z</time>
      </trkpt>
      <trkpt lat="50.65858" lon="3.42659">
        <ele>66.368101</ele>
        <time>2021-06-17T20:47:47.018Z</time>
      </trkpt>
      <trkpt lat="50.65857" lon="3.42643">
        <ele>66.700553</ele>
        <time>2021-06-17T20:47:50.128Z</time>
      </trkpt>
      <trkpt lat="50.65855" lon="3.42604">
        <ele>67.503722</ele>
        <time>2021-06-17T20:47:57.378Z</time>
      </trkpt>
      <trkpt lat="50.65859" lon="3.42572">
        <ele>68.075963</ele>
        <time>2021-06-17T20:48:04.637Z</time>
      </trkpt>
      <trkpt lat="50.65913" lon="3.42417">
        <ele>70.901304</ele>
        <time>2021-06-17T20:48:35.945Z</time>
      </trkpt>
      <trkpt lat="50.65924" lon="3.42395">
        <ele>71.354949</ele>
        <time>2021-06-17T20:48:39.380Z</time>
      </trkpt>
      <trkpt lat="50.65936" lon="3.42386">
        <ele>71.701503</ele>
        <time>2021-06-17T20:48:42.763Z</time>
      </trkpt>
      <trkpt lat="50.6597" lon="3.42402">
        <ele>72.110303</ele>
        <time>2021-06-17T20:48:50.453Z</time>
      </trkpt>
      <trkpt lat="50.66019" lon="3.42429">
        <ele>71.19402</ele>
        <time>2021-06-17T20:48:59.973Z</time>
      </trkpt>
      <trkpt lat="50.66335" lon="3.4264">
        <ele>62.451559</ele>
        <time>2021-06-17T20:49:51.010Z</time>
      </trkpt>
      <trkpt lat="50.66383" lon="3.42661">
        <ele>60.839299</ele>
        <time>2021-06-17T20:49:58.390Z</time>
      </trkpt>
      <trkpt lat="50.66502" lon="3.42695">
        <ele>56.687134</ele>
        <time>2021-06-17T20:50:15.784Z</time>
      </trkpt>
      <trkpt lat="50.66519" lon="3.427">
        <ele>56.005906</ele>
        <time>2021-06-17T20:50:18.222Z</time>
      </trkpt>
      <trkpt lat="50.66533" lon="3.42704">
        <ele>55.429592</ele>
        <time>2021-06-17T20:50:20.252Z</time>
      </trkpt>
      <trkpt lat="50.66604" lon="3.42746">
        <ele>52.415037</ele>
        <time>2021-06-17T20:50:30.852Z</time>
      </trkpt>
      <trkpt lat="50.66632" lon="3.42771">
        <ele>51.135483</ele>
        <time>2021-06-17T20:50:35.206Z</time>
      </trkpt>
      <trkpt lat="50.66739" lon="3.42897">
        <ele>46.272388</ele>
        <time>2021-06-17T20:50:53.917Z</time>
      </trkpt>
      <trkpt lat="50.66741" lon="3.42899">
        <ele>46.182082</ele>
        <time>2021-06-17T20:50:54.223Z</time>
      </trkpt>
      <trkpt lat="50.67047" lon="3.43263">
        <ele>36.329796</ele>
        <time>2021-06-17T20:51:53.498Z</time>
      </trkpt>
      <trkpt lat="50.67047" lon="3.43263">
        <ele>36.326829</ele>
        <time>2021-06-17T20:51:53.549Z</time>
      </trkpt>
      <trkpt lat="50.67152" lon="3.43258">
        <ele>33.516094</ele>
        <time>2021-06-17T20:52:09.287Z</time>
      </trkpt>
      <trkpt lat="50.67189" lon="3.43277">
        <ele>32.448726</ele>
        <time>2021-06-17T20:52:15.021Z</time>
      </trkpt>
      <trkpt lat="50.67193" lon="3.4328">
        <ele>32.331921</ele>
        <time>2021-06-17T20:52:15.516Z</time>
      </trkpt>
      <trkpt lat="50.67204" lon="3.43292">
        <ele>31.96064</ele>
        <time>2021-06-17T20:52:17.633Z</time>
      </trkpt>
      <trkpt lat="50.673" lon="3.4337">
        <ele>29.901741</ele>
        <time>2021-06-17T20:52:35.094Z</time>
      </trkpt>
      <trkpt lat="50.67392" lon="3.43447">
        <ele>28.460286</ele>
        <time>2021-06-17T20:52:52.771Z</time>
      </trkpt>
      <trkpt lat="50.67418" lon="3.43462">
        <ele>28.239413</ele>
        <time>2021-06-17T20:52:57.834Z</time>
      </trkpt>
      <trkpt lat="50.67448" lon="3.43464">
        <ele>28.102638</ele>
        <time>2021-06-17T20:53:03.204Z</time>
      </trkpt>
      <trkpt lat="50.67511" lon="3.43453">
        <ele>27.811875</ele>
        <time>2021-06-17T20:53:14.906Z</time>
      </trkpt>
      <trkpt lat="50.67628" lon="3.43425">
        <ele>27.461784</ele>
        <time>2021-06-17T20:53:38.081Z</time>
      </trkpt>
      <trkpt lat="50.67671" lon="3.43416">
        <ele>27.431772</ele>
        <time>2021-06-17T20:53:46.986Z</time>
      </trkpt>
      <trkpt lat="50.67738" lon="3.4339">
        <ele>27.385337</ele>
        <time>2021-06-17T20:54:00.820Z</time>
      </trkpt>
      <trkpt lat="50.67775" lon="3.43344">
        <ele>27.295183</ele>
        <time>2021-06-17T20:54:10.471Z</time>
      </trkpt>
      <trkpt lat="50.67782" lon="3.43333">
        <ele>27.269754</ele>
        <time>2021-06-17T20:54:12.452Z</time>
      </trkpt>
      <trkpt lat="50.67804" lon="3.43332">
        <ele>27.212644</ele>
        <time>2021-06-17T20:54:16.779Z</time>
      </trkpt>
      <trkpt lat="50.67893" lon="3.43366">
        <ele>26.973923</ele>
        <time>2021-06-17T20:54:34.313Z</time>
      </trkpt>
      <trkpt lat="50.67916" lon="3.43377">
        <ele>26.911877</ele>
        <time>2021-06-17T20:54:38.733Z</time>
      </trkpt>
      <trkpt lat="50.68045" lon="3.43455">
        <ele>26.404265</ele>
        <time>2021-06-17T20:55:04.688Z</time>
      </trkpt>
      <trkpt lat="50.68156" lon="3.43526">
        <ele>26.127656</ele>
        <time>2021-06-17T20:55:27.885Z</time>
      </trkpt>
      <trkpt lat="50.68256" lon="3.43579">
        <ele>25.96579</ele>
        <time>2021-06-17T20:55:48.705Z</time>
      </trkpt>
      <trkpt lat="50.6828" lon="3.43592">
        <ele>25.884732</ele>
        <time>2021-06-17T20:55:53.911Z</time>
      </trkpt>
      <trkpt lat="50.68294" lon="3.43595">
        <ele>25.842261</ele>
        <time>2021-06-17T20:55:56.526Z</time>
      </trkpt>
      <trkpt lat="50.68311" lon="3.43598">
        <ele>25.789181</ele>
        <time>2021-06-17T20:55:59.936Z</time>
      </trkpt>
      <trkpt lat="50.68433" lon="3.43579">
        <ele>25.412585</ele>
        <time>2021-06-17T20:56:23.178Z</time>
      </trkpt>
      <trkpt lat="50.68546" lon="3.4359">
        <ele>25.03385</ele>
        <time>2021-06-17T20:56:44.632Z</time>
      </trkpt>
      <trkpt lat="50.68632" lon="3.4362">
        <ele>24.797838</ele>
        <time>2021-06-17T20:57:01.271Z</time>
      </trkpt>
      <trkpt lat="50.68821" lon="3.43586">
        <ele>25.108937</ele>
        <time>2021-06-17T20:57:39.223Z</time>
      </trkpt>
      <trkpt lat="50.6884" lon="3.43596">
        <ele>25.365344</ele>
        <time>2021-06-17T20:57:44.057Z</time>
      </trkpt>
      <trkpt lat="50.68869" lon="3.43635">
        <ele>25.851383</ele>
        <time>2021-06-17T20:57:53.655Z</time>
      </trkpt>
      <trkpt lat="50.68884" lon="3.43647">
        <ele>26.068787</ele>
        <time>2021-06-17T20:57:58.100Z</time>
      </trkpt>
      <trkpt lat="50.68941" lon="3.43682">
        <ele>26.847555</ele>
        <time>2021-06-17T20:58:15.368Z</time>
      </trkpt>
      <trkpt lat="50.69077" lon="3.43798">
        <ele>29.576378</ele>
        <time>2021-06-17T20:59:00.435Z</time>
      </trkpt>
      <trkpt lat="50.69094" lon="3.43797">
        <ele>29.880809</ele>
        <time>2021-06-17T20:59:04.662Z</time>
      </trkpt>
      <trkpt lat="50.69126" lon="3.43742">
        <ele>30.102524</ele>
        <time>2021-06-17T20:59:15.570Z</time>
      </trkpt>
      <trkpt lat="50.69143" lon="3.43736">
        <ele>30.019459</ele>
        <time>2021-06-17T20:59:19.311Z</time>
      </trkpt>
      <trkpt lat="50.69163" lon="3.43744">
        <ele>29.91666</ele>
        <time>2021-06-17T20:59:23.522Z</time>
      </trkpt>
      <trkpt lat="50.69243" lon="3.43802">
        <ele>29.495144</ele>
        <time>2021-06-17T20:59:39.099Z</time>
      </trkpt>
      <trkpt lat="50.69379" lon="3.43863">
        <ele>27.388852</ele>
        <time>2021-06-17T21:00:01.774Z</time>
      </trkpt>
      <trkpt lat="50.69485" lon="3.43937">
        <ele>25.416063</ele>
        <time>2021-06-17T21:00:20.191Z</time>
      </trkpt>
      <trkpt lat="50.69509" lon="3.43965">
        <ele>24.913487</ele>
        <time>2021-06-17T21:00:24.950Z</time>
      </trkpt>
      <trkpt lat="50.69586" lon="3.44072">
        <ele>23.211633</ele>
        <time>2021-06-17T21:00:41.759Z</time>
      </trkpt>
      <trkpt lat="50.69625" lon="3.44125">
        <ele>22.828111</ele>
        <time>2021-06-17T21:00:50.406Z</time>
      </trkpt>
      <trkpt lat="50.6966" lon="3.44168">
        <ele>22.500483</ele>
        <time>2021-06-17T21:00:58.163Z</time>
      </trkpt>
      <trkpt lat="50.6974" lon="3.44219">
        <ele>21.904657</ele>
        <time>2021-06-17T21:01:14.923Z</time>
      </trkpt>
      <trkpt lat="50.69758" lon="3.44246">
        <ele>21.906742</ele>
        <time>2021-06-17T21:01:20.252Z</time>
      </trkpt>
      <trkpt lat="50.69761" lon="3.44258">
        <ele>21.907409</ele>
        <time>2021-06-17T21:01:21.821Z</time>
      </trkpt>
      <trkpt lat="50.69758" lon="3.44263">
        <ele>21.907804</ele>
        <time>2021-06-17T21:01:23.055Z</time>
      </trkpt>
      <trkpt lat="50.69707" lon="3.4437">
        <ele>21.914751</ele>
        <time>2021-06-17T21:01:40.368Z</time>
      </trkpt>
      <trkpt lat="50.697" lon="3.44387">
        <ele>21.915807</ele>
        <time>2021-06-17T21:01:43.157Z</time>
      </trkpt>
      <trkpt lat="50.69717" lon="3.44418">
        <ele>21.917976</ele>
        <time>2021-06-17T21:01:48.371Z</time>
      </trkpt>
      <trkpt lat="50.69797" lon="3.44546">
        <ele>21.399377</ele>
        <time>2021-06-17T21:02:10.238Z</time>
      </trkpt>
      <trkpt lat="50.69837" lon="3.44591">
        <ele>21.15137</ele>
        <time>2021-06-17T21:02:18.764Z</time>
      </trkpt>
      <trkpt lat="50.70067" lon="3.44747">
        <ele>19.330045</ele>
        <time>2021-06-17T21:03:03.599Z</time>
      </trkpt>
      <trkpt lat="50.70073" lon="3.44751">
        <ele>19.285551</ele>
        <time>2021-06-17T21:03:04.805Z</time>
      </trkpt>
      <trkpt lat="50.70078" lon="3.44756">
        <ele>19.244932</ele>
        <time>2021-06-17T21:03:05.854Z</time>
      </trkpt>
      <trkpt lat="50.70106" lon="3.44806">
        <ele>18.953736</ele>
        <time>2021-06-17T21:03:13.304Z</time>
      </trkpt>
      <trkpt lat="50.70115" lon="3.44825">
        <ele>18.846323</ele>
        <time>2021-06-17T21:03:16.227Z</time>
      </trkpt>
      <trkpt lat="50.70129" lon="3.44849">
        <ele>18.703216</ele>
        <time>2021-06-17T21:03:19.891Z</time>
      </trkpt>
      <trkpt lat="50.70171" lon="3.44922">
        <ele>18.298133</ele>
        <time>2021-06-17T21:03:31.490Z</time>
      </trkpt>
      <trkpt lat="50.70174" lon="3.4493">
        <ele>18.268635</ele>
        <time>2021-06-17T21:03:32.510Z</time>
      </trkpt>
      <trkpt lat="50.70175" lon="3.44936">
        <ele>18.249035</ele>
        <time>2021-06-17T21:03:33.110Z</time>
      </trkpt>
      <trkpt lat="50.70199" lon="3.45071">
        <ele>17.784216</ele>
        <time>2021-06-17T21:03:49.673Z</time>
      </trkpt>
      <trkpt lat="50.70201" lon="3.45081">
        <ele>17.750643</ele>
        <time>2021-06-17T21:03:50.783Z</time>
      </trkpt>
      <trkpt lat="50.70205" lon="3.45096">
        <ele>17.693222</ele>
        <time>2021-06-17T21:03:52.745Z</time>
      </trkpt>
      <trkpt lat="50.7021" lon="3.45109">
        <ele>17.644613</ele>
        <time>2021-06-17T21:03:54.494Z</time>
      </trkpt>
      <trkpt lat="50.70216" lon="3.45119">
        <ele>17.597985</ele>
        <time>2021-06-17T21:03:56.281Z</time>
      </trkpt>
      <trkpt lat="50.70219" lon="3.45124">
        <ele>17.576889</ele>
        <time>2021-06-17T21:03:56.957Z</time>
      </trkpt>
      <trkpt lat="50.70485" lon="3.45345">
        <ele>16.640045</ele>
        <time>2021-06-17T21:04:53.974Z</time>
      </trkpt>
      <trkpt lat="50.7062" lon="3.45426">
        <ele>16.920875</ele>
        <time>2021-06-17T21:05:24.082Z</time>
      </trkpt>
      <trkpt lat="50.7063" lon="3.45432">
        <ele>16.990641</ele>
        <time>2021-06-17T21:05:26.491Z</time>
      </trkpt>
      <trkpt lat="50.70635" lon="3.45436">
        <ele>17.021976</ele>
        <time>2021-06-17T21:05:27.839Z</time>
      </trkpt>
      <trkpt lat="50.70719" lon="3.45509">
        <ele>17.638739</ele>
        <time>2021-06-17T21:05:50.077Z</time>
      </trkpt>
      <trkpt lat="50.70727" lon="3.45516">
        <ele>17.701115</ele>
        <time>2021-06-17T21:05:52.620Z</time>
      </trkpt>
      <trkpt lat="50.70735" lon="3.4552">
        <ele>17.813201</ele>
        <time>2021-06-17T21:05:54.758Z</time>
      </trkpt>
      <trkpt lat="50.70777" lon="3.45543">
        <ele>18.430368</ele>
        <time>2021-06-17T21:06:05.718Z</time>
      </trkpt>
      <trkpt lat="50.70814" lon="3.45576">
        <ele>19.030252</ele>
        <time>2021-06-17T21:06:16.961Z</time>
      </trkpt>
      <trkpt lat="50.70937" lon="3.45627">
        <ele>20.585504</ele>
        <time>2021-06-17T21:06:50.704Z</time>
      </trkpt>
      <trkpt lat="50.70953" lon="3.45634">
        <ele>20.723222</ele>
        <time>2021-06-17T21:06:54.982Z</time>
      </trkpt>
      <trkpt lat="50.70961" lon="3.45638">
        <ele>20.799916</ele>
        <time>2021-06-17T21:06:57.301Z</time>
      </trkpt>
      <trkpt lat="50.71102" lon="3.45697">
        <ele>21.584201</ele>
        <time>2021-06-17T21:07:29.813Z</time>
      </trkpt>
      <trkpt lat="50.7111" lon="3.45701">
        <ele>21.534374</ele>
        <time>2021-06-17T21:07:31.245Z</time>
      </trkpt>
      <trkpt lat="50.71119" lon="3.45705">
        <ele>21.474641</ele>
        <time>2021-06-17T21:07:33.034Z</time>
      </trkpt>
      <trkpt lat="50.7113" lon="3.45709">
        <ele>21.408752</ele>
        <time>2021-06-17T21:07:35.091Z</time>
      </trkpt>
      <trkpt lat="50.71151" lon="3.45717">
        <ele>21.281018</ele>
        <time>2021-06-17T21:07:38.850Z</time>
      </trkpt>
      <trkpt lat="50.71166" lon="3.45726">
        <ele>21.182215</ele>
        <time>2021-06-17T21:07:41.866Z</time>
      </trkpt>
      <trkpt lat="50.71181" lon="3.45734">
        <ele>21.091681</ele>
        <time>2021-06-17T21:07:44.491Z</time>
      </trkpt>
      <trkpt lat="50.71194" lon="3.45742">
        <ele>21.004668</ele>
        <time>2021-06-17T21:07:47.066Z</time>
      </trkpt>
      <trkpt lat="50.71201" lon="3.45747">
        <ele>20.960814</ele>
        <time>2021-06-17T21:07:48.416Z</time>
      </trkpt>
      <trkpt lat="50.71208" lon="3.45752">
        <ele>20.913329</ele>
        <time>2021-06-17T21:07:49.751Z</time>
      </trkpt>
      <trkpt lat="50.71243" lon="3.45775">
        <ele>20.680572</ele>
        <time>2021-06-17T21:07:54.331Z</time>
      </trkpt>
      <trkpt lat="50.71287" lon="3.45818">
        <ele>20.214964</ele>
        <time>2021-06-17T21:08:00.601Z</time>
      </trkpt>
      <trkpt lat="50.71326" lon="3.45731">
        <ele>19.610254</ele>
        <time>2021-06-17T21:08:08.866Z</time>
      </trkpt>
      <trkpt lat="50.71345" lon="3.45679">
        <ele>19.270211</ele>
        <time>2021-06-17T21:08:13.697Z</time>
      </trkpt>
      <trkpt lat="50.71347" lon="3.45676">
        <ele>19.249597</ele>
        <time>2021-06-17T21:08:13.992Z</time>
      </trkpt>
      <trkpt lat="50.71354" lon="3.45666">
        <ele>19.159184</ele>
        <time>2021-06-17T21:08:15.321Z</time>
      </trkpt>
      <trkpt lat="50.71361" lon="3.45661">
        <ele>19.091921</ele>
        <time>2021-06-17T21:08:16.270Z</time>
      </trkpt>
      <trkpt lat="50.7137" lon="3.45656">
        <ele>19.041671</ele>
        <time>2021-06-17T21:08:17.585Z</time>
      </trkpt>
      <trkpt lat="50.71415" lon="3.45647">
        <ele>18.809979</ele>
        <time>2021-06-17T21:08:23.503Z</time>
      </trkpt>
      <trkpt lat="50.71583" lon="3.45612">
        <ele>17.937534</ele>
        <time>2021-06-17T21:08:46.055Z</time>
      </trkpt>
      <trkpt lat="50.71618" lon="3.45604">
        <ele>17.74952</ele>
        <time>2021-06-17T21:08:50.899Z</time>
      </trkpt>
      <trkpt lat="50.71871" lon="3.4555">
        <ele>16.231254</ele>
        <time>2021-06-17T21:09:24.138Z</time>
      </trkpt>
      <trkpt lat="50.71903" lon="3.45543">
        <ele>16.062019</ele>
        <time>2021-06-17T21:09:28.112Z</time>
      </trkpt>
      <trkpt lat="50.71911" lon="3.45541">
        <ele>16.043255</ele>
        <time>2021-06-17T21:09:29.149Z</time>
      </trkpt>
      <trkpt lat="50.71964" lon="3.4553">
        <ele>15.921607</ele>
        <time>2021-06-17T21:09:36.057Z</time>
      </trkpt>
      <trkpt lat="50.72035" lon="3.45515">
        <ele>15.759753</ele>
        <time>2021-06-17T21:09:45.750Z</time>
      </trkpt>
      <trkpt lat="50.72223" lon="3.45476">
        <ele>16.820267</ele>
        <time>2021-06-17T21:10:19.439Z</time>
      </trkpt>
      <trkpt lat="50.72335" lon="3.45453">
        <ele>17.738019</ele>
        <time>2021-06-17T21:10:41.144Z</time>
      </trkpt>
      <trkpt lat="50.7237" lon="3.45445">
        <ele>18.026262</ele>
        <time>2021-06-17T21:10:47.513Z</time>
      </trkpt>
      <trkpt lat="50.724" lon="3.45437">
        <ele>18.278807</ele>
        <time>2021-06-17T21:10:52.959Z</time>
      </trkpt>
      <trkpt lat="50.72558" lon="3.45402">
        <ele>18.838425</ele>
        <time>2021-06-17T21:11:18.696Z</time>
      </trkpt>
      <trkpt lat="50.72588" lon="3.45396">
        <ele>18.908242</ele>
        <time>2021-06-17T21:11:23.095Z</time>
      </trkpt>
      <trkpt lat="50.72605" lon="3.45393">
        <ele>18.949144</ele>
        <time>2021-06-17T21:11:25.689Z</time>
      </trkpt>
      <trkpt lat="50.72688" lon="3.45375">
        <ele>18.74459</ele>
        <time>2021-06-17T21:11:37.940Z</time>
      </trkpt>
      <trkpt lat="50.72742" lon="3.45363">
        <ele>18.601992</ele>
        <time>2021-06-17T21:11:45.418Z</time>
      </trkpt>
      <trkpt lat="50.728" lon="3.45351">
        <ele>18.364209</ele>
        <time>2021-06-17T21:11:53.316Z</time>
      </trkpt>
      <trkpt lat="50.73042" lon="3.45298">
        <ele>16.348177</ele>
        <time>2021-06-17T21:12:23.545Z</time>
      </trkpt>
      <trkpt lat="50.73064" lon="3.45293">
        <ele>16.18199</ele>
        <time>2021-06-17T21:12:26.330Z</time>
      </trkpt>
      <trkpt lat="50.7312" lon="3.45281">
        <ele>15.758023</ele>
        <time>2021-06-17T21:12:33.592Z</time>
      </trkpt>
      <trkpt lat="50.73314" lon="3.4524">
        <ele>14.638256</ele>
        <time>2021-06-17T21:12:59.512Z</time>
      </trkpt>
      <trkpt lat="50.73431" lon="3.45215">
        <ele>13.95606</ele>
        <time>2021-06-17T21:13:14.585Z</time>
      </trkpt>
      <trkpt lat="50.73513" lon="3.45198">
        <ele>13.592471</ele>
        <time>2021-06-17T21:13:25.460Z</time>
      </trkpt>
      <trkpt lat="50.73519" lon="3.45196">
        <ele>13.605821</ele>
        <time>2021-06-17T21:13:26.259Z</time>
      </trkpt>
      <trkpt lat="50.73646" lon="3.45169">
        <ele>13.891602</ele>
        <time>2021-06-17T21:13:47.071Z</time>
      </trkpt>
      <trkpt lat="50.73664" lon="3.45166">
        <ele>13.931436</ele>
        <time>2021-06-17T21:13:50.021Z</time>
      </trkpt>
      <trkpt lat="50.7375" lon="3.45147">
        <ele>14.232389</ele>
        <time>2021-06-17T21:14:04.946Z</time>
      </trkpt>
      <trkpt lat="50.73865" lon="3.45121">
        <ele>14.633258</ele>
        <time>2021-06-17T21:14:23.679Z</time>
      </trkpt>
      <trkpt lat="50.73876" lon="3.45119">
        <ele>14.645471</ele>
        <time>2021-06-17T21:14:25.342Z</time>
      </trkpt>
      <trkpt lat="50.73891" lon="3.45117">
        <ele>14.661084</ele>
        <time>2021-06-17T21:14:27.668Z</time>
      </trkpt>
      <trkpt lat="50.7394" lon="3.45106">
        <ele>14.714146</ele>
        <time>2021-06-17T21:14:34.745Z</time>
      </trkpt>
      <trkpt lat="50.74264" lon="3.45036">
        <ele>14.867971</ele>
        <time>2021-06-17T21:15:25.022Z</time>
      </trkpt>
      <trkpt lat="50.74292" lon="3.4503">
        <ele>14.787979</ele>
        <time>2021-06-17T21:15:28.761Z</time>
      </trkpt>
      <trkpt lat="50.7437" lon="3.45014">
        <ele>14.563437</ele>
        <time>2021-06-17T21:15:39.270Z</time>
      </trkpt>
      <trkpt lat="50.74445" lon="3.44998">
        <ele>14.37586</ele>
        <time>2021-06-17T21:15:49.217Z</time>
      </trkpt>
      <trkpt lat="50.74464" lon="3.44994">
        <ele>14.330487</ele>
        <time>2021-06-17T21:15:51.858Z</time>
      </trkpt>
      <trkpt lat="50.74625" lon="3.4496">
        <ele>14.054981</ele>
        <time>2021-06-17T21:16:15.486Z</time>
      </trkpt>
      <trkpt lat="50.74674" lon="3.44949">
        <ele>14.033434</ele>
        <time>2021-06-17T21:16:22.914Z</time>
      </trkpt>
      <trkpt lat="50.74676" lon="3.44959">
        <ele>14.030573</ele>
        <time>2021-06-17T21:16:24.125Z</time>
      </trkpt>
      <trkpt lat="50.747" lon="3.45085">
        <ele>13.954577</ele>
        <time>2021-06-17T21:16:40.902Z</time>
      </trkpt>
      <trkpt lat="50.74714" lon="3.45131">
        <ele>13.863499</ele>
        <time>2021-06-17T21:16:47.394Z</time>
      </trkpt>
      <trkpt lat="50.74719" lon="3.45143">
        <ele>13.837963</ele>
        <time>2021-06-17T21:16:49.071Z</time>
      </trkpt>
      <trkpt lat="50.74721" lon="3.45144">
        <ele>13.833335</ele>
        <time>2021-06-17T21:16:49.456Z</time>
      </trkpt>
      <trkpt lat="50.74771" lon="3.45168">
        <ele>13.684532</ele>
        <time>2021-06-17T21:16:56.927Z</time>
      </trkpt>
      <trkpt lat="50.74924" lon="3.45334">
        <ele>12.682309</ele>
        <time>2021-06-17T21:17:21.100Z</time>
      </trkpt>
      <trkpt lat="50.74928" lon="3.4534">
        <ele>12.642061</ele>
        <time>2021-06-17T21:17:21.835Z</time>
      </trkpt>
      <trkpt lat="50.74943" lon="3.45363">
        <ele>12.502722</ele>
        <time>2021-06-17T21:17:24.484Z</time>
      </trkpt>
      <trkpt lat="50.74949" lon="3.45373">
        <ele>12.440534</ele>
        <time>2021-06-17T21:17:25.481Z</time>
      </trkpt>
      <trkpt lat="50.74967" lon="3.45385">
        <ele>12.306363</ele>
        <time>2021-06-17T21:17:28.122Z</time>
      </trkpt>
      <trkpt lat="50.75002" lon="3.45383">
        <ele>12.210284</ele>
        <time>2021-06-17T21:17:32.412Z</time>
      </trkpt>
      <trkpt lat="50.75014" lon="3.45382">
        <ele>12.190827</ele>
        <time>2021-06-17T21:17:33.842Z</time>
      </trkpt>
      <trkpt lat="50.75019" lon="3.45379">
        <ele>12.182014</ele>
        <time>2021-06-17T21:17:34.455Z</time>
      </trkpt>
      <trkpt lat="50.75106" lon="3.45317">
        <ele>12.026286</ele>
        <time>2021-06-17T21:17:48.132Z</time>
      </trkpt>
      <trkpt lat="50.7521" lon="3.45303">
        <ele>12.485598</ele>
        <time>2021-06-17T21:18:06.224Z</time>
      </trkpt>
      <trkpt lat="50.75213" lon="3.45302">
        <ele>12.508899</ele>
        <time>2021-06-17T21:18:07.217Z</time>
      </trkpt>
      <trkpt lat="50.75217" lon="3.453">
        <ele>12.548028</ele>
        <time>2021-06-17T21:18:08.343Z</time>
      </trkpt>
      <trkpt lat="50.75315" lon="3.45213">
        <ele>13.435971</ele>
        <time>2021-06-17T21:18:28.937Z</time>
      </trkpt>
      <trkpt lat="50.75372" lon="3.45185">
        <ele>13.569639</ele>
        <time>2021-06-17T21:18:39.002Z</time>
      </trkpt>
      <trkpt lat="50.75398" lon="3.45174">
        <ele>13.629397</ele>
        <time>2021-06-17T21:18:42.982Z</time>
      </trkpt>
      <trkpt lat="50.754" lon="3.45173">
        <ele>13.635258</ele>
        <time>2021-06-17T21:18:43.379Z</time>
      </trkpt>
      <trkpt lat="50.75417" lon="3.45164">
        <ele>13.675381</ele>
        <time>2021-06-17T21:18:46.122Z</time>
      </trkpt>
      <trkpt lat="50.75438" lon="3.45153">
        <ele>13.725701</ele>
        <time>2021-06-17T21:18:49.405Z</time>
      </trkpt>
      <trkpt lat="50.75446" lon="3.4515">
        <ele>13.74259</ele>
        <time>2021-06-17T21:18:50.551Z</time>
      </trkpt>
      <trkpt lat="50.75443" lon="3.45158">
        <ele>13.756023</ele>
        <time>2021-06-17T21:18:51.428Z</time>
      </trkpt>
      <trkpt lat="50.75439" lon="3.45172">
        <ele>13.777422</ele>
        <time>2021-06-17T21:18:52.782Z</time>
      </trkpt>
      <trkpt lat="50.75435" lon="3.45205">
        <ele>13.824447</ele>
        <time>2021-06-17T21:18:55.887Z</time>
      </trkpt>
      <trkpt lat="50.75418" lon="3.45471">
        <ele>13.300954</ele>
        <time>2021-06-17T21:19:19.591Z</time>
      </trkpt>
      <trkpt lat="50.75406" lon="3.45692">
        <ele>12.465872</ele>
        <time>2021-06-17T21:19:37.620Z</time>
      </trkpt>
      <trkpt lat="50.75409" lon="3.45727">
        <ele>12.326644</ele>
        <time>2021-06-17T21:19:40.557Z</time>
      </trkpt>
      <trkpt lat="50.75409" lon="3.45729">
        <ele>12.318894</ele>
        <time>2021-06-17T21:19:40.676Z</time>
      </trkpt>
      <trkpt lat="50.75411" lon="3.45734">
        <ele>12.29698</ele>
        <time>2021-06-17T21:19:41.126Z</time>
      </trkpt>
      <trkpt lat="50.75414" lon="3.45743">
        <ele>12.256654</ele>
        <time>2021-06-17T21:19:41.979Z</time>
      </trkpt>
      <trkpt lat="50.75425" lon="3.45762">
        <ele>12.154902</ele>
        <time>2021-06-17T21:19:44.171Z</time>
      </trkpt>
      <trkpt lat="50.75435" lon="3.45784">
        <ele>12.110351</ele>
        <time>2021-06-17T21:19:46.276Z</time>
      </trkpt>
      <trkpt lat="50.7545" lon="3.45823">
        <ele>12.053722</ele>
        <time>2021-06-17T21:19:50.029Z</time>
      </trkpt>
      <trkpt lat="50.75494" lon="3.45993">
        <ele>11.829655</ele>
        <time>2021-06-17T21:20:06.985Z</time>
      </trkpt>
      <trkpt lat="50.75517" lon="3.46057">
        <ele>11.801204</ele>
        <time>2021-06-17T21:20:14.483Z</time>
      </trkpt>
      <trkpt lat="50.7552" lon="3.46065">
        <ele>11.803627</ele>
        <time>2021-06-17T21:20:15.339Z</time>
      </trkpt>
      <trkpt lat="50.75524" lon="3.46072">
        <ele>11.805964</ele>
        <time>2021-06-17T21:20:16.473Z</time>
      </trkpt>
      <trkpt lat="50.75551" lon="3.46124">
        <ele>11.82339</ele>
        <time>2021-06-17T21:20:22.904Z</time>
      </trkpt>
      <trkpt lat="50.7556" lon="3.4614">
        <ele>11.828961</ele>
        <time>2021-06-17T21:20:25.049Z</time>
      </trkpt>
      <trkpt lat="50.75569" lon="3.46155">
        <ele>11.834369</ele>
        <time>2021-06-17T21:20:27.025Z</time>
      </trkpt>
      <trkpt lat="50.75616" lon="3.46261">
        <ele>11.95964</ele>
        <time>2021-06-17T21:20:38.469Z</time>
      </trkpt>
      <trkpt lat="50.75703" lon="3.46366">
        <ele>13.052873</ele>
        <time>2021-06-17T21:20:56.772Z</time>
      </trkpt>
      <trkpt lat="50.75705" lon="3.46369">
        <ele>13.078404</ele>
        <time>2021-06-17T21:20:57.009Z</time>
      </trkpt>
      <trkpt lat="50.75708" lon="3.46375">
        <ele>13.128636</ele>
        <time>2021-06-17T21:20:58.691Z</time>
      </trkpt>
      <trkpt lat="50.75717" lon="3.46419">
        <ele>13.424193</ele>
        <time>2021-06-17T21:21:04.413Z</time>
      </trkpt>
      <trkpt lat="50.75717" lon="3.46428">
        <ele>13.481886</ele>
        <time>2021-06-17T21:21:05.869Z</time>
      </trkpt>
      <trkpt lat="50.75716" lon="3.46452">
        <ele>13.634664</ele>
        <time>2021-06-17T21:21:09.882Z</time>
      </trkpt>
      <trkpt lat="50.75715" lon="3.46459">
        <ele>13.706773</ele>
        <time>2021-06-17T21:21:10.973Z</time>
      </trkpt>
      <trkpt lat="50.75712" lon="3.46474">
        <ele>14.014816</ele>
        <time>2021-06-17T21:21:12.963Z</time>
      </trkpt>
      <trkpt lat="50.7571" lon="3.46481">
        <ele>14.162574</ele>
        <time>2021-06-17T21:21:13.903Z</time>
      </trkpt>
      <trkpt lat="50.75706" lon="3.4649">
        <ele>14.393937</ele>
        <time>2021-06-17T21:21:16.960Z</time>
      </trkpt>
      <trkpt lat="50.75613" lon="3.46598">
        <ele>17.992164</ele>
        <time>2021-06-17T21:21:49.712Z</time>
      </trkpt>
      <trkpt lat="50.75579" lon="3.46636">
        <ele>19.304982</ele>
        <time>2021-06-17T21:22:02.152Z</time>
      </trkpt>
      <trkpt lat="50.75585" lon="3.46655">
        <ele>19.626441</ele>
        <time>2021-06-17T21:22:05.478Z</time>
      </trkpt>
      <trkpt lat="50.75605" lon="3.46718">
        <ele>20.694976</ele>
        <time>2021-06-17T21:22:16.832Z</time>
      </trkpt>
      <trkpt lat="50.75617" lon="3.46751">
        <ele>21.284996</ele>
        <time>2021-06-17T21:22:22.963Z</time>
      </trkpt>
      <trkpt lat="50.75636" lon="3.46796">
        <ele>22.099516</ele>
        <time>2021-06-17T21:22:31.579Z</time>
      </trkpt>
      <trkpt lat="50.75661" lon="3.46867">
        <ele>23.341457</ele>
        <time>2021-06-17T21:22:43.238Z</time>
      </trkpt>
      <trkpt lat="50.75673" lon="3.47004">
        <ele>24.718343</ele>
        <time>2021-06-17T21:23:00.680Z</time>
      </trkpt>
      <trkpt lat="50.75675" lon="3.47018">
        <ele>24.848488</ele>
        <time>2021-06-17T21:23:03.149Z</time>
      </trkpt>
      <trkpt lat="50.7569" lon="3.47034">
        <ele>25.11198</ele>
        <time>2021-06-17T21:23:06.207Z</time>
      </trkpt>
      <trkpt lat="50.75774" lon="3.47135">
        <ele>27.090844</ele>
        <time>2021-06-17T21:23:28.153Z</time>
      </trkpt>
      <trkpt lat="50.75815" lon="3.47172">
        <ele>28.493651</ele>
        <time>2021-06-17T21:23:38.971Z</time>
      </trkpt>
      <trkpt lat="50.75819" lon="3.47196">
        <ele>28.980778</ele>
        <time>2021-06-17T21:23:41.988Z</time>
      </trkpt>
      <trkpt lat="50.75807" lon="3.47273">
        <ele>30.478911</ele>
        <time>2021-06-17T21:23:57.644Z</time>
      </trkpt>
      <trkpt lat="50.75808" lon="3.47311">
        <ele>31.184508</ele>
        <time>2021-06-17T21:24:03.315Z</time>
      </trkpt>
      <trkpt lat="50.75808" lon="3.47317">
        <ele>31.298907</ele>
        <time>2021-06-17T21:24:05.481Z</time>
      </trkpt>
      <trkpt lat="50.75806" lon="3.4732">
        <ele>31.36782</ele>
        <time>2021-06-17T21:24:07.960Z</time>
      </trkpt>
      <trkpt lat="50.75724" lon="3.47416">
        <ele>37.164452</ele>
        <time>2021-06-17T21:24:42.445Z</time>
      </trkpt>
      <trkpt lat="50.75719" lon="3.47422">
        <ele>37.525493</ele>
        <time>2021-06-17T21:24:47.537Z</time>
      </trkpt>
      <trkpt lat="50.75719" lon="3.47422">
        <ele>37.525493</ele>
        <time>2021-06-17T21:24:47.570Z</time>
      </trkpt>
      <trkpt lat="50.75717" lon="3.47425">
        <ele>37.677402</ele>
        <time>2021-06-17T21:24:48.270Z</time>
      </trkpt>
      <trkpt lat="50.75687" lon="3.4745">
        <ele>39.650451</ele>
        <time>2021-06-17T21:25:05.220Z</time>
      </trkpt>
      <trkpt lat="50.75647" lon="3.47494">
        <ele>42.585136</ele>
        <time>2021-06-17T21:25:25.826Z</time>
      </trkpt>
      <trkpt lat="50.75601" lon="3.47582">
        <ele>47.94206</ele>
        <time>2021-06-17T21:25:59.556Z</time>
      </trkpt>
      <trkpt lat="50.75597" lon="3.4759">
        <ele>48.401508</ele>
        <time>2021-06-17T21:26:02.756Z</time>
      </trkpt>
      <trkpt lat="50.75605" lon="3.47605">
        <ele>49.340172</ele>
        <time>2021-06-17T21:26:10.923Z</time>
      </trkpt>
      <trkpt lat="50.75629" lon="3.47662">
        <ele>52.513044</ele>
        <time>2021-06-17T21:26:29.163Z</time>
      </trkpt>
      <trkpt lat="50.75648" lon="3.47693">
        <ele>54.540061</ele>
        <time>2021-06-17T21:26:43.104Z</time>
      </trkpt>
      <trkpt lat="50.7567" lon="3.47718">
        <ele>56.691875</ele>
        <time>2021-06-17T21:26:53.510Z</time>
      </trkpt>
      <trkpt lat="50.75688" lon="3.47727">
        <ele>58.394111</ele>
        <time>2021-06-17T21:27:03.605Z</time>
      </trkpt>
      <trkpt lat="50.75708" lon="3.4773">
        <ele>60.059193</ele>
        <time>2021-06-17T21:27:12.490Z</time>
      </trkpt>
      <trkpt lat="50.75709" lon="3.47738">
        <ele>60.486411</ele>
        <time>2021-06-17T21:27:17.089Z</time>
      </trkpt>
      <trkpt lat="50.75701" lon="3.47774">
        <ele>62.531174</ele>
        <time>2021-06-17T21:27:26.228Z</time>
      </trkpt>
      <trkpt lat="50.75647" lon="3.47896">
        <ele>70.639293</ele>
        <time>2021-06-17T21:28:16.881Z</time>
      </trkpt>
      <trkpt lat="50.75619" lon="3.47974">
        <ele>74.351696</ele>
        <time>2021-06-17T21:28:42.980Z</time>
      </trkpt>
      <trkpt lat="50.75614" lon="3.47982">
        <ele>74.777852</ele>
        <time>2021-06-17T21:28:46.144Z</time>
      </trkpt>
      <trkpt lat="50.7562" lon="3.47993">
        <ele>75.370323</ele>
        <time>2021-06-17T21:28:51.094Z</time>
      </trkpt>
      <trkpt lat="50.7565" lon="3.48043">
        <ele>78.15078</ele>
        <time>2021-06-17T21:29:07.967Z</time>
      </trkpt>
      <trkpt lat="50.75828" lon="3.48233">
        <ele>88.447262</ele>
        <time>2021-06-17T21:30:17.479Z</time>
      </trkpt>
      <trkpt lat="50.75832" lon="3.48237">
        <ele>88.657766</ele>
        <time>2021-06-17T21:30:18.914Z</time>
      </trkpt>
      <trkpt lat="50.75843" lon="3.48248">
        <ele>89.195029</ele>
        <time>2021-06-17T21:30:23.087Z</time>
      </trkpt>
      <trkpt lat="50.75889" lon="3.4829">
        <ele>90.383854</ele>
        <time>2021-06-17T21:30:40.798Z</time>
      </trkpt>
      <trkpt lat="50.75904" lon="3.48311">
        <ele>90.710172</ele>
        <time>2021-06-17T21:30:46.517Z</time>
      </trkpt>
      <trkpt lat="50.75905" lon="3.48315">
        <ele>90.753936</ele>
        <time>2021-06-17T21:30:47.584Z</time>
      </trkpt>
      <trkpt lat="50.75905" lon="3.48317">
        <ele>90.777451</ele>
        <time>2021-06-17T21:30:47.915Z</time>
      </trkpt>
      <trkpt lat="50.75903" lon="3.48378">
        <ele>91.396496</ele>
        <time>2021-06-17T21:30:58.742Z</time>
      </trkpt>
      <trkpt lat="50.75904" lon="3.4838">
        <ele>91.420175</ele>
        <time>2021-06-17T21:30:59.043Z</time>
      </trkpt>
      <trkpt lat="50.75904" lon="3.4838">
        <ele>91.420175</ele>
        <time>2021-06-17T21:30:59.123Z</time>
      </trkpt>
      <trkpt lat="50.75904" lon="3.4838">
        <ele>91.420175</ele>
        <time>2021-06-17T21:30:59.130Z</time>
      </trkpt>
      <trkpt lat="50.75901" lon="3.48399">
        <ele>91.623139</ele>
        <time>2021-06-17T21:31:03.198Z</time>
      </trkpt>
      <trkpt lat="50.75897" lon="3.48465">
        <ele>92.302266</ele>
        <time>2021-06-17T21:31:13.032Z</time>
      </trkpt>
      <trkpt lat="50.75893" lon="3.48524">
        <ele>92.509796</ele>
        <time>2021-06-17T21:31:19.926Z</time>
      </trkpt>
      <trkpt lat="50.75891" lon="3.48525">
        <ele>92.484328</ele>
        <time>2021-06-17T21:31:20.151Z</time>
      </trkpt>
      <trkpt lat="50.75817" lon="3.48558">
        <ele>91.784823</ele>
        <time>2021-06-17T21:31:29.843Z</time>
      </trkpt>
      <trkpt lat="50.75795" lon="3.48578">
        <ele>91.555966</ele>
        <time>2021-06-17T21:31:34.623Z</time>
      </trkpt>
      <trkpt lat="50.75788" lon="3.48592">
        <ele>91.449465</ele>
        <time>2021-06-17T21:31:35.689Z</time>
      </trkpt>
      <trkpt lat="50.75768" lon="3.48624">
        <ele>91.192315</ele>
        <time>2021-06-17T21:31:39.919Z</time>
      </trkpt>
      <trkpt lat="50.75655" lon="3.48768">
        <ele>89.213684</ele>
        <time>2021-06-17T21:31:56.146Z</time>
      </trkpt>
      <trkpt lat="50.75615" lon="3.48801">
        <ele>88.574559</ele>
        <time>2021-06-17T21:32:01.920Z</time>
      </trkpt>
      <trkpt lat="50.75605" lon="3.48809">
        <ele>88.401544</ele>
        <time>2021-06-17T21:32:03.271Z</time>
      </trkpt>
      <trkpt lat="50.75599" lon="3.48817">
        <ele>88.199166</ele>
        <time>2021-06-17T21:32:04.341Z</time>
      </trkpt>
      <trkpt lat="50.75596" lon="3.4882">
        <ele>88.117637</ele>
        <time>2021-06-17T21:32:04.792Z</time>
      </trkpt>
      <trkpt lat="50.75593" lon="3.48825">
        <ele>87.996748</ele>
        <time>2021-06-17T21:32:05.390Z</time>
      </trkpt>
      <trkpt lat="50.75541" lon="3.48905">
        <ele>86.236052</ele>
        <time>2021-06-17T21:32:13.909Z</time>
      </trkpt>
      <trkpt lat="50.75536" lon="3.48918">
        <ele>86.002002</ele>
        <time>2021-06-17T21:32:14.983Z</time>
      </trkpt>
      <trkpt lat="50.75534" lon="3.48922">
        <ele>85.923568</ele>
        <time>2021-06-17T21:32:15.344Z</time>
      </trkpt>
      <trkpt lat="50.75531" lon="3.48932">
        <ele>85.757943</ele>
        <time>2021-06-17T21:32:16.109Z</time>
      </trkpt>
      <trkpt lat="50.75514" lon="3.49003">
        <ele>84.580002</ele>
        <time>2021-06-17T21:32:21.130Z</time>
      </trkpt>
      <trkpt lat="50.75504" lon="3.49022">
        <ele>84.198719</ele>
        <time>2021-06-17T21:32:22.590Z</time>
      </trkpt>
      <trkpt lat="50.75466" lon="3.49055">
        <ele>81.603381</ele>
        <time>2021-06-17T21:32:26.618Z</time>
      </trkpt>
      <trkpt lat="50.75437" lon="3.49103">
        <ele>78.848752</ele>
        <time>2021-06-17T21:32:30.409Z</time>
      </trkpt>
      <trkpt lat="50.75423" lon="3.49114">
        <ele>77.850696</ele>
        <time>2021-06-17T21:32:31.927Z</time>
      </trkpt>
      <trkpt lat="50.75421" lon="3.49113">
        <ele>77.704621</ele>
        <time>2021-06-17T21:32:32.111Z</time>
      </trkpt>
      <trkpt lat="50.7542" lon="3.49112">
        <ele>77.618713</ele>
        <time>2021-06-17T21:32:32.214Z</time>
      </trkpt>
      <trkpt lat="50.75384" lon="3.49084">
        <ele>74.962856</ele>
        <time>2021-06-17T21:32:35.859Z</time>
      </trkpt>
      <trkpt lat="50.75378" lon="3.49083">
        <ele>74.572246</ele>
        <time>2021-06-17T21:32:36.390Z</time>
      </trkpt>
      <trkpt lat="50.75374" lon="3.49085">
        <ele>74.315627</ele>
        <time>2021-06-17T21:32:36.713Z</time>
      </trkpt>
      <trkpt lat="50.75345" lon="3.49133">
        <ele>71.466467</ele>
        <time>2021-06-17T21:32:40.493Z</time>
      </trkpt>
      <trkpt lat="50.75268" lon="3.49167">
        <ele>65.775951</ele>
        <time>2021-06-17T21:32:47.451Z</time>
      </trkpt>
      <trkpt lat="50.75253" lon="3.4918">
        <ele>64.506603</ele>
        <time>2021-06-17T21:32:49.072Z</time>
      </trkpt>
      <trkpt lat="50.75188" lon="3.49249">
        <ele>58.979839</ele>
        <time>2021-06-17T21:32:56.212Z</time>
      </trkpt>
      <trkpt lat="50.75191" lon="3.49263">
        <ele>58.431292</ele>
        <time>2021-06-17T21:32:57.437Z</time>
      </trkpt>
      <trkpt lat="50.75194" lon="3.49353">
        <ele>55.085314</ele>
        <time>2021-06-17T21:33:04.929Z</time>
      </trkpt>
      <trkpt lat="50.75195" lon="3.49419">
        <ele>52.607867</ele>
        <time>2021-06-17T21:33:10.526Z</time>
      </trkpt>
      <trkpt lat="50.75198" lon="3.49489">
        <ele>50.038443</ele>
        <time>2021-06-17T21:33:16.413Z</time>
      </trkpt>
      <trkpt lat="50.75194" lon="3.49492">
        <ele>49.806493</ele>
        <time>2021-06-17T21:33:16.900Z</time>
      </trkpt>
      <trkpt lat="50.7507" lon="3.49527">
        <ele>42.723628</ele>
        <time>2021-06-17T21:33:33.749Z</time>
      </trkpt>
      <trkpt lat="50.74936" lon="3.49535">
        <ele>35.816217</ele>
        <time>2021-06-17T21:33:51.584Z</time>
      </trkpt>
      <trkpt lat="50.74925" lon="3.49545">
        <ele>35.214325</ele>
        <time>2021-06-17T21:33:53.316Z</time>
      </trkpt>
      <trkpt lat="50.74914" lon="3.49605">
        <ele>33.355082</ele>
        <time>2021-06-17T21:33:58.679Z</time>
      </trkpt>
      <trkpt lat="50.749" lon="3.49613">
        <ele>32.668972</ele>
        <time>2021-06-17T21:34:00.668Z</time>
      </trkpt>
      <trkpt lat="50.74617" lon="3.49621">
        <ele>22.853312</ele>
        <time>2021-06-17T21:34:41.466Z</time>
      </trkpt>
      <trkpt lat="50.74611" lon="3.49624">
        <ele>22.708856</ele>
        <time>2021-06-17T21:34:42.432Z</time>
      </trkpt>
      <trkpt lat="50.7462" lon="3.4968">
        <ele>21.92386</ele>
        <time>2021-06-17T21:34:48.220Z</time>
      </trkpt>
      <trkpt lat="50.74631" lon="3.49755">
        <ele>20.865374</ele>
        <time>2021-06-17T21:34:56.381Z</time>
      </trkpt>
      <trkpt lat="50.74622" lon="3.49758">
        <ele>20.64809</ele>
        <time>2021-06-17T21:34:58.020Z</time>
      </trkpt>
      <trkpt lat="50.74517" lon="3.49804">
        <ele>18.905511</ele>
        <time>2021-06-17T21:35:16.430Z</time>
      </trkpt>
      <trkpt lat="50.74462" lon="3.49812">
        <ele>18.098815</ele>
        <time>2021-06-17T21:35:25.471Z</time>
      </trkpt>
      <trkpt lat="50.74413" lon="3.49829">
        <ele>17.39138</ele>
        <time>2021-06-17T21:35:33.603Z</time>
      </trkpt>
      <trkpt lat="50.74405" lon="3.4983">
        <ele>17.283345</ele>
        <time>2021-06-17T21:35:34.900Z</time>
      </trkpt>
      <trkpt lat="50.74387" lon="3.49825">
        <ele>17.049806</ele>
        <time>2021-06-17T21:35:36.973Z</time>
      </trkpt>
      <trkpt lat="50.7434" lon="3.49785">
        <ele>16.371254</ele>
        <time>2021-06-17T21:35:43.129Z</time>
      </trkpt>
      <trkpt lat="50.74324" lon="3.49757">
        <ele>16.062245</ele>
        <time>2021-06-17T21:35:45.990Z</time>
      </trkpt>
      <trkpt lat="50.74314" lon="3.49727">
        <ele>15.787634</ele>
        <time>2021-06-17T21:35:48.535Z</time>
      </trkpt>
      <trkpt lat="50.74308" lon="3.49715">
        <ele>15.663078</ele>
        <time>2021-06-17T21:35:49.669Z</time>
      </trkpt>
      <trkpt lat="50.74305" lon="3.49708">
        <ele>15.594268</ele>
        <time>2021-06-17T21:35:50.385Z</time>
      </trkpt>
      <trkpt lat="50.74297" lon="3.49698">
        <ele>15.46034</ele>
        <time>2021-06-17T21:35:51.626Z</time>
      </trkpt>
      <trkpt lat="50.7429" lon="3.49692">
        <ele>15.362318</ele>
        <time>2021-06-17T21:35:52.536Z</time>
      </trkpt>
      <trkpt lat="50.74285" lon="3.4969">
        <ele>15.290553</ele>
        <time>2021-06-17T21:35:53.208Z</time>
      </trkpt>
      <trkpt lat="50.74277" lon="3.49688">
        <ele>15.203131</ele>
        <time>2021-06-17T21:35:54.086Z</time>
      </trkpt>
      <trkpt lat="50.74219" lon="3.49677">
        <ele>15.089978</ele>
        <time>2021-06-17T21:36:01.972Z</time>
      </trkpt>
      <trkpt lat="50.74167" lon="3.49651">
        <ele>14.98432</ele>
        <time>2021-06-17T21:36:09.512Z</time>
      </trkpt>
      <trkpt lat="50.74119" lon="3.4963">
        <ele>14.887804</ele>
        <time>2021-06-17T21:36:17.473Z</time>
      </trkpt>
      <trkpt lat="50.74104" lon="3.49622">
        <ele>14.857534</ele>
        <time>2021-06-17T21:36:19.902Z</time>
      </trkpt>
      <trkpt lat="50.74099" lon="3.4962">
        <ele>14.892963</ele>
        <time>2021-06-17T21:36:20.707Z</time>
      </trkpt>
      <trkpt lat="50.74082" lon="3.4962">
        <ele>15.02951</ele>
        <time>2021-06-17T21:36:23.559Z</time>
      </trkpt>
      <trkpt lat="50.74038" lon="3.49636">
        <ele>15.391027</ele>
        <time>2021-06-17T21:36:31.018Z</time>
      </trkpt>
      <trkpt lat="50.74001" lon="3.49637">
        <ele>15.685545</ele>
        <time>2021-06-17T21:36:37.830Z</time>
      </trkpt>
      <trkpt lat="50.73972" lon="3.49632">
        <ele>15.9099</ele>
        <time>2021-06-17T21:36:43.143Z</time>
      </trkpt>
      <trkpt lat="50.73897" lon="3.49601">
        <ele>16.706987</ele>
        <time>2021-06-17T21:36:58.335Z</time>
      </trkpt>
      <trkpt lat="50.7388" lon="3.49596">
        <ele>16.943376</ele>
        <time>2021-06-17T21:37:02.205Z</time>
      </trkpt>
      <trkpt lat="50.73869" lon="3.49596">
        <ele>17.092224</ele>
        <time>2021-06-17T21:37:04.342Z</time>
      </trkpt>
      <trkpt lat="50.73838" lon="3.49596">
        <ele>17.516808</ele>
        <time>2021-06-17T21:37:10.894Z</time>
      </trkpt>
      <trkpt lat="50.73797" lon="3.4958">
        <ele>18.087032</ele>
        <time>2021-06-17T21:37:19.427Z</time>
      </trkpt>
      <trkpt lat="50.73779" lon="3.49572">
        <ele>18.345065</ele>
        <time>2021-06-17T21:37:23.299Z</time>
      </trkpt>
      <trkpt lat="50.7377" lon="3.49565">
        <ele>18.484467</ele>
        <time>2021-06-17T21:37:25.643Z</time>
      </trkpt>
      <trkpt lat="50.73566" lon="3.49468">
        <ele>20.975929</ele>
        <time>2021-06-17T21:38:07.055Z</time>
      </trkpt>
      <trkpt lat="50.73425" lon="3.49428">
        <ele>22.601903</ele>
        <time>2021-06-17T21:38:34.077Z</time>
      </trkpt>
      <trkpt lat="50.73421" lon="3.49425">
        <ele>22.648648</ele>
        <time>2021-06-17T21:38:35.031Z</time>
      </trkpt>
      <trkpt lat="50.73419" lon="3.49417">
        <ele>22.71159</ele>
        <time>2021-06-17T21:38:36.141Z</time>
      </trkpt>
      <trkpt lat="50.73418" lon="3.4939">
        <ele>22.930795</ele>
        <time>2021-06-17T21:38:39.672Z</time>
      </trkpt>
      <trkpt lat="50.73426" lon="3.49339">
        <ele>23.521805</ele>
        <time>2021-06-17T21:38:46.661Z</time>
      </trkpt>
      <trkpt lat="50.73425" lon="3.49242">
        <ele>24.59371</ele>
        <time>2021-06-17T21:38:59.658Z</time>
      </trkpt>
      <trkpt lat="50.73417" lon="3.492">
        <ele>25.084457</ele>
        <time>2021-06-17T21:39:05.620Z</time>
      </trkpt>
      <trkpt lat="50.73414" lon="3.49194">
        <ele>25.166536</ele>
        <time>2021-06-17T21:39:06.667Z</time>
      </trkpt>
      <trkpt lat="50.73409" lon="3.49187">
        <ele>25.285229</ele>
        <time>2021-06-17T21:39:08.544Z</time>
      </trkpt>
      <trkpt lat="50.73299" lon="3.49117">
        <ele>27.677795</ele>
        <time>2021-06-17T21:39:36.398Z</time>
      </trkpt>
      <trkpt lat="50.73231" lon="3.49052">
        <ele>29.396909</ele>
        <time>2021-06-17T21:39:55.637Z</time>
      </trkpt>
      <trkpt lat="50.73214" lon="3.49039">
        <ele>29.797584</ele>
        <time>2021-06-17T21:40:00.032Z</time>
      </trkpt>
      <trkpt lat="50.73196" lon="3.49024">
        <ele>30.158756</ele>
        <time>2021-06-17T21:40:04.541Z</time>
      </trkpt>
      <trkpt lat="50.73117" lon="3.48962">
        <ele>31.636914</ele>
        <time>2021-06-17T21:40:23.729Z</time>
      </trkpt>
      <trkpt lat="50.73108" lon="3.48943">
        <ele>31.877057</ele>
        <time>2021-06-17T21:40:26.961Z</time>
      </trkpt>
      <trkpt lat="50.73094" lon="3.48875">
        <ele>32.629312</ele>
        <time>2021-06-17T21:40:36.764Z</time>
      </trkpt>
      <trkpt lat="50.73085" lon="3.48852">
        <ele>32.908032</ele>
        <time>2021-06-17T21:40:39.974Z</time>
      </trkpt>
      <trkpt lat="50.73056" lon="3.48808">
        <ele>33.297846</ele>
        <time>2021-06-17T21:40:47.636Z</time>
      </trkpt>
      <trkpt lat="50.73034" lon="3.4879">
        <ele>33.5392</ele>
        <time>2021-06-17T21:40:52.395Z</time>
      </trkpt>
      <trkpt lat="50.73022" lon="3.48785">
        <ele>33.663216</ele>
        <time>2021-06-17T21:40:54.787Z</time>
      </trkpt>
      <trkpt lat="50.73021" lon="3.48795">
        <ele>33.7278</ele>
        <time>2021-06-17T21:40:56.385Z</time>
      </trkpt>
      <trkpt lat="50.72987" lon="3.48891">
        <ele>34.408022</ele>
        <time>2021-06-17T21:41:09.387Z</time>
      </trkpt>
      <trkpt lat="50.72849" lon="3.4924">
        <ele>35.012706</ele>
        <time>2021-06-17T21:41:50.418Z</time>
      </trkpt>
      <trkpt lat="50.72845" lon="3.49252">
        <ele>35.003514</ele>
        <time>2021-06-17T21:41:51.435Z</time>
      </trkpt>
      <trkpt lat="50.72835" lon="3.49276">
        <ele>34.98298</ele>
        <time>2021-06-17T21:41:53.878Z</time>
      </trkpt>
      <trkpt lat="50.72802" lon="3.49363">
        <ele>34.910292</ele>
        <time>2021-06-17T21:42:02.465Z</time>
      </trkpt>
      <trkpt lat="50.72747" lon="3.49558">
        <ele>35.686535</ele>
        <time>2021-06-17T21:42:23.172Z</time>
      </trkpt>
      <trkpt lat="50.7262" lon="3.49755">
        <ele>38.59192</ele>
        <time>2021-06-17T21:43:02.153Z</time>
      </trkpt>
      <trkpt lat="50.72596" lon="3.4981">
        <ele>39.55363</ele>
        <time>2021-06-17T21:43:13.473Z</time>
      </trkpt>
      <trkpt lat="50.72585" lon="3.49858">
        <ele>40.283449</ele>
        <time>2021-06-17T21:43:21.041Z</time>
      </trkpt>
      <trkpt lat="50.72584" lon="3.49861">
        <ele>40.341323</ele>
        <time>2021-06-17T21:43:22.265Z</time>
      </trkpt>
      <trkpt lat="50.72584" lon="3.49889">
        <ele>40.939705</ele>
        <time>2021-06-17T21:43:26.623Z</time>
      </trkpt>
      <trkpt lat="50.72584" lon="3.4998">
        <ele>43.046743</ele>
        <time>2021-06-17T21:43:43.414Z</time>
      </trkpt>
      <trkpt lat="50.72569" lon="3.50113">
        <ele>46.164777</ele>
        <time>2021-06-17T21:44:09.236Z</time>
      </trkpt>
      <trkpt lat="50.72562" lon="3.50174">
        <ele>47.645012</ele>
        <time>2021-06-17T21:44:21.384Z</time>
      </trkpt>
      <trkpt lat="50.72561" lon="3.50183">
        <ele>47.867909</ele>
        <time>2021-06-17T21:44:23.579Z</time>
      </trkpt>
      <trkpt lat="50.72566" lon="3.50196">
        <ele>48.227045</ele>
        <time>2021-06-17T21:44:26.911Z</time>
      </trkpt>
      <trkpt lat="50.72577" lon="3.5024">
        <ele>49.378707</ele>
        <time>2021-06-17T21:44:36.276Z</time>
      </trkpt>
      <trkpt lat="50.72578" lon="3.50263">
        <ele>49.939198</ele>
        <time>2021-06-17T21:44:40.433Z</time>
      </trkpt>
      <trkpt lat="50.72565" lon="3.50373">
        <ele>52.654089</ele>
        <time>2021-06-17T21:45:02.437Z</time>
      </trkpt>
      <trkpt lat="50.72564" lon="3.50386">
        <ele>52.976017</ele>
        <time>2021-06-17T21:45:05.236Z</time>
      </trkpt>
      <trkpt lat="50.7256" lon="3.50406">
        <ele>53.483311</ele>
        <time>2021-06-17T21:45:09.398Z</time>
      </trkpt>
      <trkpt lat="50.72549" lon="3.50461">
        <ele>54.213825</ele>
        <time>2021-06-17T21:45:19.098Z</time>
      </trkpt>
      <trkpt lat="50.72522" lon="3.5051">
        <ele>54.712799</ele>
        <time>2021-06-17T21:45:28.282Z</time>
      </trkpt>
      <trkpt lat="50.72497" lon="3.50587">
        <ele>55.375405</ele>
        <time>2021-06-17T21:45:39.995Z</time>
      </trkpt>
      <trkpt lat="50.7248" lon="3.50623">
        <ele>55.7199</ele>
        <time>2021-06-17T21:45:43.805Z</time>
      </trkpt>
      <trkpt lat="50.72461" lon="3.50636">
        <ele>55.963668</ele>
        <time>2021-06-17T21:45:46.668Z</time>
      </trkpt>
      <trkpt lat="50.72388" lon="3.50617">
        <ele>54.862425</ele>
        <time>2021-06-17T21:45:55.370Z</time>
      </trkpt>
      <trkpt lat="50.72352" lon="3.50623">
        <ele>54.191953</ele>
        <time>2021-06-17T21:45:59.300Z</time>
      </trkpt>
      <trkpt lat="50.72347" lon="3.50625">
        <ele>54.10499</ele>
        <time>2021-06-17T21:45:59.738Z</time>
      </trkpt>
      <trkpt lat="50.72342" lon="3.50637">
        <ele>53.932427</ele>
        <time>2021-06-17T21:46:00.769Z</time>
      </trkpt>
      <trkpt lat="50.72301" lon="3.50743">
        <ele>52.512099</ele>
        <time>2021-06-17T21:46:09.151Z</time>
      </trkpt>
      <trkpt lat="50.72298" lon="3.5075">
        <ele>52.409613</ele>
        <time>2021-06-17T21:46:09.805Z</time>
      </trkpt>
      <trkpt lat="50.72286" lon="3.50763">
        <ele>52.177153</ele>
        <time>2021-06-17T21:46:11.202Z</time>
      </trkpt>
      <trkpt lat="50.72178" lon="3.50967">
        <ele>49.985026</ele>
        <time>2021-06-17T21:46:30.520Z</time>
      </trkpt>
      <trkpt lat="50.72115" lon="3.51072">
        <ele>50.887435</ele>
        <time>2021-06-17T21:46:46.861Z</time>
      </trkpt>
      <trkpt lat="50.72107" lon="3.51081">
        <ele>50.985484</ele>
        <time>2021-06-17T21:46:49.218Z</time>
      </trkpt>
      <trkpt lat="50.71784" lon="3.51362">
        <ele>59.184842</ele>
        <time>2021-06-17T21:48:23.593Z</time>
      </trkpt>
      <trkpt lat="50.71613" lon="3.51467">
        <ele>60.368797</ele>
        <time>2021-06-17T21:48:56.463Z</time>
      </trkpt>
      <trkpt lat="50.71596" lon="3.51475">
        <ele>60.393836</ele>
        <time>2021-06-17T21:48:58.868Z</time>
      </trkpt>
      <trkpt lat="50.71579" lon="3.51482">
        <ele>60.417913</ele>
        <time>2021-06-17T21:49:00.829Z</time>
      </trkpt>
      <trkpt lat="50.71469" lon="3.51504">
        <ele>57.800504</ele>
        <time>2021-06-17T21:49:12.682Z</time>
      </trkpt>
      <trkpt lat="50.71378" lon="3.51486">
        <ele>55.399052</ele>
        <time>2021-06-17T21:49:21.924Z</time>
      </trkpt>
      <trkpt lat="50.71249" lon="3.51499">
        <ele>51.397579</ele>
        <time>2021-06-17T21:49:35.042Z</time>
      </trkpt>
      <trkpt lat="50.7118" lon="3.51509">
        <ele>49.62665</ele>
        <time>2021-06-17T21:49:42.258Z</time>
      </trkpt>
      <trkpt lat="50.71116" lon="3.51521">
        <ele>48.31928</ele>
        <time>2021-06-17T21:49:49.212Z</time>
      </trkpt>
      <trkpt lat="50.70856" lon="3.51568">
        <ele>44.37979</ele>
        <time>2021-06-17T21:50:19.685Z</time>
      </trkpt>
      <trkpt lat="50.70826" lon="3.51584">
        <ele>44.253134</ele>
        <time>2021-06-17T21:50:23.694Z</time>
      </trkpt>
      <trkpt lat="50.70776" lon="3.51631">
        <ele>44.019611</ele>
        <time>2021-06-17T21:50:31.433Z</time>
      </trkpt>
      <trkpt lat="50.70755" lon="3.51653">
        <ele>43.921209</ele>
        <time>2021-06-17T21:50:34.847Z</time>
      </trkpt>
      <trkpt lat="50.70747" lon="3.51664">
        <ele>43.8795</ele>
        <time>2021-06-17T21:50:36.317Z</time>
      </trkpt>
      <trkpt lat="50.7066" lon="3.51803">
        <ele>44.080438</ele>
        <time>2021-06-17T21:50:55.347Z</time>
      </trkpt>
      <trkpt lat="50.7049" lon="3.52003">
        <ele>46.459635</ele>
        <time>2021-06-17T21:51:34.966Z</time>
      </trkpt>
      <trkpt lat="50.70462" lon="3.52029">
        <ele>47.00242</ele>
        <time>2021-06-17T21:51:42.093Z</time>
      </trkpt>
      <trkpt lat="50.70447" lon="3.52039">
        <ele>47.2856</ele>
        <time>2021-06-17T21:51:46.599Z</time>
      </trkpt>
      <trkpt lat="50.7039" lon="3.52084">
        <ele>48.878891</ele>
        <time>2021-06-17T21:52:03.480Z</time>
      </trkpt>
      <trkpt lat="50.70344" lon="3.52133">
        <ele>50.675919</ele>
        <time>2021-06-17T21:52:19.276Z</time>
      </trkpt>
      <trkpt lat="50.70317" lon="3.52167">
        <ele>51.80202</ele>
        <time>2021-06-17T21:52:29.580Z</time>
      </trkpt>
      <trkpt lat="50.70297" lon="3.52194">
        <ele>52.654835</ele>
        <time>2021-06-17T21:52:37.021Z</time>
      </trkpt>
      <trkpt lat="50.70233" lon="3.52264">
        <ele>54.65355</ele>
        <time>2021-06-17T21:52:58.131Z</time>
      </trkpt>
      <trkpt lat="50.70063" lon="3.52391">
        <ele>57.916059</ele>
        <time>2021-06-17T21:53:39.841Z</time>
      </trkpt>
      <trkpt lat="50.70041" lon="3.52405">
        <ele>58.08084</ele>
        <time>2021-06-17T21:53:43.996Z</time>
      </trkpt>
      <trkpt lat="50.69936" lon="3.52433">
        <ele>58.686195</ele>
        <time>2021-06-17T21:54:06.064Z</time>
      </trkpt>
      <trkpt lat="50.69852" lon="3.52507">
        <ele>57.893278</ele>
        <time>2021-06-17T21:54:23.947Z</time>
      </trkpt>
      <trkpt lat="50.69799" lon="3.52522">
        <ele>57.447184</ele>
        <time>2021-06-17T21:54:33.092Z</time>
      </trkpt>
      <trkpt lat="50.69768" lon="3.52596">
        <ele>56.329137</ele>
        <time>2021-06-17T21:54:42.157Z</time>
      </trkpt>
      <trkpt lat="50.69745" lon="3.52634">
        <ele>55.417715</ele>
        <time>2021-06-17T21:54:47.371Z</time>
      </trkpt>
      <trkpt lat="50.69719" lon="3.52671">
        <ele>54.464751</ele>
        <time>2021-06-17T21:54:52.656Z</time>
      </trkpt>
      <trkpt lat="50.69711" lon="3.52664">
        <ele>54.214137</ele>
        <time>2021-06-17T21:54:53.893Z</time>
      </trkpt>
      <trkpt lat="50.69479" lon="3.52454">
        <ele>45.641413</ele>
        <time>2021-06-17T21:55:32.330Z</time>
      </trkpt>
      <trkpt lat="50.69422" lon="3.5239">
        <ele>43.630409</ele>
        <time>2021-06-17T21:55:42.645Z</time>
      </trkpt>
      <trkpt lat="50.69357" lon="3.52331">
        <ele>41.521041</ele>
        <time>2021-06-17T21:55:53.858Z</time>
      </trkpt>
      <trkpt lat="50.69329" lon="3.52303">
        <ele>40.784909</ele>
        <time>2021-06-17T21:55:59.018Z</time>
      </trkpt>
      <trkpt lat="50.6932" lon="3.52327">
        <ele>40.49735</ele>
        <time>2021-06-17T21:56:00.974Z</time>
      </trkpt>
      <trkpt lat="50.69226" lon="3.52573">
        <ele>37.613459</ele>
        <time>2021-06-17T21:56:22.227Z</time>
      </trkpt>
      <trkpt lat="50.69183" lon="3.52636">
        <ele>36.799536</ele>
        <time>2021-06-17T21:56:29.041Z</time>
      </trkpt>
      <trkpt lat="50.69149" lon="3.52664">
        <ele>36.255795</ele>
        <time>2021-06-17T21:56:33.561Z</time>
      </trkpt>
      <trkpt lat="50.69135" lon="3.52672">
        <ele>36.052264</ele>
        <time>2021-06-17T21:56:35.216Z</time>
      </trkpt>
      <trkpt lat="50.69076" lon="3.52701">
        <ele>35.244403</ele>
        <time>2021-06-17T21:56:42.393Z</time>
      </trkpt>
      <trkpt lat="50.69023" lon="3.52729">
        <ele>34.566266</ele>
        <time>2021-06-17T21:56:48.968Z</time>
      </trkpt>
      <trkpt lat="50.68997" lon="3.52762">
        <ele>34.164011</ele>
        <time>2021-06-17T21:56:52.913Z</time>
      </trkpt>
      <trkpt lat="50.68984" lon="3.52793">
        <ele>33.877189</ele>
        <time>2021-06-17T21:56:55.743Z</time>
      </trkpt>
      <trkpt lat="50.68964" lon="3.52881">
        <ele>33.300547</ele>
        <time>2021-06-17T21:57:03.082Z</time>
      </trkpt>
      <trkpt lat="50.68947" lon="3.52936">
        <ele>33.064646</ele>
        <time>2021-06-17T21:57:08.101Z</time>
      </trkpt>
      <trkpt lat="50.68937" lon="3.52959">
        <ele>32.956762</ele>
        <time>2021-06-17T21:57:10.442Z</time>
      </trkpt>
      <trkpt lat="50.68905" lon="3.53032">
        <ele>32.611409</ele>
        <time>2021-06-17T21:57:18.065Z</time>
      </trkpt>
      <trkpt lat="50.68896" lon="3.53056">
        <ele>32.504146</ele>
        <time>2021-06-17T21:57:20.478Z</time>
      </trkpt>
      <trkpt lat="50.68892" lon="3.5307">
        <ele>32.441741</ele>
        <time>2021-06-17T21:57:21.892Z</time>
      </trkpt>
      <trkpt lat="50.68855" lon="3.53276">
        <ele>31.709158</ele>
        <time>2021-06-17T21:57:39.293Z</time>
      </trkpt>
      <trkpt lat="50.68853" lon="3.53298">
        <ele>31.633953</ele>
        <time>2021-06-17T21:57:41.374Z</time>
      </trkpt>
      <trkpt lat="50.68852" lon="3.53336">
        <ele>31.506042</ele>
        <time>2021-06-17T21:57:44.496Z</time>
      </trkpt>
      <trkpt lat="50.6885" lon="3.53381">
        <ele>31.388711</ele>
        <time>2021-06-17T21:57:48.393Z</time>
      </trkpt>
      <trkpt lat="50.68842" lon="3.53415">
        <ele>31.398385</ele>
        <time>2021-06-17T21:57:51.669Z</time>
      </trkpt>
      <trkpt lat="50.68838" lon="3.53425">
        <ele>31.401644</ele>
        <time>2021-06-17T21:57:52.582Z</time>
      </trkpt>
      <trkpt lat="50.68821" lon="3.53456">
        <ele>31.412829</ele>
        <time>2021-06-17T21:57:56.393Z</time>
      </trkpt>
      <trkpt lat="50.6877" lon="3.53559">
        <ele>31.448377</ele>
        <time>2021-06-17T21:58:08.114Z</time>
      </trkpt>
      <trkpt lat="50.68663" lon="3.53584">
        <ele>32.623816</ele>
        <time>2021-06-17T21:58:28.522Z</time>
      </trkpt>
      <trkpt lat="50.6864" lon="3.5361">
        <ele>33.070765</ele>
        <time>2021-06-17T21:58:34.185Z</time>
      </trkpt>
      <trkpt lat="50.68629" lon="3.53632">
        <ele>33.360701</ele>
        <time>2021-06-17T21:58:38.113Z</time>
      </trkpt>
      <trkpt lat="50.6862" lon="3.53653">
        <ele>33.614784</ele>
        <time>2021-06-17T21:58:41.412Z</time>
      </trkpt>
      <trkpt lat="50.68615" lon="3.5365">
        <ele>33.691946</ele>
        <time>2021-06-17T21:58:43.132Z</time>
      </trkpt>
      <trkpt lat="50.68495" lon="3.53558">
        <ele>37.37423</ele>
        <time>2021-06-17T21:59:24.515Z</time>
      </trkpt>
      <trkpt lat="50.68477" lon="3.53554">
        <ele>37.955869</ele>
        <time>2021-06-17T21:59:31.013Z</time>
      </trkpt>
      <trkpt lat="50.68372" lon="3.53573">
        <ele>41.749411</ele>
        <time>2021-06-17T22:00:08.951Z</time>
      </trkpt>
      <trkpt lat="50.68089" lon="3.53698">
        <ele>53.70345</ele>
        <time>2021-06-17T22:01:58.834Z</time>
      </trkpt>
      <trkpt lat="50.68048" lon="3.53708">
        <ele>55.042489</ele>
        <time>2021-06-17T22:02:12.209Z</time>
      </trkpt>
      <trkpt lat="50.68012" lon="3.53708">
        <ele>55.706463</ele>
        <time>2021-06-17T22:02:23.296Z</time>
      </trkpt>
      <trkpt lat="50.67833" lon="3.53651">
        <ele>57.983313</ele>
        <time>2021-06-17T22:03:10.082Z</time>
      </trkpt>
      <trkpt lat="50.67779" lon="3.53645">
        <ele>57.834075</ele>
        <time>2021-06-17T22:03:20.864Z</time>
      </trkpt>
      <trkpt lat="50.67767" lon="3.5364">
        <ele>57.799428</ele>
        <time>2021-06-17T22:03:22.946Z</time>
      </trkpt>
      <trkpt lat="50.67473" lon="3.53614">
        <ele>53.462381</ele>
        <time>2021-06-17T22:04:10.534Z</time>
      </trkpt>
      <trkpt lat="50.67453" lon="3.5362">
        <ele>53.07153</ele>
        <time>2021-06-17T22:04:13.683Z</time>
      </trkpt>
      <trkpt lat="50.67435" lon="3.53626">
        <ele>52.704565</ele>
        <time>2021-06-17T22:04:16.748Z</time>
      </trkpt>
      <trkpt lat="50.6736" lon="3.53651">
        <ele>51.207545</ele>
        <time>2021-06-17T22:04:28.690Z</time>
      </trkpt>
      <trkpt lat="50.6734" lon="3.53658">
        <ele>50.693382</ele>
        <time>2021-06-17T22:04:31.886Z</time>
      </trkpt>
      <trkpt lat="50.67332" lon="3.53657">
        <ele>50.445671</ele>
        <time>2021-06-17T22:04:33.180Z</time>
      </trkpt>
      <trkpt lat="50.67325" lon="3.53667">
        <ele>50.148259</ele>
        <time>2021-06-17T22:04:34.169Z</time>
      </trkpt>
      <trkpt lat="50.67313" lon="3.53683">
        <ele>49.681777</ele>
        <time>2021-06-17T22:04:35.794Z</time>
      </trkpt>
      <trkpt lat="50.67306" lon="3.53694">
        <ele>49.383964</ele>
        <time>2021-06-17T22:04:36.858Z</time>
      </trkpt>
      <trkpt lat="50.673" lon="3.53705">
        <ele>49.086567</ele>
        <time>2021-06-17T22:04:37.862Z</time>
      </trkpt>
      <trkpt lat="50.67269" lon="3.53753">
        <ele>47.75835</ele>
        <time>2021-06-17T22:04:42.424Z</time>
      </trkpt>
      <trkpt lat="50.67213" lon="3.53828">
        <ele>45.537812</ele>
        <time>2021-06-17T22:04:49.683Z</time>
      </trkpt>
      <trkpt lat="50.67133" lon="3.53947">
        <ele>41.011154</ele>
        <time>2021-06-17T22:05:00.326Z</time>
      </trkpt>
      <trkpt lat="50.67106" lon="3.53985">
        <ele>39.542261</ele>
        <time>2021-06-17T22:05:03.784Z</time>
      </trkpt>
      <trkpt lat="50.66978" lon="3.54151">
        <ele>33.779078</ele>
        <time>2021-06-17T22:05:20.114Z</time>
      </trkpt>
      <trkpt lat="50.66903" lon="3.54231">
        <ele>31.787749</ele>
        <time>2021-06-17T22:05:29.959Z</time>
      </trkpt>
      <trkpt lat="50.66853" lon="3.54283">
        <ele>31.241074</ele>
        <time>2021-06-17T22:05:37.228Z</time>
      </trkpt>
      <trkpt lat="50.66823" lon="3.54303">
        <ele>30.952573</ele>
        <time>2021-06-17T22:05:41.479Z</time>
      </trkpt>
      <trkpt lat="50.66686" lon="3.54353">
        <ele>31.151859</ele>
        <time>2021-06-17T22:06:04.940Z</time>
      </trkpt>
      <trkpt lat="50.66664" lon="3.54358">
        <ele>31.29836</ele>
        <time>2021-06-17T22:06:09.118Z</time>
      </trkpt>
      <trkpt lat="50.6666" lon="3.54352">
        <ele>31.333754</ele>
        <time>2021-06-17T22:06:10.547Z</time>
      </trkpt>
      <trkpt lat="50.66587" lon="3.54239">
        <ele>32.027479</ele>
        <time>2021-06-17T22:06:35.063Z</time>
      </trkpt>
      <trkpt lat="50.66566" lon="3.54208">
        <ele>32.228841</ele>
        <time>2021-06-17T22:06:41.843Z</time>
      </trkpt>
      <trkpt lat="50.66562" lon="3.54202">
        <ele>32.271063</ele>
        <time>2021-06-17T22:06:43.212Z</time>
      </trkpt>
      <trkpt lat="50.66395" lon="3.53959">
        <ele>33.108771</ele>
        <time>2021-06-17T22:07:33.633Z</time>
      </trkpt>
      <trkpt lat="50.66363" lon="3.53924">
        <ele>33.146923</ele>
        <time>2021-06-17T22:07:40.769Z</time>
      </trkpt>
      <trkpt lat="50.66344" lon="3.53909">
        <ele>33.094197</ele>
        <time>2021-06-17T22:07:44.572Z</time>
      </trkpt>
      <trkpt lat="50.66304" lon="3.53888">
        <ele>32.703867</ele>
        <time>2021-06-17T22:07:52.120Z</time>
      </trkpt>
      <trkpt lat="50.6628" lon="3.5388">
        <ele>32.486808</ele>
        <time>2021-06-17T22:07:56.360Z</time>
      </trkpt>
      <trkpt lat="50.66271" lon="3.53879">
        <ele>32.402427</ele>
        <time>2021-06-17T22:07:57.865Z</time>
      </trkpt>
      <trkpt lat="50.66209" lon="3.53884">
        <ele>31.841496</ele>
        <time>2021-06-17T22:08:08.354Z</time>
      </trkpt>
      <trkpt lat="50.66123" lon="3.53916">
        <ele>31.555889</ele>
        <time>2021-06-17T22:08:24.304Z</time>
      </trkpt>
      <trkpt lat="50.66096" lon="3.53934">
        <ele>31.570146</ele>
        <time>2021-06-17T22:08:30.370Z</time>
      </trkpt>
      <trkpt lat="50.66046" lon="3.53965">
        <ele>31.595802</ele>
        <time>2021-06-17T22:08:42.125Z</time>
      </trkpt>
      <trkpt lat="50.66024" lon="3.53974">
        <ele>31.606933</ele>
        <time>2021-06-17T22:08:47.258Z</time>
      </trkpt>
      <trkpt lat="50.65987" lon="3.53972">
        <ele>31.747786</ele>
        <time>2021-06-17T22:08:55.724Z</time>
      </trkpt>
      <trkpt lat="50.65951" lon="3.53986">
        <ele>32.031602</ele>
        <time>2021-06-17T22:09:04.467Z</time>
      </trkpt>
      <trkpt lat="50.65842" lon="3.54096">
        <ele>33.013921</ele>
        <time>2021-06-17T22:09:34.893Z</time>
      </trkpt>
      <trkpt lat="50.65827" lon="3.54099">
        <ele>33.107774</ele>
        <time>2021-06-17T22:09:38.145Z</time>
      </trkpt>
      <trkpt lat="50.65815" lon="3.54092">
        <ele>33.191258</ele>
        <time>2021-06-17T22:09:41.142Z</time>
      </trkpt>
      <trkpt lat="50.6574" lon="3.54008">
        <ele>33.781596</ele>
        <time>2021-06-17T22:10:01.975Z</time>
      </trkpt>
      <trkpt lat="50.65695" lon="3.53981">
        <ele>34.085711</ele>
        <time>2021-06-17T22:10:12.832Z</time>
      </trkpt>
      <trkpt lat="50.65645" lon="3.53972">
        <ele>34.402246</ele>
        <time>2021-06-17T22:10:24.409Z</time>
      </trkpt>
      <trkpt lat="50.65607" lon="3.5397">
        <ele>34.634655</ele>
        <time>2021-06-17T22:10:32.917Z</time>
      </trkpt>
      <trkpt lat="50.65584" lon="3.53976">
        <ele>34.780012</ele>
        <time>2021-06-17T22:10:38.227Z</time>
      </trkpt>
      <trkpt lat="50.65541" lon="3.54007">
        <ele>35.073285</ele>
        <time>2021-06-17T22:10:48.888Z</time>
      </trkpt>
      <trkpt lat="50.65199" lon="3.54312">
        <ele>37.391177</ele>
        <time>2021-06-17T22:12:17.210Z</time>
      </trkpt>
      <trkpt lat="50.65195" lon="3.54316">
        <ele>37.431336</ele>
        <time>2021-06-17T22:12:18.391Z</time>
      </trkpt>
      <trkpt lat="50.65181" lon="3.54312">
        <ele>37.546373</ele>
        <time>2021-06-17T22:12:21.847Z</time>
      </trkpt>
      <trkpt lat="50.65045" lon="3.54245">
        <ele>38.716883</ele>
        <time>2021-06-17T22:12:55.998Z</time>
      </trkpt>
      <trkpt lat="50.64981" lon="3.54267">
        <ele>39.095742</ele>
        <time>2021-06-17T22:13:10.928Z</time>
      </trkpt>
      <trkpt lat="50.64392" lon="3.54723">
        <ele>42.766767</ele>
        <time>2021-06-17T22:15:36.365Z</time>
      </trkpt>
      <trkpt lat="50.64371" lon="3.54739">
        <ele>43.039105</ele>
        <time>2021-06-17T22:15:42.684Z</time>
      </trkpt>
      <trkpt lat="50.64165" lon="3.5442">
        <ele>47.549496</ele>
        <time>2021-06-17T22:17:03.176Z</time>
      </trkpt>
      <trkpt lat="50.64154" lon="3.54409">
        <ele>47.714432</ele>
        <time>2021-06-17T22:17:06.549Z</time>
      </trkpt>
      <trkpt lat="50.64133" lon="3.54416">
        <ele>47.991699</ele>
        <time>2021-06-17T22:17:11.201Z</time>
      </trkpt>
      <trkpt lat="50.63995" lon="3.54517">
        <ele>47.877588</ele>
        <time>2021-06-17T22:17:40.670Z</time>
      </trkpt>
      <trkpt lat="50.63967" lon="3.54545">
        <ele>47.762953</ele>
        <time>2021-06-17T22:17:46.387Z</time>
      </trkpt>
      <trkpt lat="50.63835" lon="3.54698">
        <ele>47.207801</ele>
        <time>2021-06-17T22:18:16.269Z</time>
      </trkpt>
      <trkpt lat="50.63759" lon="3.548">
        <ele>47.763477</ele>
        <time>2021-06-17T22:18:38.490Z</time>
      </trkpt>
      <trkpt lat="50.63688" lon="3.54754">
        <ele>48.581004</ele>
        <time>2021-06-17T22:18:58.041Z</time>
      </trkpt>
      <trkpt lat="50.63651" lon="3.54731">
        <ele>49.003226</ele>
        <time>2021-06-17T22:19:08.570Z</time>
      </trkpt>
      <trkpt lat="50.63588" lon="3.5469">
        <ele>50.3846</ele>
        <time>2021-06-17T22:19:27.473Z</time>
      </trkpt>
      <trkpt lat="50.63547" lon="3.54632">
        <ele>51.48791</ele>
        <time>2021-06-17T22:19:43.166Z</time>
      </trkpt>
      <trkpt lat="50.6347" lon="3.5436">
        <ele>55.553794</ele>
        <time>2021-06-17T22:20:38.960Z</time>
      </trkpt>
      <trkpt lat="50.63455" lon="3.54306">
        <ele>56.381192</ele>
        <time>2021-06-17T22:20:49.616Z</time>
      </trkpt>
      <trkpt lat="50.63432" lon="3.54337">
        <ele>56.934694</ele>
        <time>2021-06-17T22:20:58.110Z</time>
      </trkpt>
      <trkpt lat="50.63363" lon="3.5444">
        <ele>58.449531</ele>
        <time>2021-06-17T22:21:23.237Z</time>
      </trkpt>
      <trkpt lat="50.63253" lon="3.5456">
        <ele>61.353718</ele>
        <time>2021-06-17T22:21:57.915Z</time>
      </trkpt>
      <trkpt lat="50.63196" lon="3.5461">
        <ele>63.117471</ele>
        <time>2021-06-17T22:22:18.730Z</time>
      </trkpt>
      <trkpt lat="50.6313" lon="3.54655">
        <ele>65.65606</ele>
        <time>2021-06-17T22:22:44.812Z</time>
      </trkpt>
      <trkpt lat="50.63011" lon="3.54705">
        <ele>71.69569</ele>
        <time>2021-06-17T22:23:36.499Z</time>
      </trkpt>
      <trkpt lat="50.62952" lon="3.54767">
        <ele>74.428954</ele>
        <time>2021-06-17T22:24:04.017Z</time>
      </trkpt>
      <trkpt lat="50.62929" lon="3.54796">
        <ele>75.35102</ele>
        <time>2021-06-17T22:24:14.744Z</time>
      </trkpt>
      <trkpt lat="50.62925" lon="3.54801">
        <ele>75.492962</ele>
        <time>2021-06-17T22:24:16.185Z</time>
      </trkpt>
      <trkpt lat="50.62857" lon="3.54899">
        <ele>78.363839</ele>
        <time>2021-06-17T22:24:45.040Z</time>
      </trkpt>
      <trkpt lat="50.62807" lon="3.55009">
        <ele>78.356418</ele>
        <time>2021-06-17T22:25:04.372Z</time>
      </trkpt>
      <trkpt lat="50.62784" lon="3.55049">
        <ele>78.166922</ele>
        <time>2021-06-17T22:25:10.357Z</time>
      </trkpt>
      <trkpt lat="50.62754" lon="3.55076">
        <ele>77.975556</ele>
        <time>2021-06-17T22:25:16.111Z</time>
      </trkpt>
      <trkpt lat="50.6273" lon="3.55099">
        <ele>77.820165</ele>
        <time>2021-06-17T22:25:20.642Z</time>
      </trkpt>
      <trkpt lat="50.62709" lon="3.55087">
        <ele>77.368945</ele>
        <time>2021-06-17T22:25:24.032Z</time>
      </trkpt>
      <trkpt lat="50.62675" lon="3.55074">
        <ele>76.275691</ele>
        <time>2021-06-17T22:25:29.326Z</time>
      </trkpt>
      <trkpt lat="50.62558" lon="3.55132">
        <ele>72.434025</ele>
        <time>2021-06-17T22:25:46.941Z</time>
      </trkpt>
      <trkpt lat="50.62437" lon="3.55142">
        <ele>68.288291</ele>
        <time>2021-06-17T22:26:04.310Z</time>
      </trkpt>
      <trkpt lat="50.62156" lon="3.55068">
        <ele>59.914157</ele>
        <time>2021-06-17T22:26:45.821Z</time>
      </trkpt>
      <trkpt lat="50.62147" lon="3.55063">
        <ele>59.785408</ele>
        <time>2021-06-17T22:26:47.337Z</time>
      </trkpt>
      <trkpt lat="50.62132" lon="3.5505">
        <ele>59.569141</ele>
        <time>2021-06-17T22:26:50.198Z</time>
      </trkpt>
      <trkpt lat="50.61988" lon="3.54886">
        <ele>58.218982</ele>
        <time>2021-06-17T22:27:23.389Z</time>
      </trkpt>
      <trkpt lat="50.61971" lon="3.54877">
        <ele>58.254002</ele>
        <time>2021-06-17T22:27:27.388Z</time>
      </trkpt>
      <trkpt lat="50.6196" lon="3.54878">
        <ele>58.275649</ele>
        <time>2021-06-17T22:27:29.849Z</time>
      </trkpt>
      <trkpt lat="50.61869" lon="3.54967">
        <ele>58.659283</ele>
        <time>2021-06-17T22:27:53.892Z</time>
      </trkpt>
      <trkpt lat="50.61749" lon="3.55046">
        <ele>60.142998</ele>
        <time>2021-06-17T22:28:25.048Z</time>
      </trkpt>
      <trkpt lat="50.61737" lon="3.55051">
        <ele>60.291074</ele>
        <time>2021-06-17T22:28:28.076Z</time>
      </trkpt>
      <trkpt lat="50.61732" lon="3.55049">
        <ele>60.348012</ele>
        <time>2021-06-17T22:28:29.663Z</time>
      </trkpt>
      <trkpt lat="50.61659" lon="3.54822">
        <ele>63.960864</ele>
        <time>2021-06-17T22:29:17.447Z</time>
      </trkpt>
      <trkpt lat="50.61654" lon="3.54815">
        <ele>64.107929</ele>
        <time>2021-06-17T22:29:19.912Z</time>
      </trkpt>
      <trkpt lat="50.6165" lon="3.54809">
        <ele>64.243671</ele>
        <time>2021-06-17T22:29:21.957Z</time>
      </trkpt>
      <trkpt lat="50.61635" lon="3.54797">
        <ele>64.650703</ele>
        <time>2021-06-17T22:29:26.846Z</time>
      </trkpt>
      <trkpt lat="50.61619" lon="3.54796">
        <ele>64.979251</ele>
        <time>2021-06-17T22:29:31.806Z</time>
      </trkpt>
      <trkpt lat="50.61615" lon="3.54793">
        <ele>65.069599</ele>
        <time>2021-06-17T22:29:33.422Z</time>
      </trkpt>
      <trkpt lat="50.61606" lon="3.54799">
        <ele>65.267559</ele>
        <time>2021-06-17T22:29:36.196Z</time>
      </trkpt>
      <trkpt lat="50.61558" lon="3.54784">
        <ele>66.28246</ele>
        <time>2021-06-17T22:29:50.724Z</time>
      </trkpt>
      <trkpt lat="50.61434" lon="3.54691">
        <ele>68.655128</ele>
        <time>2021-06-17T22:30:28.889Z</time>
      </trkpt>
      <trkpt lat="50.61434" lon="3.54678">
        <ele>68.705293</ele>
        <time>2021-06-17T22:30:30.456Z</time>
      </trkpt>
      <trkpt lat="50.61446" lon="3.54392">
        <ele>69.336639</ele>
        <time>2021-06-17T22:30:59.072Z</time>
      </trkpt>
      <trkpt lat="50.61447" lon="3.54377">
        <ele>69.29204</ele>
        <time>2021-06-17T22:31:00.337Z</time>
      </trkpt>
      <trkpt lat="50.61338" lon="3.54284">
        <ele>68.701157</ele>
        <time>2021-06-17T22:31:16.087Z</time>
      </trkpt>
      <trkpt lat="50.61305" lon="3.54248">
        <ele>68.596016</ele>
        <time>2021-06-17T22:31:21.113Z</time>
      </trkpt>
      <trkpt lat="50.61102" lon="3.53912">
        <ele>68.475141</ele>
        <time>2021-06-17T22:32:04.248Z</time>
      </trkpt>
      <trkpt lat="50.61094" lon="3.53899">
        <ele>68.492203</ele>
        <time>2021-06-17T22:32:06.401Z</time>
      </trkpt>
      <trkpt lat="50.61064" lon="3.53851">
        <ele>68.830995</ele>
        <time>2021-06-17T22:32:13.917Z</time>
      </trkpt>
      <trkpt lat="50.61046" lon="3.5384">
        <ele>69.060515</ele>
        <time>2021-06-17T22:32:17.229Z</time>
      </trkpt>
      <trkpt lat="50.61039" lon="3.53841">
        <ele>69.152224</ele>
        <time>2021-06-17T22:32:18.846Z</time>
      </trkpt>
      <trkpt lat="50.61025" lon="3.53846">
        <ele>69.322542</ele>
        <time>2021-06-17T22:32:21.436Z</time>
      </trkpt>
      <trkpt lat="50.60945" lon="3.53893">
        <ele>70.361786</ele>
        <time>2021-06-17T22:32:38.710Z</time>
      </trkpt>
      <trkpt lat="50.60797" lon="3.54048">
        <ele>73.458132</ele>
        <time>2021-06-17T22:33:18.835Z</time>
      </trkpt>
      <trkpt lat="50.60725" lon="3.54089">
        <ele>74.67501</ele>
        <time>2021-06-17T22:33:35.358Z</time>
      </trkpt>
      <trkpt lat="50.60666" lon="3.5411">
        <ele>75.565194</ele>
        <time>2021-06-17T22:33:47.612Z</time>
      </trkpt>
      <trkpt lat="50.60654" lon="3.54108">
        <ele>75.73716</ele>
        <time>2021-06-17T22:33:50.406Z</time>
      </trkpt>
      <trkpt lat="50.60637" lon="3.54106">
        <ele>75.987759</ele>
        <time>2021-06-17T22:33:53.475Z</time>
      </trkpt>
      <trkpt lat="50.60585" lon="3.54096">
        <ele>76.724737</ele>
        <time>2021-06-17T22:34:04.072Z</time>
      </trkpt>
      <trkpt lat="50.60554" lon="3.54114">
        <ele>77.168841</ele>
        <time>2021-06-17T22:34:10.570Z</time>
      </trkpt>
      <trkpt lat="50.60536" lon="3.54139">
        <ele>77.482881</ele>
        <time>2021-06-17T22:34:15.013Z</time>
      </trkpt>
      <trkpt lat="50.60453" lon="3.54299">
        <ele>79.042066</ele>
        <time>2021-06-17T22:34:42.279Z</time>
      </trkpt>
      <trkpt lat="50.60435" lon="3.54302">
        <ele>79.083883</ele>
        <time>2021-06-17T22:34:46.226Z</time>
      </trkpt>
      <trkpt lat="50.60411" lon="3.54293">
        <ele>79.140454</ele>
        <time>2021-06-17T22:34:50.267Z</time>
      </trkpt>
      <trkpt lat="50.60399" lon="3.54294">
        <ele>79.166703</ele>
        <time>2021-06-17T22:34:52.560Z</time>
      </trkpt>
      <trkpt lat="50.60391" lon="3.54297">
        <ele>79.187362</ele>
        <time>2021-06-17T22:34:53.980Z</time>
      </trkpt>
      <trkpt lat="50.60358" lon="3.54328">
        <ele>79.275337</ele>
        <time>2021-06-17T22:34:59.932Z</time>
      </trkpt>
      <trkpt lat="50.60349" lon="3.54347">
        <ele>79.309744</ele>
        <time>2021-06-17T22:35:01.906Z</time>
      </trkpt>
      <trkpt lat="50.60345" lon="3.54362">
        <ele>79.333512</ele>
        <time>2021-06-17T22:35:03.659Z</time>
      </trkpt>
      <trkpt lat="50.60336" lon="3.54429">
        <ele>79.285192</ele>
        <time>2021-06-17T22:35:09.290Z</time>
      </trkpt>
      <trkpt lat="50.60331" lon="3.54448">
        <ele>79.047357</ele>
        <time>2021-06-17T22:35:10.782Z</time>
      </trkpt>
      <trkpt lat="50.60325" lon="3.54456">
        <ele>78.893128</ele>
        <time>2021-06-17T22:35:11.704Z</time>
      </trkpt>
      <trkpt lat="50.60249" lon="3.54486">
        <ele>77.407734</ele>
        <time>2021-06-17T22:35:20.334Z</time>
      </trkpt>
      <trkpt lat="50.6023" lon="3.54482">
        <ele>77.049814</ele>
        <time>2021-06-17T22:35:22.404Z</time>
      </trkpt>
      <trkpt lat="50.60058" lon="3.54363">
        <ele>72.898729</ele>
        <time>2021-06-17T22:35:42.274Z</time>
      </trkpt>
      <trkpt lat="50.60041" lon="3.54359">
        <ele>72.494389</ele>
        <time>2021-06-17T22:35:44.143Z</time>
      </trkpt>
      <trkpt lat="50.5996" lon="3.54388">
        <ele>70.901639</ele>
        <time>2021-06-17T22:35:53.364Z</time>
      </trkpt>
      <trkpt lat="50.599" lon="3.5444">
        <ele>69.770254</ele>
        <time>2021-06-17T22:36:01.252Z</time>
      </trkpt>
      <trkpt lat="50.59873" lon="3.5446">
        <ele>69.26653</ele>
        <time>2021-06-17T22:36:04.820Z</time>
      </trkpt>
      <trkpt lat="50.59746" lon="3.54399">
        <ele>66.696248</ele>
        <time>2021-06-17T22:36:19.750Z</time>
      </trkpt>
      <trkpt lat="50.59661" lon="3.54355">
        <ele>64.782944</ele>
        <time>2021-06-17T22:36:29.302Z</time>
      </trkpt>
      <trkpt lat="50.59482" lon="3.5426">
        <ele>59.848918</ele>
        <time>2021-06-17T22:36:48.876Z</time>
      </trkpt>
      <trkpt lat="50.59369" lon="3.54211">
        <ele>57.931665</ele>
        <time>2021-06-17T22:37:01.974Z</time>
      </trkpt>
      <trkpt lat="50.59332" lon="3.54209">
        <ele>57.331205</ele>
        <time>2021-06-17T22:37:06.606Z</time>
      </trkpt>
      <trkpt lat="50.59303" lon="3.54211">
        <ele>57.272979</ele>
        <time>2021-06-17T22:37:10.566Z</time>
      </trkpt>
      <trkpt lat="50.59301" lon="3.54211">
        <ele>57.270598</ele>
        <time>2021-06-17T22:37:10.896Z</time>
      </trkpt>
      <trkpt lat="50.59298" lon="3.54211">
        <ele>57.268218</ele>
        <time>2021-06-17T22:37:11.235Z</time>
      </trkpt>
      <trkpt lat="50.59273" lon="3.54214">
        <ele>57.244493</ele>
        <time>2021-06-17T22:37:16.251Z</time>
      </trkpt>
      <trkpt lat="50.59246" lon="3.5422">
        <ele>57.217899</ele>
        <time>2021-06-17T22:37:21.946Z</time>
      </trkpt>
      <trkpt lat="50.59142" lon="3.5424">
        <ele>57.075135</ele>
        <time>2021-06-17T22:37:44.516Z</time>
      </trkpt>
      <trkpt lat="50.59007" lon="3.54263">
        <ele>56.287566</ele>
        <time>2021-06-17T22:38:09.574Z</time>
      </trkpt>
      <trkpt lat="50.5899" lon="3.54265">
        <ele>56.185013</ele>
        <time>2021-06-17T22:38:12.611Z</time>
      </trkpt>
      <trkpt lat="50.58922" lon="3.54275">
        <ele>55.559218</ele>
        <time>2021-06-17T22:38:24.045Z</time>
      </trkpt>
      <trkpt lat="50.58896" lon="3.54278">
        <ele>55.292337</ele>
        <time>2021-06-17T22:38:28.308Z</time>
      </trkpt>
      <trkpt lat="50.58821" lon="3.54285">
        <ele>54.52341</ele>
        <time>2021-06-17T22:38:40.986Z</time>
      </trkpt>
      <trkpt lat="50.58778" lon="3.54301">
        <ele>54.269554</ele>
        <time>2021-06-17T22:38:49.257Z</time>
      </trkpt>
      <trkpt lat="50.58736" lon="3.54294">
        <ele>54.373373</ele>
        <time>2021-06-17T22:38:57.815Z</time>
      </trkpt>
      <trkpt lat="50.58711" lon="3.54278">
        <ele>54.438971</ele>
        <time>2021-06-17T22:39:02.185Z</time>
      </trkpt>
      <trkpt lat="50.58675" lon="3.54263">
        <ele>54.53017</ele>
        <time>2021-06-17T22:39:08.283Z</time>
      </trkpt>
      <trkpt lat="50.58639" lon="3.54248">
        <ele>54.621206</ele>
        <time>2021-06-17T22:39:14.752Z</time>
      </trkpt>
      <trkpt lat="50.58625" lon="3.54242">
        <ele>54.65778</ele>
        <time>2021-06-17T22:39:17.454Z</time>
      </trkpt>
      <trkpt lat="50.58598" lon="3.54226">
        <ele>54.74625</ele>
        <time>2021-06-17T22:39:22.586Z</time>
      </trkpt>
      <trkpt lat="50.58553" lon="3.54197">
        <ele>54.900308</ele>
        <time>2021-06-17T22:39:31.172Z</time>
      </trkpt>
      <trkpt lat="50.58522" lon="3.54175">
        <ele>55.008701</ele>
        <time>2021-06-17T22:39:36.777Z</time>
      </trkpt>
      <trkpt lat="50.58501" lon="3.54162">
        <ele>55.081011</ele>
        <time>2021-06-17T22:39:40.245Z</time>
      </trkpt>
      <trkpt lat="50.58483" lon="3.54153">
        <ele>55.139763</ele>
        <time>2021-06-17T22:39:42.998Z</time>
      </trkpt>
      <trkpt lat="50.5847" lon="3.5415">
        <ele>55.183334</ele>
        <time>2021-06-17T22:39:44.815Z</time>
      </trkpt>
      <trkpt lat="50.58442" lon="3.54149">
        <ele>55.2579</ele>
        <time>2021-06-17T22:39:48.795Z</time>
      </trkpt>
      <trkpt lat="50.58379" lon="3.5417">
        <ele>55.356848</ele>
        <time>2021-06-17T22:39:58.272Z</time>
      </trkpt>
      <trkpt lat="50.58328" lon="3.54173">
        <ele>55.434384</ele>
        <time>2021-06-17T22:40:05.853Z</time>
      </trkpt>
      <trkpt lat="50.58271" lon="3.54171">
        <ele>55.531982</ele>
        <time>2021-06-17T22:40:15.031Z</time>
      </trkpt>
      <trkpt lat="50.58133" lon="3.54166">
        <ele>56.729609</ele>
        <time>2021-06-17T22:40:40.208Z</time>
      </trkpt>
      <trkpt lat="50.58086" lon="3.54163">
        <ele>57.133726</ele>
        <time>2021-06-17T22:40:49.447Z</time>
      </trkpt>
      <trkpt lat="50.58073" lon="3.54162">
        <ele>57.242113</ele>
        <time>2021-06-17T22:40:52.082Z</time>
      </trkpt>
      <trkpt lat="50.58049" lon="3.54169">
        <ele>57.443088</ele>
        <time>2021-06-17T22:40:56.682Z</time>
      </trkpt>
      <trkpt lat="50.58035" lon="3.5418">
        <ele>57.577587</ele>
        <time>2021-06-17T22:40:59.855Z</time>
      </trkpt>
      <trkpt lat="50.57878" lon="3.5433">
        <ele>58.827735</ele>
        <time>2021-06-17T22:41:32.090Z</time>
      </trkpt>
      <trkpt lat="50.57702" lon="3.54488">
        <ele>59.801993</ele>
        <time>2021-06-17T22:42:04.038Z</time>
      </trkpt>
      <trkpt lat="50.57516" lon="3.54664">
        <ele>61.786002</ele>
        <time>2021-06-17T22:42:44.364Z</time>
      </trkpt>
      <trkpt lat="50.57498" lon="3.54675">
        <ele>62.00457</ele>
        <time>2021-06-17T22:42:48.049Z</time>
      </trkpt>
      <trkpt lat="50.57486" lon="3.54682">
        <ele>62.156442</ele>
        <time>2021-06-17T22:42:51.135Z</time>
      </trkpt>
      <trkpt lat="50.57386" lon="3.54712">
        <ele>63.526371</ele>
        <time>2021-06-17T22:43:12.728Z</time>
      </trkpt>
      <trkpt lat="50.57377" lon="3.54713">
        <ele>63.651065</ele>
        <time>2021-06-17T22:43:14.901Z</time>
      </trkpt>
      <trkpt lat="50.57294" lon="3.54682">
        <ele>64.863413</ele>
        <time>2021-06-17T22:43:37.059Z</time>
      </trkpt>
      <trkpt lat="50.57164" lon="3.54635">
        <ele>65.262329</ele>
        <time>2021-06-17T22:44:07.045Z</time>
      </trkpt>
      <trkpt lat="50.57072" lon="3.54601">
        <ele>64.885214</ele>
        <time>2021-06-17T22:44:24.233Z</time>
      </trkpt>
      <trkpt lat="50.57059" lon="3.54646">
        <ele>64.485338</ele>
        <time>2021-06-17T22:44:29.690Z</time>
      </trkpt>
      <trkpt lat="50.57053" lon="3.54657">
        <ele>64.366293</ele>
        <time>2021-06-17T22:44:31.247Z</time>
      </trkpt>
      <trkpt lat="50.57046" lon="3.5466">
        <ele>64.273069</ele>
        <time>2021-06-17T22:44:32.495Z</time>
      </trkpt>
      <trkpt lat="50.56527" lon="3.54533">
        <ele>56.952504</ele>
        <time>2021-06-17T22:45:59.543Z</time>
      </trkpt>
      <trkpt lat="50.5641" lon="3.54559">
        <ele>54.821974</ele>
        <time>2021-06-17T22:46:18.234Z</time>
      </trkpt>
      <trkpt lat="50.563" lon="3.54585">
        <ele>52.402945</ele>
        <time>2021-06-17T22:46:35.368Z</time>
      </trkpt>
      <trkpt lat="50.56289" lon="3.54586">
        <ele>52.153987</ele>
        <time>2021-06-17T22:46:37.056Z</time>
      </trkpt>
      <trkpt lat="50.56257" lon="3.5459">
        <ele>51.44454</ele>
        <time>2021-06-17T22:46:42.154Z</time>
      </trkpt>
      <trkpt lat="50.56186" lon="3.54615">
        <ele>50.144041</ele>
        <time>2021-06-17T22:46:53.516Z</time>
      </trkpt>
      <trkpt lat="50.55942" lon="3.54781">
        <ele>45.943989</ele>
        <time>2021-06-17T22:47:37.333Z</time>
      </trkpt>
      <trkpt lat="50.5592" lon="3.54781">
        <ele>45.616663</ele>
        <time>2021-06-17T22:47:41.021Z</time>
      </trkpt>
      <trkpt lat="50.55898" lon="3.54766">
        <ele>45.302618</ele>
        <time>2021-06-17T22:47:44.948Z</time>
      </trkpt>
      <trkpt lat="50.55854" lon="3.54922">
        <ele>44.104448</ele>
        <time>2021-06-17T22:47:57.779Z</time>
      </trkpt>
      <trkpt lat="50.55828" lon="3.54903">
        <ele>43.789821</ele>
        <time>2021-06-17T22:48:02.694Z</time>
      </trkpt>
      <trkpt lat="50.55713" lon="3.54836">
        <ele>42.907615</ele>
        <time>2021-06-17T22:48:25.156Z</time>
      </trkpt>
      <trkpt lat="50.55629" lon="3.54826">
        <ele>42.423588</ele>
        <time>2021-06-17T22:48:40.977Z</time>
      </trkpt>
      <trkpt lat="50.55581" lon="3.54823">
        <ele>42.250264</ele>
        <time>2021-06-17T22:48:49.857Z</time>
      </trkpt>
      <trkpt lat="50.554" lon="3.54809">
        <ele>41.883604</ele>
        <time>2021-06-17T22:49:24.475Z</time>
      </trkpt>
      <trkpt lat="50.55364" lon="3.54813">
        <ele>41.96504</ele>
        <time>2021-06-17T22:49:32.104Z</time>
      </trkpt>
      <trkpt lat="50.55207" lon="3.54961">
        <ele>42.674555</ele>
        <time>2021-06-17T22:50:12.864Z</time>
      </trkpt>
      <trkpt lat="50.55191" lon="3.55031">
        <ele>42.949337</ele>
        <time>2021-06-17T22:50:21.310Z</time>
      </trkpt>
      <trkpt lat="50.55157" lon="3.55116">
        <ele>43.199589</ele>
        <time>2021-06-17T22:50:32.793Z</time>
      </trkpt>
      <trkpt lat="50.55145" lon="3.55144">
        <ele>43.152377</ele>
        <time>2021-06-17T22:50:35.980Z</time>
      </trkpt>
      <trkpt lat="50.55108" lon="3.55228">
        <ele>43.008383</ele>
        <time>2021-06-17T22:50:45.117Z</time>
      </trkpt>
      <trkpt lat="50.55094" lon="3.55255">
        <ele>42.960338</ele>
        <time>2021-06-17T22:50:48.207Z</time>
      </trkpt>
      <trkpt lat="50.55001" lon="3.55282">
        <ele>42.48921</ele>
        <time>2021-06-17T22:51:00.329Z</time>
      </trkpt>
      <trkpt lat="50.54849" lon="3.5518">
        <ele>41.209607</ele>
        <time>2021-06-17T22:51:20.280Z</time>
      </trkpt>
      <trkpt lat="50.54693" lon="3.55074">
        <ele>41.326935</ele>
        <time>2021-06-17T22:51:46.532Z</time>
      </trkpt>
      <trkpt lat="50.54689" lon="3.55072">
        <ele>41.368813</ele>
        <time>2021-06-17T22:51:47.255Z</time>
      </trkpt>
      <trkpt lat="50.54665" lon="3.55052">
        <ele>41.658011</ele>
        <time>2021-06-17T22:51:52.407Z</time>
      </trkpt>
      <trkpt lat="50.54639" lon="3.55029">
        <ele>41.965699</ele>
        <time>2021-06-17T22:51:58.055Z</time>
      </trkpt>
      <trkpt lat="50.54611" lon="3.54994">
        <ele>42.338439</ele>
        <time>2021-06-17T22:52:05.217Z</time>
      </trkpt>
      <trkpt lat="50.54548" lon="3.54956">
        <ele>43.037258</ele>
        <time>2021-06-17T22:52:19.202Z</time>
      </trkpt>
      <trkpt lat="50.54492" lon="3.54932">
        <ele>43.579381</ele>
        <time>2021-06-17T22:52:30.587Z</time>
      </trkpt>
      <trkpt lat="50.54428" lon="3.54902">
        <ele>44.21024</ele>
        <time>2021-06-17T22:52:42.826Z</time>
      </trkpt>
      <trkpt lat="50.54348" lon="3.54866">
        <ele>44.904532</ele>
        <time>2021-06-17T22:52:57.265Z</time>
      </trkpt>
      <trkpt lat="50.54316" lon="3.54851">
        <ele>45.120643</ele>
        <time>2021-06-17T22:53:02.936Z</time>
      </trkpt>
      <trkpt lat="50.54293" lon="3.54836">
        <ele>45.28626</ele>
        <time>2021-06-17T22:53:07.515Z</time>
      </trkpt>
      <trkpt lat="50.5425" lon="3.54789">
        <ele>45.624626</ele>
        <time>2021-06-17T22:53:16.201Z</time>
      </trkpt>
      <trkpt lat="50.54189" lon="3.54724">
        <ele>46.146609</ele>
        <time>2021-06-17T22:53:29.239Z</time>
      </trkpt>
      <trkpt lat="50.54183" lon="3.54702">
        <ele>46.270895</ele>
        <time>2021-06-17T22:53:33.105Z</time>
      </trkpt>
      <trkpt lat="50.54148" lon="3.54582">
        <ele>46.94969</ele>
        <time>2021-06-17T22:53:52.975Z</time>
      </trkpt>
      <trkpt lat="50.54141" lon="3.5453">
        <ele>47.224207</ele>
        <time>2021-06-17T22:54:01.004Z</time>
      </trkpt>
      <trkpt lat="50.54138" lon="3.54508">
        <ele>47.34364</ele>
        <time>2021-06-17T22:54:04.548Z</time>
      </trkpt>
      <trkpt lat="50.54133" lon="3.54488">
        <ele>47.356242</ele>
        <time>2021-06-17T22:54:07.750Z</time>
      </trkpt>
      <trkpt lat="50.54113" lon="3.54448">
        <ele>47.355252</ele>
        <time>2021-06-17T22:54:14.986Z</time>
      </trkpt>
      <trkpt lat="50.54093" lon="3.54426">
        <ele>47.354495</ele>
        <time>2021-06-17T22:54:20.386Z</time>
      </trkpt>
      <trkpt lat="50.54011" lon="3.54358">
        <ele>47.351668</ele>
        <time>2021-06-17T22:54:38.650Z</time>
      </trkpt>
      <trkpt lat="50.53985" lon="3.54339">
        <ele>47.20257</ele>
        <time>2021-06-17T22:54:43.707Z</time>
      </trkpt>
      <trkpt lat="50.53958" lon="3.54335">
        <ele>46.803077</ele>
        <time>2021-06-17T22:54:48.402Z</time>
      </trkpt>
      <trkpt lat="50.53932" lon="3.54346">
        <ele>46.413173</ele>
        <time>2021-06-17T22:54:52.938Z</time>
      </trkpt>
      <trkpt lat="50.53806" lon="3.54383">
        <ele>44.515154</ele>
        <time>2021-06-17T22:55:13.587Z</time>
      </trkpt>
      <trkpt lat="50.53702" lon="3.54414">
        <ele>42.767545</ele>
        <time>2021-06-17T22:55:30.374Z</time>
      </trkpt>
      <trkpt lat="50.53683" lon="3.5442">
        <ele>42.446937</ele>
        <time>2021-06-17T22:55:33.540Z</time>
      </trkpt>
      <trkpt lat="50.53569" lon="3.54336">
        <ele>40.75565</ele>
        <time>2021-06-17T22:55:54.598Z</time>
      </trkpt>
      <trkpt lat="50.53466" lon="3.54251">
        <ele>39.473013</ele>
        <time>2021-06-17T22:56:14.639Z</time>
      </trkpt>
      <trkpt lat="50.53452" lon="3.54235">
        <ele>39.354771</ele>
        <time>2021-06-17T22:56:17.646Z</time>
      </trkpt>
      <trkpt lat="50.53424" lon="3.54177">
        <ele>39.033513</ele>
        <time>2021-06-17T22:56:25.896Z</time>
      </trkpt>
      <trkpt lat="50.5338" lon="3.53948">
        <ele>38.167612</ele>
        <time>2021-06-17T22:56:54.342Z</time>
      </trkpt>
      <trkpt lat="50.53363" lon="3.53717">
        <ele>37.595416</ele>
        <time>2021-06-17T22:57:22.685Z</time>
      </trkpt>
      <trkpt lat="50.53338" lon="3.536">
        <ele>37.133244</ele>
        <time>2021-06-17T22:57:37.332Z</time>
      </trkpt>
      <trkpt lat="50.53181" lon="3.53222">
        <ele>35.033507</ele>
        <time>2021-06-17T22:58:28.444Z</time>
      </trkpt>
      <trkpt lat="50.53094" lon="3.52967">
        <ele>33.806967</ele>
        <time>2021-06-17T22:59:01.570Z</time>
      </trkpt>
      <trkpt lat="50.53077" lon="3.52917">
        <ele>33.650955</ele>
        <time>2021-06-17T22:59:08.366Z</time>
      </trkpt>
      <trkpt lat="50.53069" lon="3.52893">
        <ele>33.579436</ele>
        <time>2021-06-17T22:59:11.475Z</time>
      </trkpt>
      <trkpt lat="50.53059" lon="3.5286">
        <ele>33.478952</ele>
        <time>2021-06-17T22:59:15.965Z</time>
      </trkpt>
      <trkpt lat="50.53055" lon="3.5285">
        <ele>33.446311</ele>
        <time>2021-06-17T22:59:17.376Z</time>
      </trkpt>
      <trkpt lat="50.53039" lon="3.52801">
        <ele>33.296842</ele>
        <time>2021-06-17T22:59:24.126Z</time>
      </trkpt>
      <trkpt lat="50.5297" lon="3.52582">
        <ele>33.070167</ele>
        <time>2021-06-17T22:59:55.086Z</time>
      </trkpt>
      <trkpt lat="50.52931" lon="3.5261">
        <ele>33.032919</ele>
        <time>2021-06-17T23:00:04.022Z</time>
      </trkpt>
      <trkpt lat="50.52909" lon="3.52621">
        <ele>32.986749</ele>
        <time>2021-06-17T23:00:08.534Z</time>
      </trkpt>
      <trkpt lat="50.52873" lon="3.52627">
        <ele>32.886592</ele>
        <time>2021-06-17T23:00:15.643Z</time>
      </trkpt>
      <trkpt lat="50.52846" lon="3.5263">
        <ele>32.810236</ele>
        <time>2021-06-17T23:00:21.003Z</time>
      </trkpt>
      <trkpt lat="50.52827" lon="3.52632">
        <ele>32.759369</ele>
        <time>2021-06-17T23:00:24.580Z</time>
      </trkpt>
      <trkpt lat="50.52796" lon="3.52637">
        <ele>32.673732</ele>
        <time>2021-06-17T23:00:30.451Z</time>
      </trkpt>
      <trkpt lat="50.52783" lon="3.52639">
        <ele>32.637077</ele>
        <time>2021-06-17T23:00:32.827Z</time>
      </trkpt>
      <trkpt lat="50.52741" lon="3.52643">
        <ele>32.516799</ele>
        <time>2021-06-17T23:00:40.661Z</time>
      </trkpt>
      <trkpt lat="50.52742" lon="3.52633">
        <ele>32.491146</ele>
        <time>2021-06-17T23:00:41.514Z</time>
      </trkpt>
      <trkpt lat="50.52749" lon="3.52608">
        <ele>32.415397</ele>
        <time>2021-06-17T23:00:43.965Z</time>
      </trkpt>
      <trkpt lat="50.52746" lon="3.52606">
        <ele>32.402738</ele>
        <time>2021-06-17T23:00:44.316Z</time>
      </trkpt>
      <trkpt lat="50.52739" lon="3.52632">
        <ele>32.324769</ele>
        <time>2021-06-17T23:00:46.799Z</time>
      </trkpt>
      <trkpt lat="50.52727" lon="3.52624">
        <ele>32.270993</ele>
        <time>2021-06-17T23:00:48.609Z</time>
      </trkpt>
      <trkpt lat="50.52718" lon="3.52627">
        <ele>32.232063</ele>
        <time>2021-06-17T23:00:49.693Z</time>
      </trkpt>
      <trkpt lat="50.52691" lon="3.52636">
        <ele>32.109426</ele>
        <time>2021-06-17T23:00:53.550Z</time>
      </trkpt>
      <trkpt lat="50.52687" lon="3.52641">
        <ele>32.087031</ele>
        <time>2021-06-17T23:00:54.147Z</time>
      </trkpt>
      <trkpt lat="50.52667" lon="3.5268">
        <ele>31.951725</ele>
        <time>2021-06-17T23:00:59.957Z</time>
      </trkpt>
      <trkpt lat="50.52662" lon="3.5269">
        <ele>31.917938</ele>
        <time>2021-06-17T23:01:01.300Z</time>
      </trkpt>
      <trkpt lat="50.52649" lon="3.52715">
        <ele>31.8299</ele>
        <time>2021-06-17T23:01:05.296Z</time>
      </trkpt>
      <trkpt lat="50.52634" lon="3.52726">
        <ele>31.754581</ele>
        <time>2021-06-17T23:01:08.562Z</time>
      </trkpt>
      <trkpt lat="50.52619" lon="3.52721">
        <ele>31.743208</ele>
        <time>2021-06-17T23:01:11.544Z</time>
      </trkpt>
      <trkpt lat="50.52611" lon="3.52716">
        <ele>31.737368</ele>
        <time>2021-06-17T23:01:13.334Z</time>
      </trkpt>
      <trkpt lat="50.5259" lon="3.52691">
        <ele>31.720009</ele>
        <time>2021-06-17T23:01:18.371Z</time>
      </trkpt>
      <trkpt lat="50.5258" lon="3.52681">
        <ele>31.711789</ele>
        <time>2021-06-17T23:01:20.961Z</time>
      </trkpt>
      <trkpt lat="50.52574" lon="3.52675">
        <ele>31.706939</ele>
        <time>2021-06-17T23:01:22.328Z</time>
      </trkpt>
      <trkpt lat="50.52569" lon="3.52669">
        <ele>31.70305</ele>
        <time>2021-06-17T23:01:23.534Z</time>
      </trkpt>
      <trkpt lat="50.52563" lon="3.5264">
        <ele>31.690213</ele>
        <time>2021-06-17T23:01:27.605Z</time>
      </trkpt>
      <trkpt lat="50.52544" lon="3.5264">
        <ele>31.677725</ele>
        <time>2021-06-17T23:01:30.449Z</time>
      </trkpt>
      <trkpt lat="50.52508" lon="3.5263">
        <ele>31.653722</ele>
        <time>2021-06-17T23:01:35.968Z</time>
      </trkpt>
      <trkpt lat="50.52426" lon="3.52603">
        <ele>31.347125</ele>
        <time>2021-06-17T23:01:48.011Z</time>
      </trkpt>
      <trkpt lat="50.52355" lon="3.52578">
        <ele>30.956309</ele>
        <time>2021-06-17T23:01:57.823Z</time>
      </trkpt>
      <trkpt lat="50.52343" lon="3.52573">
        <ele>30.889752</ele>
        <time>2021-06-17T23:01:59.219Z</time>
      </trkpt>
      <trkpt lat="50.52285" lon="3.52565">
        <ele>30.432857</ele>
        <time>2021-06-17T23:02:06.576Z</time>
      </trkpt>
      <trkpt lat="50.5224" lon="3.52579">
        <ele>29.786112</ele>
        <time>2021-06-17T23:02:11.979Z</time>
      </trkpt>
      <trkpt lat="50.52239" lon="3.52579">
        <ele>29.76896</ele>
        <time>2021-06-17T23:02:12.084Z</time>
      </trkpt>
      <trkpt lat="50.52115" lon="3.52624">
        <ele>28.050206</ele>
        <time>2021-06-17T23:02:26.670Z</time>
      </trkpt>
      <trkpt lat="50.52109" lon="3.52626">
        <ele>27.99895</ele>
        <time>2021-06-17T23:02:27.385Z</time>
      </trkpt>
      <trkpt lat="50.52079" lon="3.52637">
        <ele>27.720585</ele>
        <time>2021-06-17T23:02:31.018Z</time>
      </trkpt>
      <trkpt lat="50.52054" lon="3.52645">
        <ele>27.497197</ele>
        <time>2021-06-17T23:02:34.075Z</time>
      </trkpt>
      <trkpt lat="50.51976" lon="3.52663">
        <ele>26.793038</ele>
        <time>2021-06-17T23:02:44.194Z</time>
      </trkpt>
      <trkpt lat="50.51922" lon="3.52672">
        <ele>26.482206</ele>
        <time>2021-06-17T23:02:51.494Z</time>
      </trkpt>
      <trkpt lat="50.51909" lon="3.52671">
        <ele>26.44876</ele>
        <time>2021-06-17T23:02:53.269Z</time>
      </trkpt>
      <trkpt lat="50.519" lon="3.52671">
        <ele>26.424064</ele>
        <time>2021-06-17T23:02:54.712Z</time>
      </trkpt>
      <trkpt lat="50.5187" lon="3.52669">
        <ele>26.34808</ele>
        <time>2021-06-17T23:02:58.988Z</time>
      </trkpt>
      <trkpt lat="50.51851" lon="3.52668">
        <ele>26.300231</ele>
        <time>2021-06-17T23:03:01.685Z</time>
      </trkpt>
      <trkpt lat="50.51846" lon="3.52668">
        <ele>26.286852</ele>
        <time>2021-06-17T23:03:02.440Z</time>
      </trkpt>
      <trkpt lat="50.51799" lon="3.52666">
        <ele>26.164136</ele>
        <time>2021-06-17T23:03:09.158Z</time>
      </trkpt>
      <trkpt lat="50.51708" lon="3.52663">
        <ele>25.845608</ele>
        <time>2021-06-17T23:03:21.658Z</time>
      </trkpt>
      <trkpt lat="50.51704" lon="3.52663">
        <ele>25.829997</ele>
        <time>2021-06-17T23:03:22.219Z</time>
      </trkpt>
      <trkpt lat="50.51698" lon="3.52662">
        <ele>25.804372</ele>
        <time>2021-06-17T23:03:23.055Z</time>
      </trkpt>
      <trkpt lat="50.51687" lon="3.52662">
        <ele>25.759929</ele>
        <time>2021-06-17T23:03:24.538Z</time>
      </trkpt>
      <trkpt lat="50.5163" lon="3.52659">
        <ele>25.532909</ele>
        <time>2021-06-17T23:03:32.094Z</time>
      </trkpt>
      <trkpt lat="50.51628" lon="3.52634">
        <ele>25.468629</ele>
        <time>2021-06-17T23:03:35.035Z</time>
      </trkpt>
      <trkpt lat="50.51612" lon="3.5255">
        <ele>25.240948</ele>
        <time>2021-06-17T23:03:45.511Z</time>
      </trkpt>
      <trkpt lat="50.51567" lon="3.52422">
        <ele>24.863497</ele>
        <time>2021-06-17T23:04:02.759Z</time>
      </trkpt>
      <trkpt lat="50.51552" lon="3.52391">
        <ele>24.759772</ele>
        <time>2021-06-17T23:04:07.700Z</time>
      </trkpt>
      <trkpt lat="50.51516" lon="3.52341">
        <ele>24.592063</ele>
        <time>2021-06-17T23:04:17.028Z</time>
      </trkpt>
      <trkpt lat="50.51474" lon="3.52286">
        <ele>24.458462</ele>
        <time>2021-06-17T23:04:27.513Z</time>
      </trkpt>
      <trkpt lat="50.5147" lon="3.52279">
        <ele>24.445253</ele>
        <time>2021-06-17T23:04:28.588Z</time>
      </trkpt>
      <trkpt lat="50.51455" lon="3.52244">
        <ele>24.379</ele>
        <time>2021-06-17T23:04:33.771Z</time>
      </trkpt>
      <trkpt lat="50.51449" lon="3.52228">
        <ele>24.350325</ele>
        <time>2021-06-17T23:04:36.078Z</time>
      </trkpt>
      <trkpt lat="50.51432" lon="3.52181">
        <ele>24.267323</ele>
        <time>2021-06-17T23:04:42.589Z</time>
      </trkpt>
      <trkpt lat="50.51409" lon="3.52114">
        <ele>24.196314</ele>
        <time>2021-06-17T23:04:52.137Z</time>
      </trkpt>
      <trkpt lat="50.51378" lon="3.5203">
        <ele>24.199089</ele>
        <time>2021-06-17T23:05:04.839Z</time>
      </trkpt>
      <trkpt lat="50.51361" lon="3.52002">
        <ele>24.200169</ele>
        <time>2021-06-17T23:05:09.823Z</time>
      </trkpt>
      <trkpt lat="50.51355" lon="3.51998">
        <ele>24.200462</ele>
        <time>2021-06-17T23:05:11.049Z</time>
      </trkpt>
      <trkpt lat="50.51351" lon="3.51997">
        <ele>24.200651</ele>
        <time>2021-06-17T23:05:11.903Z</time>
      </trkpt>
      <trkpt lat="50.51345" lon="3.51994">
        <ele>24.200925</ele>
        <time>2021-06-17T23:05:13.110Z</time>
      </trkpt>
      <trkpt lat="50.51329" lon="3.51987">
        <ele>24.20168</ele>
        <time>2021-06-17T23:05:16.628Z</time>
      </trkpt>
      <trkpt lat="50.51256" lon="3.51954">
        <ele>24.17656</ele>
        <time>2021-06-17T23:05:32.218Z</time>
      </trkpt>
      <trkpt lat="50.51228" lon="3.51935">
        <ele>24.153287</ele>
        <time>2021-06-17T23:05:38.479Z</time>
      </trkpt>
      <trkpt lat="50.51185" lon="3.51902">
        <ele>24.117028</ele>
        <time>2021-06-17T23:05:48.097Z</time>
      </trkpt>
      <trkpt lat="50.51125" lon="3.51846">
        <ele>24.049194</ele>
        <time>2021-06-17T23:06:01.777Z</time>
      </trkpt>
      <trkpt lat="50.51101" lon="3.5182">
        <ele>23.885054</ele>
        <time>2021-06-17T23:06:07.307Z</time>
      </trkpt>
      <trkpt lat="50.51097" lon="3.51815">
        <ele>23.860617</ele>
        <time>2021-06-17T23:06:08.142Z</time>
      </trkpt>
      <trkpt lat="50.51095" lon="3.51812">
        <ele>23.841801</ele>
        <time>2021-06-17T23:06:08.772Z</time>
      </trkpt>
      <trkpt lat="50.5109" lon="3.518">
        <ele>23.78996</ele>
        <time>2021-06-17T23:06:10.490Z</time>
      </trkpt>
      <trkpt lat="50.51092" lon="3.51783">
        <ele>23.73068</ele>
        <time>2021-06-17T23:06:11.847Z</time>
      </trkpt>
      <trkpt lat="50.51093" lon="3.51776">
        <ele>23.705571</ele>
        <time>2021-06-17T23:06:12.430Z</time>
      </trkpt>
      <trkpt lat="50.51094" lon="3.5177">
        <ele>23.681495</ele>
        <time>2021-06-17T23:06:12.981Z</time>
      </trkpt>
      <trkpt lat="50.51104" lon="3.51739">
        <ele>23.562577</ele>
        <time>2021-06-17T23:06:15.790Z</time>
      </trkpt>
      <trkpt lat="50.51114" lon="3.51704">
        <ele>23.426214</ele>
        <time>2021-06-17T23:06:18.929Z</time>
      </trkpt>
      <trkpt lat="50.51124" lon="3.5167">
        <ele>23.290171</ele>
        <time>2021-06-17T23:06:22.063Z</time>
      </trkpt>
      <trkpt lat="50.51135" lon="3.51641">
        <ele>23.173407</ele>
        <time>2021-06-17T23:06:24.750Z</time>
      </trkpt>
      <trkpt lat="50.51197" lon="3.51535">
        <ele>22.890406</ele>
        <time>2021-06-17T23:06:36.888Z</time>
      </trkpt>
      <trkpt lat="50.51201" lon="3.51522">
        <ele>22.867295</ele>
        <time>2021-06-17T23:06:38.095Z</time>
      </trkpt>
      <trkpt lat="50.51205" lon="3.51506">
        <ele>22.840198</ele>
        <time>2021-06-17T23:06:39.608Z</time>
      </trkpt>
      <trkpt lat="50.51214" lon="3.51479">
        <ele>22.792777</ele>
        <time>2021-06-17T23:06:42.312Z</time>
      </trkpt>
      <trkpt lat="50.51226" lon="3.51449">
        <ele>22.736172</ele>
        <time>2021-06-17T23:06:45.649Z</time>
      </trkpt>
      <trkpt lat="50.51239" lon="3.51418">
        <ele>22.679436</ele>
        <time>2021-06-17T23:06:48.998Z</time>
      </trkpt>
      <trkpt lat="50.51244" lon="3.51405">
        <ele>22.654894</ele>
        <time>2021-06-17T23:06:50.550Z</time>
      </trkpt>
      <trkpt lat="50.51326" lon="3.51213">
        <ele>23.219697</ele>
        <time>2021-06-17T23:07:14.838Z</time>
      </trkpt>
      <trkpt lat="50.51339" lon="3.51141">
        <ele>23.432428</ele>
        <time>2021-06-17T23:07:23.109Z</time>
      </trkpt>
      <trkpt lat="50.51347" lon="3.51036">
        <ele>23.846722</ele>
        <time>2021-06-17T23:07:34.824Z</time>
      </trkpt>
      <trkpt lat="50.5137" lon="3.50913">
        <ele>24.345356</ele>
        <time>2021-06-17T23:07:48.847Z</time>
      </trkpt>
      <trkpt lat="50.51382" lon="3.50734">
        <ele>25.04102</ele>
        <time>2021-06-17T23:08:09.020Z</time>
      </trkpt>
      <trkpt lat="50.51385" lon="3.50682">
        <ele>25.241898</ele>
        <time>2021-06-17T23:08:14.785Z</time>
      </trkpt>
      <trkpt lat="50.51383" lon="3.50594">
        <ele>25.58047</ele>
        <time>2021-06-17T23:08:24.453Z</time>
      </trkpt>
      <trkpt lat="50.51413" lon="3.50213">
        <ele>25.828235</ele>
        <time>2021-06-17T23:09:02.965Z</time>
      </trkpt>
      <trkpt lat="50.51429" lon="3.50165">
        <ele>25.695596</ele>
        <time>2021-06-17T23:09:07.449Z</time>
      </trkpt>
      <trkpt lat="50.51429" lon="3.5015">
        <ele>25.65926</ele>
        <time>2021-06-17T23:09:08.759Z</time>
      </trkpt>
      <trkpt lat="50.51417" lon="3.50101">
        <ele>25.531672</ele>
        <time>2021-06-17T23:09:12.946Z</time>
      </trkpt>
      <trkpt lat="50.51394" lon="3.50042">
        <ele>25.358011</ele>
        <time>2021-06-17T23:09:18.618Z</time>
      </trkpt>
      <trkpt lat="50.51388" lon="3.50031">
        <ele>25.290744</ele>
        <time>2021-06-17T23:09:19.706Z</time>
      </trkpt>
      <trkpt lat="50.51365" lon="3.50016">
        <ele>25.116827</ele>
        <time>2021-06-17T23:09:22.910Z</time>
      </trkpt>
      <trkpt lat="50.51361" lon="3.50011">
        <ele>25.078527</ele>
        <time>2021-06-17T23:09:23.553Z</time>
      </trkpt>
      <trkpt lat="50.51349" lon="3.49997">
        <ele>24.973684</ele>
        <time>2021-06-17T23:09:25.349Z</time>
      </trkpt>
      <trkpt lat="50.51329" lon="3.49959">
        <ele>24.746042</ele>
        <time>2021-06-17T23:09:29.396Z</time>
      </trkpt>
      <trkpt lat="50.51322" lon="3.49943">
        <ele>24.661711</ele>
        <time>2021-06-17T23:09:30.936Z</time>
      </trkpt>
      <trkpt lat="50.51323" lon="3.49797">
        <ele>23.999635</ele>
        <time>2021-06-17T23:09:43.030Z</time>
      </trkpt>
      <trkpt lat="50.51322" lon="3.49739">
        <ele>23.732873</ele>
        <time>2021-06-17T23:09:47.923Z</time>
      </trkpt>
      <trkpt lat="50.51308" lon="3.49699">
        <ele>23.525028</ele>
        <time>2021-06-17T23:09:51.615Z</time>
      </trkpt>
      <trkpt lat="50.5129" lon="3.49667">
        <ele>23.330965</ele>
        <time>2021-06-17T23:09:55.097Z</time>
      </trkpt>
      <trkpt lat="50.51284" lon="3.49655">
        <ele>23.255242</ele>
        <time>2021-06-17T23:09:56.428Z</time>
      </trkpt>
      <trkpt lat="50.51281" lon="3.49649">
        <ele>23.222868</ele>
        <time>2021-06-17T23:09:56.980Z</time>
      </trkpt>
      <trkpt lat="50.51271" lon="3.4958">
        <ele>22.896966</ele>
        <time>2021-06-17T23:10:02.699Z</time>
      </trkpt>
      <trkpt lat="50.51269" lon="3.49574">
        <ele>22.863222</ele>
        <time>2021-06-17T23:10:03.266Z</time>
      </trkpt>
      <trkpt lat="50.51219" lon="3.4955">
        <ele>22.459043</ele>
        <time>2021-06-17T23:10:09.734Z</time>
      </trkpt>
      <trkpt lat="50.51187" lon="3.49526">
        <ele>22.185527</ele>
        <time>2021-06-17T23:10:14.014Z</time>
      </trkpt>
      <trkpt lat="50.51121" lon="3.49492">
        <ele>21.639583</ele>
        <time>2021-06-17T23:10:22.567Z</time>
      </trkpt>
      <trkpt lat="50.51048" lon="3.49357">
        <ele>21.54197</ele>
        <time>2021-06-17T23:10:38.332Z</time>
      </trkpt>
      <trkpt lat="50.51039" lon="3.49338">
        <ele>21.573359</ele>
        <time>2021-06-17T23:10:40.687Z</time>
      </trkpt>
      <trkpt lat="50.5104" lon="3.49284">
        <ele>21.645498</ele>
        <time>2021-06-17T23:10:46.366Z</time>
      </trkpt>
      <trkpt lat="50.51084" lon="3.49038">
        <ele>22.642593</ele>
        <time>2021-06-17T23:11:16.364Z</time>
      </trkpt>
      <trkpt lat="50.5114" lon="3.48908">
        <ele>23.18121</ele>
        <time>2021-06-17T23:11:34.402Z</time>
      </trkpt>
      <trkpt lat="50.51144" lon="3.48878">
        <ele>23.175553</ele>
        <time>2021-06-17T23:11:37.176Z</time>
      </trkpt>
      <trkpt lat="50.5114" lon="3.48867">
        <ele>23.173303</ele>
        <time>2021-06-17T23:11:38.719Z</time>
      </trkpt>
      <trkpt lat="50.51135" lon="3.4885">
        <ele>23.169684</ele>
        <time>2021-06-17T23:11:40.476Z</time>
      </trkpt>
      <trkpt lat="50.51113" lon="3.48814">
        <ele>23.160305</ele>
        <time>2021-06-17T23:11:45.337Z</time>
      </trkpt>
      <trkpt lat="50.51096" lon="3.4873">
        <ele>23.143765</ele>
        <time>2021-06-17T23:11:52.756Z</time>
      </trkpt>
      <trkpt lat="50.5108" lon="3.48708">
        <ele>23.136425</ele>
        <time>2021-06-17T23:11:55.582Z</time>
      </trkpt>
      <trkpt lat="50.51065" lon="3.48691">
        <ele>22.999395</ele>
        <time>2021-06-17T23:11:57.847Z</time>
      </trkpt>
      <trkpt lat="50.51084" lon="3.48625">
        <ele>22.649707</ele>
        <time>2021-06-17T23:12:03.500Z</time>
      </trkpt>
      <trkpt lat="50.51087" lon="3.48604">
        <ele>22.544531</ele>
        <time>2021-06-17T23:12:05.130Z</time>
      </trkpt>
      <trkpt lat="50.51082" lon="3.48534">
        <ele>22.202248</ele>
        <time>2021-06-17T23:12:10.753Z</time>
      </trkpt>
      <trkpt lat="50.5108" lon="3.48506">
        <ele>22.066382</ele>
        <time>2021-06-17T23:12:13.027Z</time>
      </trkpt>
      <trkpt lat="50.51082" lon="3.4846">
        <ele>21.841428</ele>
        <time>2021-06-17T23:12:16.842Z</time>
      </trkpt>
      <trkpt lat="50.51087" lon="3.48377">
        <ele>21.69078</ele>
        <time>2021-06-17T23:12:23.854Z</time>
      </trkpt>
      <trkpt lat="50.51092" lon="3.48355">
        <ele>21.665063</ele>
        <time>2021-06-17T23:12:25.993Z</time>
      </trkpt>
      <trkpt lat="50.511" lon="3.48334">
        <ele>21.639463</ele>
        <time>2021-06-17T23:12:28.046Z</time>
      </trkpt>
      <trkpt lat="50.5112" lon="3.48278">
        <ele>21.569652</ele>
        <time>2021-06-17T23:12:34.070Z</time>
      </trkpt>
      <trkpt lat="50.5113" lon="3.48251">
        <ele>21.535188</ele>
        <time>2021-06-17T23:12:37.340Z</time>
      </trkpt>
      <trkpt lat="50.51135" lon="3.48237">
        <ele>21.518548</ele>
        <time>2021-06-17T23:12:38.787Z</time>
      </trkpt>
      <trkpt lat="50.51143" lon="3.48169">
        <ele>21.457356</ele>
        <time>2021-06-17T23:12:45.413Z</time>
      </trkpt>
      <trkpt lat="50.51138" lon="3.48111">
        <ele>21.455894</ele>
        <time>2021-06-17T23:12:51.001Z</time>
      </trkpt>
      <trkpt lat="50.51132" lon="3.48019">
        <ele>21.453583</ele>
        <time>2021-06-17T23:12:59.691Z</time>
      </trkpt>
      <trkpt lat="50.51129" lon="3.48001">
        <ele>21.45312</ele>
        <time>2021-06-17T23:13:01.246Z</time>
      </trkpt>
      <trkpt lat="50.51125" lon="3.47964">
        <ele>21.452179</ele>
        <time>2021-06-17T23:13:04.966Z</time>
      </trkpt>
      <trkpt lat="50.51122" lon="3.47856">
        <ele>21.539112</ele>
        <time>2021-06-17T23:13:15.367Z</time>
      </trkpt>
      <trkpt lat="50.51109" lon="3.47824">
        <ele>21.613329</ele>
        <time>2021-06-17T23:13:18.821Z</time>
      </trkpt>
      <trkpt lat="50.5109" lon="3.47798">
        <ele>21.688982</ele>
        <time>2021-06-17T23:13:22.859Z</time>
      </trkpt>
      <trkpt lat="50.51082" lon="3.47786">
        <ele>21.723551</ele>
        <time>2021-06-17T23:13:24.442Z</time>
      </trkpt>
      <trkpt lat="50.5108" lon="3.47774">
        <ele>21.746698</ele>
        <time>2021-06-17T23:13:25.920Z</time>
      </trkpt>
      <trkpt lat="50.51104" lon="3.47687">
        <ele>21.931469</ele>
        <time>2021-06-17T23:13:35.789Z</time>
      </trkpt>
      <trkpt lat="50.51109" lon="3.47654">
        <ele>21.997194</ele>
        <time>2021-06-17T23:13:39.656Z</time>
      </trkpt>
      <trkpt lat="50.5111" lon="3.47622">
        <ele>21.999744</ele>
        <time>2021-06-17T23:13:42.976Z</time>
      </trkpt>
      <trkpt lat="50.51104" lon="3.47596">
        <ele>21.999744</ele>
        <time>2021-06-17T23:13:46.264Z</time>
      </trkpt>
      <trkpt lat="50.51082" lon="3.4755">
        <ele>21.999744</ele>
        <time>2021-06-17T23:13:52.723Z</time>
      </trkpt>
      <trkpt lat="50.51016" lon="3.47475">
        <ele>21.999744</ele>
        <time>2021-06-17T23:14:06.529Z</time>
      </trkpt>
      <trkpt lat="50.51006" lon="3.47445">
        <ele>21.999744</ele>
        <time>2021-06-17T23:14:10.110Z</time>
      </trkpt>
    </trkseg>
  </trk>
</gpx>